<?xml version='1.0' encoding='UTF-8'?><gpx version="1.1" creator="JPX - https://github.com/jenetics/jpx" xmlns="http://www.topografix.com/GPX/1/1"><trk><trkseg><trkpt lat="44.3971347" lon="8.4094057"><ele>653.0</ele><time>2026-04-30T09:57:37.939Z</time></trkpt><trkpt lat="44.3971903" lon="8.4093138"><ele>653.0</ele><time>2026-04-30T09:57:40.94Z</time></trkpt><trkpt lat="44.3972158" lon="8.4092245"><ele>653.0</ele><time>2026-04-30T09:57:42.941Z</time></trkpt><trkpt lat="44.3972528" lon="8.4091143"><ele>653.0</ele><time>2026-04-30T09:57:45.943Z</time></trkpt><trkpt lat="44.3972027" lon="8.4090068"><ele>653.0</ele><time>2026-04-30T09:57:47.94Z</time></trkpt><trkpt lat="44.3971545" lon="8.4089382"><ele>653.0</ele><time>2026-04-30T09:57:48.944Z</time></trkpt><trkpt lat="44.3970867" lon="8.408867"><ele>650.0</ele><time>2026-04-30T09:57:49.95Z</time></trkpt><trkpt lat="44.3970133" lon="8.4087928"><ele>647.0</ele><time>2026-04-30T09:57:50.94Z</time></trkpt><trkpt lat="44.3969285" lon="8.408734"><ele>644.0</ele><time>2026-04-30T09:57:51.944Z</time></trkpt><trkpt lat="44.396842" lon="8.4086863"><ele>641.0</ele><time>2026-04-30T09:57:52.941Z</time></trkpt><trkpt lat="44.3967525" lon="8.4086412"><ele>638.0</ele><time>2026-04-30T09:57:53.939Z</time></trkpt><trkpt lat="44.3966627" lon="8.4085972"><ele>638.0</ele><time>2026-04-30T09:57:54.944Z</time></trkpt><trkpt lat="44.3965693" lon="8.4085408"><ele>638.0</ele><time>2026-04-30T09:57:55.946Z</time></trkpt><trkpt lat="44.3964782" lon="8.4084778"><ele>638.0</ele><time>2026-04-30T09:57:56.941Z</time></trkpt><trkpt lat="44.3963838" lon="8.4084053"><ele>638.0</ele><time>2026-04-30T09:57:57.942Z</time></trkpt><trkpt lat="44.3962947" lon="8.4083213"><ele>638.0</ele><time>2026-04-30T09:57:58.941Z</time></trkpt><trkpt lat="44.396216" lon="8.408212"><ele>639.5</ele><time>2026-04-30T09:57:59.941Z</time></trkpt><trkpt lat="44.3961413" lon="8.4080907"><ele>641.0</ele><time>2026-04-30T09:58:00.945Z</time></trkpt><trkpt lat="44.3960688" lon="8.407956"><ele>642.5</ele><time>2026-04-30T09:58:01.94Z</time></trkpt><trkpt lat="44.395998" lon="8.4078082"><ele>644.0</ele><time>2026-04-30T09:58:02.943Z</time></trkpt><trkpt lat="44.3959268" lon="8.4076518"><ele>644.0</ele><time>2026-04-30T09:58:03.939Z</time></trkpt><trkpt lat="44.3958623" lon="8.4074872"><ele>644.0</ele><time>2026-04-30T09:58:04.943Z</time></trkpt><trkpt lat="44.395788" lon="8.4073307"><ele>644.0</ele><time>2026-04-30T09:58:05.941Z</time></trkpt><trkpt lat="44.3957047" lon="8.4071728"><ele>644.0</ele><time>2026-04-30T09:58:06.944Z</time></trkpt><trkpt lat="44.395612" lon="8.4070202"><ele>644.0</ele><time>2026-04-30T09:58:07.945Z</time></trkpt><trkpt lat="44.3955053" lon="8.4068782"><ele>644.0</ele><time>2026-04-30T09:58:08.943Z</time></trkpt><trkpt lat="44.395393" lon="8.4067488"><ele>644.0</ele><time>2026-04-30T09:58:09.946Z</time></trkpt><trkpt lat="44.3952755" lon="8.4066268"><ele>644.0</ele><time>2026-04-30T09:58:10.943Z</time></trkpt><trkpt lat="44.3951542" lon="8.4065282"><ele>645.5</ele><time>2026-04-30T09:58:11.942Z</time></trkpt><trkpt lat="44.3950258" lon="8.4064428"><ele>647.0</ele><time>2026-04-30T09:58:12.945Z</time></trkpt><trkpt lat="44.3948912" lon="8.4063852"><ele>648.5</ele><time>2026-04-30T09:58:13.941Z</time></trkpt><trkpt lat="44.3947548" lon="8.4063388"><ele>650.0</ele><time>2026-04-30T09:58:14.942Z</time></trkpt><trkpt lat="44.3946155" lon="8.4063068"><ele>650.25</ele><time>2026-04-30T09:58:15.947Z</time></trkpt><trkpt lat="44.3944772" lon="8.4062807"><ele>650.5</ele><time>2026-04-30T09:58:16.942Z</time></trkpt><trkpt lat="44.3943312" lon="8.4062657"><ele>650.75</ele><time>2026-04-30T09:58:17.945Z</time></trkpt><trkpt lat="44.3941907" lon="8.406271"><ele>651.0</ele><time>2026-04-30T09:58:18.94Z</time></trkpt><trkpt lat="44.3940472" lon="8.4062845"><ele>651.0</ele><time>2026-04-30T09:58:19.945Z</time></trkpt><trkpt lat="44.3938978" lon="8.4063065"><ele>651.0</ele><time>2026-04-30T09:58:20.943Z</time></trkpt><trkpt lat="44.3937495" lon="8.4063368"><ele>651.0</ele><time>2026-04-30T09:58:21.944Z</time></trkpt><trkpt lat="44.3936023" lon="8.4063483"><ele>651.0</ele><time>2026-04-30T09:58:22.94Z</time></trkpt><trkpt lat="44.3934588" lon="8.406305"><ele>649.6666666666666</ele><time>2026-04-30T09:58:23.942Z</time></trkpt><trkpt lat="44.3933238" lon="8.4062252"><ele>648.3333333333333</ele><time>2026-04-30T09:58:24.941Z</time></trkpt><trkpt lat="44.3931902" lon="8.4061313"><ele>647.0</ele><time>2026-04-30T09:58:25.941Z</time></trkpt><trkpt lat="44.3930515" lon="8.4060358"><ele>649.6666666666666</ele><time>2026-04-30T09:58:26.94Z</time></trkpt><trkpt lat="44.3929107" lon="8.4059412"><ele>652.3333333333334</ele><time>2026-04-30T09:58:27.945Z</time></trkpt><trkpt lat="44.392776" lon="8.4058603"><ele>655.0</ele><time>2026-04-30T09:58:28.941Z</time></trkpt><trkpt lat="44.3926437" lon="8.4057667"><ele>655.0</ele><time>2026-04-30T09:58:29.945Z</time></trkpt><trkpt lat="44.3925085" lon="8.4056785"><ele>655.0</ele><time>2026-04-30T09:58:30.941Z</time></trkpt><trkpt lat="44.3923783" lon="8.4055798"><ele>655.0</ele><time>2026-04-30T09:58:31.948Z</time></trkpt><trkpt lat="44.3922537" lon="8.4054577"><ele>655.0</ele><time>2026-04-30T09:58:32.942Z</time></trkpt><trkpt lat="44.39214" lon="8.4053185"><ele>657.0</ele><time>2026-04-30T09:58:33.943Z</time></trkpt><trkpt lat="44.3920283" lon="8.4051668"><ele>659.0</ele><time>2026-04-30T09:58:34.94Z</time></trkpt><trkpt lat="44.3919335" lon="8.4050057"><ele>661.0</ele><time>2026-04-30T09:58:35.946Z</time></trkpt><trkpt lat="44.3918473" lon="8.404824"><ele>658.75</ele><time>2026-04-30T09:58:36.939Z</time></trkpt><trkpt lat="44.3917685" lon="8.4046555"><ele>656.5</ele><time>2026-04-30T09:58:37.946Z</time></trkpt><trkpt lat="44.3916883" lon="8.4044833"><ele>654.25</ele><time>2026-04-30T09:58:38.941Z</time></trkpt><trkpt lat="44.3916068" lon="8.4043165"><ele>652.0</ele><time>2026-04-30T09:58:39.94Z</time></trkpt><trkpt lat="44.3915177" lon="8.4041698"><ele>652.0</ele><time>2026-04-30T09:58:40.942Z</time></trkpt><trkpt lat="44.3914258" lon="8.4040272"><ele>652.0</ele><time>2026-04-30T09:58:41.95Z</time></trkpt><trkpt lat="44.3913082" lon="8.4039047"><ele>652.0</ele><time>2026-04-30T09:58:42.94Z</time></trkpt><trkpt lat="44.3911953" lon="8.403793"><ele>652.0</ele><time>2026-04-30T09:58:43.944Z</time></trkpt><trkpt lat="44.3910813" lon="8.4036897"><ele>651.8333333333334</ele><time>2026-04-30T09:58:44.955Z</time></trkpt><trkpt lat="44.3909808" lon="8.4036163"><ele>651.6666666666667</ele><time>2026-04-30T09:58:45.94Z</time></trkpt><trkpt lat="44.3909025" lon="8.4035668"><ele>651.5</ele><time>2026-04-30T09:58:46.94Z</time></trkpt><trkpt lat="44.39083" lon="8.4035145"><ele>651.3333333333334</ele><time>2026-04-30T09:58:47.94Z</time></trkpt><trkpt lat="44.3907555" lon="8.4034525"><ele>651.1666666666666</ele><time>2026-04-30T09:58:48.941Z</time></trkpt><trkpt lat="44.3906852" lon="8.4034033"><ele>651.0</ele><time>2026-04-30T09:58:49.941Z</time></trkpt><trkpt lat="44.3906175" lon="8.403359"><ele>651.0</ele><time>2026-04-30T09:58:50.938Z</time></trkpt><trkpt lat="44.3905485" lon="8.4033103"><ele>651.0</ele><time>2026-04-30T09:58:51.941Z</time></trkpt><trkpt lat="44.3904775" lon="8.403263"><ele>651.0</ele><time>2026-04-30T09:58:52.941Z</time></trkpt><trkpt lat="44.3904097" lon="8.4032175"><ele>651.0</ele><time>2026-04-30T09:58:53.942Z</time></trkpt><trkpt lat="44.3903523" lon="8.4031795"><ele>651.0</ele><time>2026-04-30T09:58:54.941Z</time></trkpt><trkpt lat="44.3902487" lon="8.4031105"><ele>651.0</ele><time>2026-04-30T09:58:56.943Z</time></trkpt><trkpt lat="44.390138" lon="8.4030375"><ele>652.1999999999999</ele><time>2026-04-30T09:58:58.94Z</time></trkpt><trkpt lat="44.3900142" lon="8.402958"><ele>653.4</ele><time>2026-04-30T09:59:00.942Z</time></trkpt><trkpt lat="44.3899467" lon="8.4029083"><ele>654.6</ele><time>2026-04-30T09:59:01.94Z</time></trkpt><trkpt lat="44.3898732" lon="8.4028578"><ele>655.8</ele><time>2026-04-30T09:59:02.939Z</time></trkpt><trkpt lat="44.3897943" lon="8.4028197"><ele>657.0</ele><time>2026-04-30T09:59:03.945Z</time></trkpt><trkpt lat="44.3897072" lon="8.4027815"><ele>658.0</ele><time>2026-04-30T09:59:04.942Z</time></trkpt><trkpt lat="44.3896088" lon="8.4027313"><ele>659.0</ele><time>2026-04-30T09:59:05.946Z</time></trkpt><trkpt lat="44.3895118" lon="8.4026738"><ele>660.0</ele><time>2026-04-30T09:59:06.941Z</time></trkpt><trkpt lat="44.389401" lon="8.4026248"><ele>661.0</ele><time>2026-04-30T09:59:07.948Z</time></trkpt><trkpt lat="44.389282" lon="8.4025873"><ele>662.0</ele><time>2026-04-30T09:59:08.939Z</time></trkpt><trkpt lat="44.3891497" lon="8.4025553"><ele>662.0</ele><time>2026-04-30T09:59:09.945Z</time></trkpt><trkpt lat="44.3890103" lon="8.4025278"><ele>662.0</ele><time>2026-04-30T09:59:10.942Z</time></trkpt><trkpt lat="44.3888735" lon="8.402489"><ele>662.0</ele><time>2026-04-30T09:59:11.944Z</time></trkpt><trkpt lat="44.3887407" lon="8.4024195"><ele>662.0</ele><time>2026-04-30T09:59:12.94Z</time></trkpt><trkpt lat="44.3886057" lon="8.40233"><ele>664.75</ele><time>2026-04-30T09:59:13.945Z</time></trkpt><trkpt lat="44.3884693" lon="8.4022692"><ele>667.5</ele><time>2026-04-30T09:59:14.945Z</time></trkpt><trkpt lat="44.3883318" lon="8.4022328"><ele>670.25</ele><time>2026-04-30T09:59:15.946Z</time></trkpt><trkpt lat="44.3881942" lon="8.4022295"><ele>673.0</ele><time>2026-04-30T09:59:16.941Z</time></trkpt><trkpt lat="44.3880483" lon="8.4022783"><ele>676.0</ele><time>2026-04-30T09:59:17.94Z</time></trkpt><trkpt lat="44.3879308" lon="8.4023637"><ele>679.0</ele><time>2026-04-30T09:59:18.943Z</time></trkpt><trkpt lat="44.3878325" lon="8.4024955"><ele>682.0</ele><time>2026-04-30T09:59:19.942Z</time></trkpt><trkpt lat="44.387747" lon="8.4025995"><ele>685.0</ele><time>2026-04-30T09:59:20.943Z</time></trkpt><trkpt lat="44.3876695" lon="8.4026333"><ele>685.0</ele><time>2026-04-30T09:59:21.938Z</time></trkpt><trkpt lat="44.3875963" lon="8.4025923"><ele>685.0</ele><time>2026-04-30T09:59:22.943Z</time></trkpt><trkpt lat="44.387535" lon="8.4025135"><ele>685.0</ele><time>2026-04-30T09:59:23.941Z</time></trkpt><trkpt lat="44.387494" lon="8.4024062"><ele>685.0</ele><time>2026-04-30T09:59:24.941Z</time></trkpt><trkpt lat="44.3874735" lon="8.4022662"><ele>685.0</ele><time>2026-04-30T09:59:25.94Z</time></trkpt><trkpt lat="44.3874568" lon="8.4021118"><ele>686.25</ele><time>2026-04-30T09:59:26.942Z</time></trkpt><trkpt lat="44.3874148" lon="8.4019565"><ele>687.5</ele><time>2026-04-30T09:59:27.943Z</time></trkpt><trkpt lat="44.3873428" lon="8.4018173"><ele>688.75</ele><time>2026-04-30T09:59:28.942Z</time></trkpt><trkpt lat="44.387242" lon="8.4016883"><ele>690.0</ele><time>2026-04-30T09:59:29.946Z</time></trkpt><trkpt lat="44.3871323" lon="8.4015555"><ele>690.0</ele><time>2026-04-30T09:59:30.942Z</time></trkpt><trkpt lat="44.387013" lon="8.4014223"><ele>690.0</ele><time>2026-04-30T09:59:31.945Z</time></trkpt><trkpt lat="44.3868923" lon="8.4013165"><ele>690.0</ele><time>2026-04-30T09:59:32.946Z</time></trkpt><trkpt lat="44.3867475" lon="8.4012603"><ele>690.0</ele><time>2026-04-30T09:59:33.94Z</time></trkpt><trkpt lat="44.3866048" lon="8.4012262"><ele>690.0</ele><time>2026-04-30T09:59:34.941Z</time></trkpt><trkpt lat="44.3864763" lon="8.401231"><ele>690.0</ele><time>2026-04-30T09:59:35.94Z</time></trkpt><trkpt lat="44.3863735" lon="8.4012912"><ele>690.0</ele><time>2026-04-30T09:59:36.942Z</time></trkpt><trkpt lat="44.386301" lon="8.4014133"><ele>690.0</ele><time>2026-04-30T09:59:37.944Z</time></trkpt><trkpt lat="44.3862538" lon="8.4015605"><ele>690.0</ele><time>2026-04-30T09:59:38.938Z</time></trkpt><trkpt lat="44.386193" lon="8.4016617"><ele>690.0</ele><time>2026-04-30T09:59:39.942Z</time></trkpt><trkpt lat="44.3861113" lon="8.4017148"><ele>690.0</ele><time>2026-04-30T09:59:40.939Z</time></trkpt><trkpt lat="44.386024" lon="8.4017003"><ele>690.0</ele><time>2026-04-30T09:59:41.945Z</time></trkpt><trkpt lat="44.3859462" lon="8.4017023"><ele>690.0</ele><time>2026-04-30T09:59:42.941Z</time></trkpt><trkpt lat="44.3858635" lon="8.4017257"><ele>690.0</ele><time>2026-04-30T09:59:43.944Z</time></trkpt><trkpt lat="44.3857977" lon="8.4017857"><ele>690.0</ele><time>2026-04-30T09:59:44.943Z</time></trkpt><trkpt lat="44.3857425" lon="8.4018892"><ele>690.0</ele><time>2026-04-30T09:59:45.943Z</time></trkpt><trkpt lat="44.385702" lon="8.4020362"><ele>690.0</ele><time>2026-04-30T09:59:46.94Z</time></trkpt><trkpt lat="44.3856903" lon="8.4022013"><ele>690.0</ele><time>2026-04-30T09:59:47.943Z</time></trkpt><trkpt lat="44.3856813" lon="8.4023697"><ele>690.0</ele><time>2026-04-30T09:59:48.943Z</time></trkpt><trkpt lat="44.3856493" lon="8.4025288"><ele>689.75</ele><time>2026-04-30T09:59:49.944Z</time></trkpt><trkpt lat="44.3855778" lon="8.402656"><ele>689.5</ele><time>2026-04-30T09:59:50.942Z</time></trkpt><trkpt lat="44.3854668" lon="8.4027452"><ele>689.25</ele><time>2026-04-30T09:59:51.948Z</time></trkpt><trkpt lat="44.3853517" lon="8.4028318"><ele>689.0</ele><time>2026-04-30T09:59:52.943Z</time></trkpt><trkpt lat="44.385239" lon="8.4029197"><ele>693.0</ele><time>2026-04-30T09:59:53.943Z</time></trkpt><trkpt lat="44.3851253" lon="8.4030045"><ele>697.0</ele><time>2026-04-30T09:59:54.94Z</time></trkpt><trkpt lat="44.3850057" lon="8.4030912"><ele>701.0</ele><time>2026-04-30T09:59:55.944Z</time></trkpt><trkpt lat="44.3848833" lon="8.4031687"><ele>705.0</ele><time>2026-04-30T09:59:56.939Z</time></trkpt><trkpt lat="44.3847567" lon="8.4032412"><ele>703.5</ele><time>2026-04-30T09:59:57.94Z</time></trkpt><trkpt lat="44.38463" lon="8.4033083"><ele>702.0</ele><time>2026-04-30T09:59:58.943Z</time></trkpt><trkpt lat="44.3844997" lon="8.403368"><ele>700.5</ele><time>2026-04-30T09:59:59.944Z</time></trkpt><trkpt lat="44.3843623" lon="8.4034178"><ele>699.0</ele><time>2026-04-30T10:00:00.942Z</time></trkpt><trkpt lat="44.3842313" lon="8.4034655"><ele>699.0</ele><time>2026-04-30T10:00:01.945Z</time></trkpt><trkpt lat="44.384097" lon="8.4035172"><ele>699.0</ele><time>2026-04-30T10:00:02.942Z</time></trkpt><trkpt lat="44.383958" lon="8.4035647"><ele>699.0</ele><time>2026-04-30T10:00:03.947Z</time></trkpt><trkpt lat="44.383822" lon="8.403599"><ele>699.0</ele><time>2026-04-30T10:00:04.94Z</time></trkpt><trkpt lat="44.3836865" lon="8.4036298"><ele>698.0</ele><time>2026-04-30T10:00:05.945Z</time></trkpt><trkpt lat="44.3835488" lon="8.40366"><ele>697.0</ele><time>2026-04-30T10:00:06.94Z</time></trkpt><trkpt lat="44.3834157" lon="8.4036918"><ele>696.0</ele><time>2026-04-30T10:00:07.946Z</time></trkpt><trkpt lat="44.383275" lon="8.4037325"><ele>695.0</ele><time>2026-04-30T10:00:08.94Z</time></trkpt><trkpt lat="44.3831438" lon="8.4037855"><ele>698.25</ele><time>2026-04-30T10:00:09.944Z</time></trkpt><trkpt lat="44.3830137" lon="8.4038498"><ele>701.5</ele><time>2026-04-30T10:00:10.941Z</time></trkpt><trkpt lat="44.3828873" lon="8.403931"><ele>704.75</ele><time>2026-04-30T10:00:11.942Z</time></trkpt><trkpt lat="44.3827598" lon="8.4040278"><ele>708.0</ele><time>2026-04-30T10:00:12.94Z</time></trkpt><trkpt lat="44.3826467" lon="8.4041203"><ele>708.0</ele><time>2026-04-30T10:00:13.941Z</time></trkpt><trkpt lat="44.3825608" lon="8.4042182"><ele>708.0</ele><time>2026-04-30T10:00:14.945Z</time></trkpt><trkpt lat="44.382473" lon="8.4042945"><ele>708.0</ele><time>2026-04-30T10:00:15.941Z</time></trkpt><trkpt lat="44.3823942" lon="8.404368"><ele>708.0</ele><time>2026-04-30T10:00:16.948Z</time></trkpt><trkpt lat="44.382311" lon="8.40444"><ele>708.0</ele><time>2026-04-30T10:00:17.94Z</time></trkpt><trkpt lat="44.3822107" lon="8.4045105"><ele>708.5</ele><time>2026-04-30T10:00:18.944Z</time></trkpt><trkpt lat="44.3821103" lon="8.4045752"><ele>709.0</ele><time>2026-04-30T10:00:19.939Z</time></trkpt><trkpt lat="44.3819952" lon="8.404625"><ele>709.5</ele><time>2026-04-30T10:00:20.947Z</time></trkpt><trkpt lat="44.3818743" lon="8.4046592"><ele>710.0</ele><time>2026-04-30T10:00:21.942Z</time></trkpt><trkpt lat="44.3817502" lon="8.4046875"><ele>712.5</ele><time>2026-04-30T10:00:22.947Z</time></trkpt><trkpt lat="44.381618" lon="8.4047097"><ele>715.0</ele><time>2026-04-30T10:00:23.939Z</time></trkpt><trkpt lat="44.381488" lon="8.4047282"><ele>717.5</ele><time>2026-04-30T10:00:24.946Z</time></trkpt><trkpt lat="44.3813548" lon="8.4047365"><ele>720.0</ele><time>2026-04-30T10:00:25.949Z</time></trkpt><trkpt lat="44.3812183" lon="8.40473"><ele>720.0</ele><time>2026-04-30T10:00:26.941Z</time></trkpt><trkpt lat="44.3810798" lon="8.4047252"><ele>720.0</ele><time>2026-04-30T10:00:27.945Z</time></trkpt><trkpt lat="44.380938" lon="8.4047257"><ele>720.0</ele><time>2026-04-30T10:00:28.939Z</time></trkpt><trkpt lat="44.380796" lon="8.4047603"><ele>720.0</ele><time>2026-04-30T10:00:29.946Z</time></trkpt><trkpt lat="44.3806573" lon="8.4048105"><ele>720.0</ele><time>2026-04-30T10:00:30.941Z</time></trkpt><trkpt lat="44.380517" lon="8.4048577"><ele>720.0</ele><time>2026-04-30T10:00:31.946Z</time></trkpt><trkpt lat="44.3803807" lon="8.4049155"><ele>720.0</ele><time>2026-04-30T10:00:32.943Z</time></trkpt><trkpt lat="44.3802415" lon="8.4049645"><ele>720.0</ele><time>2026-04-30T10:00:33.944Z</time></trkpt><trkpt lat="44.380108" lon="8.405005"><ele>720.0</ele><time>2026-04-30T10:00:34.942Z</time></trkpt><trkpt lat="44.3799712" lon="8.4050532"><ele>720.0</ele><time>2026-04-30T10:00:35.943Z</time></trkpt><trkpt lat="44.3798425" lon="8.4051072"><ele>720.0</ele><time>2026-04-30T10:00:36.943Z</time></trkpt><trkpt lat="44.3797198" lon="8.4051712"><ele>720.0</ele><time>2026-04-30T10:00:37.943Z</time></trkpt><trkpt lat="44.3796178" lon="8.4052887"><ele>717.75</ele><time>2026-04-30T10:00:38.942Z</time></trkpt><trkpt lat="44.3795335" lon="8.4054223"><ele>715.5</ele><time>2026-04-30T10:00:39.94Z</time></trkpt><trkpt lat="44.3794622" lon="8.4055802"><ele>713.25</ele><time>2026-04-30T10:00:40.943Z</time></trkpt><trkpt lat="44.379395" lon="8.405746"><ele>711.0</ele><time>2026-04-30T10:00:41.943Z</time></trkpt><trkpt lat="44.3793368" lon="8.405914"><ele>711.0</ele><time>2026-04-30T10:00:42.941Z</time></trkpt><trkpt lat="44.3792785" lon="8.4060768"><ele>711.0</ele><time>2026-04-30T10:00:43.948Z</time></trkpt><trkpt lat="44.3792227" lon="8.4062355"><ele>711.0</ele><time>2026-04-30T10:00:44.942Z</time></trkpt><trkpt lat="44.3791713" lon="8.4063768"><ele>711.0</ele><time>2026-04-30T10:00:45.941Z</time></trkpt><trkpt lat="44.3791252" lon="8.406516"><ele>715.0</ele><time>2026-04-30T10:00:46.937Z</time></trkpt><trkpt lat="44.3790913" lon="8.4066487"><ele>719.0</ele><time>2026-04-30T10:00:47.942Z</time></trkpt><trkpt lat="44.3790648" lon="8.4067905"><ele>723.0</ele><time>2026-04-30T10:00:48.943Z</time></trkpt><trkpt lat="44.379053" lon="8.4069425"><ele>727.0</ele><time>2026-04-30T10:00:49.944Z</time></trkpt><trkpt lat="44.3790635" lon="8.4070995"><ele>731.0</ele><time>2026-04-30T10:00:50.952Z</time></trkpt><trkpt lat="44.3790855" lon="8.4072603"><ele>734.3333333333333</ele><time>2026-04-30T10:00:51.943Z</time></trkpt><trkpt lat="44.3791387" lon="8.4075945"><ele>737.6666666666666</ele><time>2026-04-30T10:00:53.941Z</time></trkpt><trkpt lat="44.3791517" lon="8.4077618"><ele>741.0</ele><time>2026-04-30T10:00:54.94Z</time></trkpt><trkpt lat="44.3791383" lon="8.4079295"><ele>742.1666666666666</ele><time>2026-04-30T10:00:55.94Z</time></trkpt><trkpt lat="44.379106" lon="8.408076"><ele>743.3333333333334</ele><time>2026-04-30T10:00:56.944Z</time></trkpt><trkpt lat="44.3790553" lon="8.40818"><ele>744.5</ele><time>2026-04-30T10:00:57.94Z</time></trkpt><trkpt lat="44.3789922" lon="8.4082413"><ele>745.6666666666667</ele><time>2026-04-30T10:00:58.941Z</time></trkpt><trkpt lat="44.3789108" lon="8.4082338"><ele>746.8333333333334</ele><time>2026-04-30T10:00:59.942Z</time></trkpt><trkpt lat="44.3788433" lon="8.4081532"><ele>748.0</ele><time>2026-04-30T10:01:00.941Z</time></trkpt><trkpt lat="44.3787898" lon="8.4080337"><ele>748.0</ele><time>2026-04-30T10:01:01.949Z</time></trkpt><trkpt lat="44.3787498" lon="8.4079045"><ele>748.0</ele><time>2026-04-30T10:01:02.941Z</time></trkpt><trkpt lat="44.3787123" lon="8.4077627"><ele>748.0</ele><time>2026-04-30T10:01:03.946Z</time></trkpt><trkpt lat="44.3786635" lon="8.4076172"><ele>748.0</ele><time>2026-04-30T10:01:04.941Z</time></trkpt><trkpt lat="44.3786035" lon="8.4074772"><ele>748.0</ele><time>2026-04-30T10:01:05.942Z</time></trkpt><trkpt lat="44.3785293" lon="8.4073405"><ele>748.0</ele><time>2026-04-30T10:01:06.943Z</time></trkpt><trkpt lat="44.3784467" lon="8.4072045"><ele>748.0</ele><time>2026-04-30T10:01:07.942Z</time></trkpt><trkpt lat="44.3783498" lon="8.4070762"><ele>748.0</ele><time>2026-04-30T10:01:08.943Z</time></trkpt><trkpt lat="44.3782368" lon="8.4069668"><ele>748.0</ele><time>2026-04-30T10:01:09.942Z</time></trkpt><trkpt lat="44.3781062" lon="8.4068862"><ele>742.5</ele><time>2026-04-30T10:01:10.944Z</time></trkpt><trkpt lat="44.3779547" lon="8.4068517"><ele>737.0</ele><time>2026-04-30T10:01:11.941Z</time></trkpt><trkpt lat="44.3778117" lon="8.4068568"><ele>731.5</ele><time>2026-04-30T10:01:12.941Z</time></trkpt><trkpt lat="44.3776808" lon="8.406926"><ele>726.0</ele><time>2026-04-30T10:01:13.945Z</time></trkpt><trkpt lat="44.3775528" lon="8.407011"><ele>726.0</ele><time>2026-04-30T10:01:14.941Z</time></trkpt><trkpt lat="44.3774543" lon="8.4071355"><ele>726.0</ele><time>2026-04-30T10:01:15.948Z</time></trkpt><trkpt lat="44.3773783" lon="8.4072952"><ele>726.0</ele><time>2026-04-30T10:01:16.944Z</time></trkpt><trkpt lat="44.3773183" lon="8.4074643"><ele>726.0</ele><time>2026-04-30T10:01:17.946Z</time></trkpt><trkpt lat="44.3772532" lon="8.4076607"><ele>725.5</ele><time>2026-04-30T10:01:18.941Z</time></trkpt><trkpt lat="44.3771953" lon="8.4078493"><ele>725.0</ele><time>2026-04-30T10:01:19.943Z</time></trkpt><trkpt lat="44.3771367" lon="8.4080412"><ele>724.5</ele><time>2026-04-30T10:01:20.959Z</time></trkpt><trkpt lat="44.3770842" lon="8.4082395"><ele>724.0</ele><time>2026-04-30T10:01:21.94Z</time></trkpt><trkpt lat="44.3770508" lon="8.408445"><ele>724.0</ele><time>2026-04-30T10:01:22.945Z</time></trkpt><trkpt lat="44.3770185" lon="8.4086608"><ele>724.0</ele><time>2026-04-30T10:01:23.947Z</time></trkpt><trkpt lat="44.3769882" lon="8.4088697"><ele>724.0</ele><time>2026-04-30T10:01:24.954Z</time></trkpt><trkpt lat="44.3769553" lon="8.4090578"><ele>724.0</ele><time>2026-04-30T10:01:25.94Z</time></trkpt><trkpt lat="44.376917" lon="8.4092252"><ele>726.5</ele><time>2026-04-30T10:01:26.944Z</time></trkpt><trkpt lat="44.3768585" lon="8.4093678"><ele>729.0</ele><time>2026-04-30T10:01:27.941Z</time></trkpt><trkpt lat="44.376779" lon="8.4094788"><ele>731.5</ele><time>2026-04-30T10:01:28.944Z</time></trkpt><trkpt lat="44.3766742" lon="8.4095585"><ele>734.0</ele><time>2026-04-30T10:01:29.942Z</time></trkpt><trkpt lat="44.3765455" lon="8.4096205"><ele>734.0</ele><time>2026-04-30T10:01:30.945Z</time></trkpt><trkpt lat="44.3764073" lon="8.4096522"><ele>734.0</ele><time>2026-04-30T10:01:31.94Z</time></trkpt><trkpt lat="44.3762683" lon="8.4096698"><ele>734.0</ele><time>2026-04-30T10:01:32.947Z</time></trkpt><trkpt lat="44.3761282" lon="8.4096803"><ele>734.0</ele><time>2026-04-30T10:01:33.939Z</time></trkpt><trkpt lat="44.3759838" lon="8.4097038"><ele>734.25</ele><time>2026-04-30T10:01:34.944Z</time></trkpt><trkpt lat="44.3758382" lon="8.4097362"><ele>734.5</ele><time>2026-04-30T10:01:35.939Z</time></trkpt><trkpt lat="44.3756922" lon="8.4097783"><ele>734.75</ele><time>2026-04-30T10:01:36.943Z</time></trkpt><trkpt lat="44.3755483" lon="8.4098357"><ele>735.0</ele><time>2026-04-30T10:01:37.943Z</time></trkpt><trkpt lat="44.3754107" lon="8.4098927"><ele>735.0</ele><time>2026-04-30T10:01:38.945Z</time></trkpt><trkpt lat="44.3752888" lon="8.4099598"><ele>735.0</ele><time>2026-04-30T10:01:39.941Z</time></trkpt><trkpt lat="44.3751723" lon="8.41003"><ele>735.0</ele><time>2026-04-30T10:01:40.946Z</time></trkpt><trkpt lat="44.3750603" lon="8.4100943"><ele>735.0</ele><time>2026-04-30T10:01:41.94Z</time></trkpt><trkpt lat="44.3749513" lon="8.4101628"><ele>735.0</ele><time>2026-04-30T10:01:42.944Z</time></trkpt><trkpt lat="44.3748653" lon="8.4102217"><ele>735.0</ele><time>2026-04-30T10:01:43.938Z</time></trkpt><trkpt lat="44.3747915" lon="8.4102662"><ele>735.0</ele><time>2026-04-30T10:01:44.946Z</time></trkpt><trkpt lat="44.3747212" lon="8.410303"><ele>735.0</ele><time>2026-04-30T10:01:45.942Z</time></trkpt><trkpt lat="44.3746532" lon="8.4103372"><ele>735.0</ele><time>2026-04-30T10:01:46.946Z</time></trkpt><trkpt lat="44.3745867" lon="8.4103652"><ele>735.0</ele><time>2026-04-30T10:01:47.948Z</time></trkpt><trkpt lat="44.3744655" lon="8.4103865"><ele>733.0</ele><time>2026-04-30T10:01:49.945Z</time></trkpt><trkpt lat="44.3743507" lon="8.410408"><ele>731.0</ele><time>2026-04-30T10:01:51.946Z</time></trkpt><trkpt lat="44.3742348" lon="8.4104343"><ele>729.0</ele><time>2026-04-30T10:01:53.945Z</time></trkpt><trkpt lat="44.3741167" lon="8.4104467"><ele>727.0</ele><time>2026-04-30T10:01:55.945Z</time></trkpt><trkpt lat="44.374053" lon="8.4104553"><ele>725.0</ele><time>2026-04-30T10:01:56.942Z</time></trkpt><trkpt lat="44.3739377" lon="8.4104727"><ele>725.3333333333333</ele><time>2026-04-30T10:01:58.942Z</time></trkpt><trkpt lat="44.3738107" lon="8.4104713"><ele>725.6666666666666</ele><time>2026-04-30T10:02:00.943Z</time></trkpt><trkpt lat="44.3737453" lon="8.4104802"><ele>726.0</ele><time>2026-04-30T10:02:01.944Z</time></trkpt><trkpt lat="44.3736772" lon="8.4104823"><ele>726.3333333333334</ele><time>2026-04-30T10:02:02.941Z</time></trkpt><trkpt lat="44.3736048" lon="8.4104915"><ele>726.6666666666667</ele><time>2026-04-30T10:02:03.946Z</time></trkpt><trkpt lat="44.3735368" lon="8.4105032"><ele>727.0</ele><time>2026-04-30T10:02:04.942Z</time></trkpt><trkpt lat="44.3734722" lon="8.4105247"><ele>727.0</ele><time>2026-04-30T10:02:05.945Z</time></trkpt><trkpt lat="44.3734098" lon="8.4105547"><ele>727.0</ele><time>2026-04-30T10:02:06.942Z</time></trkpt><trkpt lat="44.3733548" lon="8.4105988"><ele>727.0</ele><time>2026-04-30T10:02:07.947Z</time></trkpt><trkpt lat="44.3733023" lon="8.4106513"><ele>727.0</ele><time>2026-04-30T10:02:08.942Z</time></trkpt><trkpt lat="44.373253" lon="8.4107072"><ele>727.0</ele><time>2026-04-30T10:02:09.948Z</time></trkpt><trkpt lat="44.3731582" lon="8.4108172"><ele>727.0</ele><time>2026-04-30T10:02:11.944Z</time></trkpt><trkpt lat="44.3731098" lon="8.4108887"><ele>727.0</ele><time>2026-04-30T10:02:12.942Z</time></trkpt><trkpt lat="44.3730583" lon="8.4109678"><ele>727.0</ele><time>2026-04-30T10:02:13.947Z</time></trkpt><trkpt lat="44.373002" lon="8.4110532"><ele>727.0</ele><time>2026-04-30T10:02:14.945Z</time></trkpt><trkpt lat="44.372933" lon="8.4111253"><ele>727.0</ele><time>2026-04-30T10:02:15.945Z</time></trkpt><trkpt lat="44.3728625" lon="8.4111923"><ele>727.0</ele><time>2026-04-30T10:02:16.944Z</time></trkpt><trkpt lat="44.3727878" lon="8.4112517"><ele>727.0</ele><time>2026-04-30T10:02:17.949Z</time></trkpt><trkpt lat="44.372719" lon="8.4112907"><ele>726.8</ele><time>2026-04-30T10:02:18.942Z</time></trkpt><trkpt lat="44.372656" lon="8.4113272"><ele>726.6</ele><time>2026-04-30T10:02:19.94Z</time></trkpt><trkpt lat="44.372546" lon="8.4114067"><ele>726.4</ele><time>2026-04-30T10:02:21.943Z</time></trkpt><trkpt lat="44.372436" lon="8.4114703"><ele>726.1999999999999</ele><time>2026-04-30T10:02:23.942Z</time></trkpt><trkpt lat="44.3723245" lon="8.4115382"><ele>726.0</ele><time>2026-04-30T10:02:25.943Z</time></trkpt><trkpt lat="44.372219" lon="8.4116273"><ele>723.7142857142857</ele><time>2026-04-30T10:02:27.941Z</time></trkpt><trkpt lat="44.3721692" lon="8.4116897"><ele>721.4285714285714</ele><time>2026-04-30T10:02:28.942Z</time></trkpt><trkpt lat="44.372124" lon="8.4117562"><ele>719.1428571428571</ele><time>2026-04-30T10:02:29.942Z</time></trkpt><trkpt lat="44.3720788" lon="8.4118238"><ele>716.8571428571429</ele><time>2026-04-30T10:02:30.941Z</time></trkpt><trkpt lat="44.3720368" lon="8.4118973"><ele>714.5714285714286</ele><time>2026-04-30T10:02:31.942Z</time></trkpt><trkpt lat="44.371994" lon="8.4119767"><ele>712.2857142857142</ele><time>2026-04-30T10:02:32.942Z</time></trkpt><trkpt lat="44.3719547" lon="8.4120538"><ele>710.0</ele><time>2026-04-30T10:02:33.957Z</time></trkpt><trkpt lat="44.3719155" lon="8.4121367"><ele>711.1666666666666</ele><time>2026-04-30T10:02:34.958Z</time></trkpt><trkpt lat="44.3718752" lon="8.4122165"><ele>712.3333333333333</ele><time>2026-04-30T10:02:35.94Z</time></trkpt><trkpt lat="44.3718025" lon="8.4123468"><ele>713.5</ele><time>2026-04-30T10:02:37.941Z</time></trkpt><trkpt lat="44.371701" lon="8.412435"><ele>714.6666666666666</ele><time>2026-04-30T10:02:39.942Z</time></trkpt><trkpt lat="44.3716408" lon="8.4124793"><ele>715.8333333333334</ele><time>2026-04-30T10:02:40.941Z</time></trkpt><trkpt lat="44.3715773" lon="8.412529"><ele>717.0</ele><time>2026-04-30T10:02:41.942Z</time></trkpt><trkpt lat="44.3715115" lon="8.4125717"><ele>717.0</ele><time>2026-04-30T10:02:42.941Z</time></trkpt><trkpt lat="44.3714345" lon="8.4126047"><ele>717.0</ele><time>2026-04-30T10:02:43.941Z</time></trkpt><trkpt lat="44.3713557" lon="8.4126275"><ele>717.0</ele><time>2026-04-30T10:02:44.942Z</time></trkpt><trkpt lat="44.3712868" lon="8.4126448"><ele>717.0</ele><time>2026-04-30T10:02:45.943Z</time></trkpt><trkpt lat="44.3711762" lon="8.4126675"><ele>717.0</ele><time>2026-04-30T10:02:47.937Z</time></trkpt><trkpt lat="44.3710828" lon="8.4127058"><ele>717.0</ele><time>2026-04-30T10:02:49.941Z</time></trkpt><trkpt lat="44.371004" lon="8.412746"><ele>717.1666666666666</ele><time>2026-04-30T10:02:51.944Z</time></trkpt><trkpt lat="44.3709362" lon="8.4128158"><ele>717.3333333333334</ele><time>2026-04-30T10:02:53.943Z</time></trkpt><trkpt lat="44.3709077" lon="8.4129768"><ele>717.5</ele><time>2026-04-30T10:02:55.948Z</time></trkpt><trkpt lat="44.3709185" lon="8.4130742"><ele>717.6666666666667</ele><time>2026-04-30T10:02:56.942Z</time></trkpt><trkpt lat="44.3709378" lon="8.4131665"><ele>717.8333333333334</ele><time>2026-04-30T10:02:57.943Z</time></trkpt><trkpt lat="44.3709673" lon="8.4132632"><ele>718.0</ele><time>2026-04-30T10:02:58.941Z</time></trkpt><trkpt lat="44.3710108" lon="8.4133568"><ele>718.2</ele><time>2026-04-30T10:02:59.946Z</time></trkpt><trkpt lat="44.3710572" lon="8.4134868"><ele>718.4</ele><time>2026-04-30T10:03:00.942Z</time></trkpt><trkpt lat="44.371095" lon="8.4136198"><ele>718.6</ele><time>2026-04-30T10:03:01.945Z</time></trkpt><trkpt lat="44.3710928" lon="8.4137433"><ele>718.8000000000001</ele><time>2026-04-30T10:03:02.942Z</time></trkpt><trkpt lat="44.3710698" lon="8.413853"><ele>719.0</ele><time>2026-04-30T10:03:03.949Z</time></trkpt><trkpt lat="44.3710218" lon="8.4139623"><ele>721.25</ele><time>2026-04-30T10:03:04.945Z</time></trkpt><trkpt lat="44.3709533" lon="8.4140747"><ele>723.5</ele><time>2026-04-30T10:03:05.946Z</time></trkpt><trkpt lat="44.3708693" lon="8.414196"><ele>725.75</ele><time>2026-04-30T10:03:06.941Z</time></trkpt><trkpt lat="44.3707752" lon="8.4143457"><ele>728.0</ele><time>2026-04-30T10:03:07.947Z</time></trkpt><trkpt lat="44.370672" lon="8.4145182"><ele>725.5</ele><time>2026-04-30T10:03:08.942Z</time></trkpt><trkpt lat="44.3705715" lon="8.4147092"><ele>723.0</ele><time>2026-04-30T10:03:09.943Z</time></trkpt><trkpt lat="44.3704927" lon="8.4148865"><ele>720.5</ele><time>2026-04-30T10:03:10.943Z</time></trkpt><trkpt lat="44.3704467" lon="8.4150477"><ele>718.0</ele><time>2026-04-30T10:03:11.943Z</time></trkpt><trkpt lat="44.3704253" lon="8.4152"><ele>718.0</ele><time>2026-04-30T10:03:12.942Z</time></trkpt><trkpt lat="44.3704168" lon="8.4153407"><ele>718.0</ele><time>2026-04-30T10:03:13.947Z</time></trkpt><trkpt lat="44.3704257" lon="8.4154517"><ele>718.0</ele><time>2026-04-30T10:03:14.943Z</time></trkpt><trkpt lat="44.3704505" lon="8.4155552"><ele>718.0</ele><time>2026-04-30T10:03:15.942Z</time></trkpt><trkpt lat="44.3704897" lon="8.415687"><ele>718.0</ele><time>2026-04-30T10:03:16.943Z</time></trkpt><trkpt lat="44.3705433" lon="8.4158392"><ele>726.0</ele><time>2026-04-30T10:03:17.946Z</time></trkpt><trkpt lat="44.3706023" lon="8.4160107"><ele>734.0</ele><time>2026-04-30T10:03:18.944Z</time></trkpt><trkpt lat="44.3706673" lon="8.4161802"><ele>742.0</ele><time>2026-04-30T10:03:19.945Z</time></trkpt><trkpt lat="44.3707348" lon="8.4163618"><ele>750.0</ele><time>2026-04-30T10:03:20.944Z</time></trkpt><trkpt lat="44.3707928" lon="8.4165473"><ele>750.0</ele><time>2026-04-30T10:03:21.943Z</time></trkpt><trkpt lat="44.3708313" lon="8.4167317"><ele>750.0</ele><time>2026-04-30T10:03:22.943Z</time></trkpt><trkpt lat="44.370858" lon="8.4169115"><ele>750.0</ele><time>2026-04-30T10:03:23.946Z</time></trkpt><trkpt lat="44.3708752" lon="8.4170803"><ele>750.0</ele><time>2026-04-30T10:03:24.942Z</time></trkpt><trkpt lat="44.3708825" lon="8.4172315"><ele>749.0</ele><time>2026-04-30T10:03:25.945Z</time></trkpt><trkpt lat="44.3708697" lon="8.4173613"><ele>748.0</ele><time>2026-04-30T10:03:26.942Z</time></trkpt><trkpt lat="44.3708523" lon="8.417485"><ele>747.0</ele><time>2026-04-30T10:03:27.946Z</time></trkpt><trkpt lat="44.3708383" lon="8.4175973"><ele>746.0</ele><time>2026-04-30T10:03:28.942Z</time></trkpt><trkpt lat="44.3708375" lon="8.417712"><ele>745.0</ele><time>2026-04-30T10:03:29.941Z</time></trkpt><trkpt lat="44.3708398" lon="8.4178123"><ele>744.0</ele><time>2026-04-30T10:03:30.944Z</time></trkpt><trkpt lat="44.3708575" lon="8.417949"><ele>744.0</ele><time>2026-04-30T10:03:32.943Z</time></trkpt><trkpt lat="44.3708983" lon="8.4180503"><ele>744.0</ele><time>2026-04-30T10:03:34.943Z</time></trkpt><trkpt lat="44.3709825" lon="8.4180727"><ele>744.0</ele><time>2026-04-30T10:03:38.946Z</time></trkpt><trkpt lat="44.3710505" lon="8.4179767"><ele>744.0</ele><time>2026-04-30T10:03:40.946Z</time></trkpt><trkpt lat="44.3710853" lon="8.4179"><ele>744.0</ele><time>2026-04-30T10:03:41.943Z</time></trkpt><trkpt lat="44.3711138" lon="8.4177917"><ele>744.0</ele><time>2026-04-30T10:03:43.944Z</time></trkpt><trkpt lat="44.3710635" lon="8.4177045"><ele>744.0</ele><time>2026-04-30T10:03:45.944Z</time></trkpt><trkpt lat="44.3709968" lon="8.4176277"><ele>744.0</ele><time>2026-04-30T10:03:46.946Z</time></trkpt><trkpt lat="44.3709465" lon="8.4175412"><ele>744.0</ele><time>2026-04-30T10:03:47.942Z</time></trkpt><trkpt lat="44.3709003" lon="8.4174433"><ele>744.0</ele><time>2026-04-30T10:03:48.942Z</time></trkpt><trkpt lat="44.3708672" lon="8.4173435"><ele>744.0</ele><time>2026-04-30T10:03:49.942Z</time></trkpt><trkpt lat="44.3708488" lon="8.4172367"><ele>744.0</ele><time>2026-04-30T10:03:50.941Z</time></trkpt><trkpt lat="44.3708532" lon="8.4171253"><ele>745.2</ele><time>2026-04-30T10:03:51.94Z</time></trkpt><trkpt lat="44.3708557" lon="8.417008"><ele>746.4000000000001</ele><time>2026-04-30T10:03:52.941Z</time></trkpt><trkpt lat="44.3708432" lon="8.4168758"><ele>747.6</ele><time>2026-04-30T10:03:53.946Z</time></trkpt><trkpt lat="44.3708232" lon="8.416736"><ele>748.8</ele><time>2026-04-30T10:03:54.941Z</time></trkpt><trkpt lat="44.3707982" lon="8.4165942"><ele>750.0</ele><time>2026-04-30T10:03:55.943Z</time></trkpt><trkpt lat="44.370759" lon="8.4164425"><ele>750.25</ele><time>2026-04-30T10:03:56.939Z</time></trkpt><trkpt lat="44.3707118" lon="8.4162907"><ele>750.5</ele><time>2026-04-30T10:03:57.944Z</time></trkpt><trkpt lat="44.370663" lon="8.416139"><ele>750.75</ele><time>2026-04-30T10:03:58.944Z</time></trkpt><trkpt lat="44.3706103" lon="8.4159955"><ele>751.0</ele><time>2026-04-30T10:03:59.944Z</time></trkpt><trkpt lat="44.3705597" lon="8.4158498"><ele>744.4</ele><time>2026-04-30T10:04:00.94Z</time></trkpt><trkpt lat="44.3705155" lon="8.4157107"><ele>737.8</ele><time>2026-04-30T10:04:01.947Z</time></trkpt><trkpt lat="44.3704728" lon="8.4155815"><ele>731.1999999999999</ele><time>2026-04-30T10:04:02.942Z</time></trkpt><trkpt lat="44.3704398" lon="8.41546"><ele>724.5999999999999</ele><time>2026-04-30T10:04:03.947Z</time></trkpt><trkpt lat="44.3704173" lon="8.4153408"><ele>718.0</ele><time>2026-04-30T10:04:04.947Z</time></trkpt><trkpt lat="44.3704103" lon="8.4152272"><ele>718.0</ele><time>2026-04-30T10:04:05.951Z</time></trkpt><trkpt lat="44.370426" lon="8.41512"><ele>718.0</ele><time>2026-04-30T10:04:06.943Z</time></trkpt><trkpt lat="44.3704512" lon="8.415004"><ele>718.0</ele><time>2026-04-30T10:04:07.943Z</time></trkpt><trkpt lat="44.3704855" lon="8.4148867"><ele>718.0</ele><time>2026-04-30T10:04:08.947Z</time></trkpt><trkpt lat="44.3705263" lon="8.4147728"><ele>718.0</ele><time>2026-04-30T10:04:09.944Z</time></trkpt><trkpt lat="44.3705747" lon="8.4146637"><ele>718.0</ele><time>2026-04-30T10:04:10.945Z</time></trkpt><trkpt lat="44.3706257" lon="8.4145542"><ele>719.6666666666667</ele><time>2026-04-30T10:04:11.947Z</time></trkpt><trkpt lat="44.370682" lon="8.4144467"><ele>721.3333333333334</ele><time>2026-04-30T10:04:12.942Z</time></trkpt><trkpt lat="44.3707367" lon="8.4143405"><ele>723.0</ele><time>2026-04-30T10:04:13.946Z</time></trkpt><trkpt lat="44.3707927" lon="8.4142447"><ele>724.6666666666666</ele><time>2026-04-30T10:04:14.942Z</time></trkpt><trkpt lat="44.3708435" lon="8.4141598"><ele>726.3333333333333</ele><time>2026-04-30T10:04:15.946Z</time></trkpt><trkpt lat="44.3708945" lon="8.4140953"><ele>728.0</ele><time>2026-04-30T10:04:16.942Z</time></trkpt><trkpt lat="44.3709687" lon="8.4140157"><ele>728.0</ele><time>2026-04-30T10:04:18.941Z</time></trkpt><trkpt lat="44.3709002" lon="8.4139758"><ele>728.0</ele><time>2026-04-30T10:04:23.944Z</time></trkpt><trkpt lat="44.3708257" lon="8.4140925"><ele>728.0</ele><time>2026-04-30T10:04:25.939Z</time></trkpt><trkpt lat="44.3707785" lon="8.414169"><ele>728.0</ele><time>2026-04-30T10:04:26.942Z</time></trkpt><trkpt lat="44.370716" lon="8.4142657"><ele>728.0</ele><time>2026-04-30T10:04:27.94Z</time></trkpt><trkpt lat="44.3706375" lon="8.4143622"><ele>728.0</ele><time>2026-04-30T10:04:28.955Z</time></trkpt><trkpt lat="44.3705443" lon="8.4144593"><ele>728.0</ele><time>2026-04-30T10:04:29.95Z</time></trkpt><trkpt lat="44.3704357" lon="8.4145568"><ele>728.0</ele><time>2026-04-30T10:04:30.942Z</time></trkpt><trkpt lat="44.3703218" lon="8.4146437"><ele>728.0</ele><time>2026-04-30T10:04:31.943Z</time></trkpt><trkpt lat="44.3702125" lon="8.4147255"><ele>726.0</ele><time>2026-04-30T10:04:32.943Z</time></trkpt><trkpt lat="44.3701098" lon="8.4147997"><ele>724.0</ele><time>2026-04-30T10:04:33.94Z</time></trkpt><trkpt lat="44.3700123" lon="8.4148595"><ele>722.0</ele><time>2026-04-30T10:04:34.944Z</time></trkpt><trkpt lat="44.3699412" lon="8.4149292"><ele>720.0</ele><time>2026-04-30T10:04:35.945Z</time></trkpt><trkpt lat="44.3698872" lon="8.4150063"><ele>718.0</ele><time>2026-04-30T10:04:36.944Z</time></trkpt><trkpt lat="44.3698647" lon="8.4151065"><ele>718.0</ele><time>2026-04-30T10:04:37.949Z</time></trkpt><trkpt lat="44.3698648" lon="8.4152295"><ele>718.0</ele><time>2026-04-30T10:04:38.949Z</time></trkpt><trkpt lat="44.3698782" lon="8.4153733"><ele>718.0</ele><time>2026-04-30T10:04:39.945Z</time></trkpt><trkpt lat="44.3699037" lon="8.415529"><ele>718.0</ele><time>2026-04-30T10:04:40.946Z</time></trkpt><trkpt lat="44.3699307" lon="8.4157045"><ele>718.0</ele><time>2026-04-30T10:04:41.941Z</time></trkpt><trkpt lat="44.3699475" lon="8.4158898"><ele>717.75</ele><time>2026-04-30T10:04:42.948Z</time></trkpt><trkpt lat="44.3699473" lon="8.4160815"><ele>717.5</ele><time>2026-04-30T10:04:43.943Z</time></trkpt><trkpt lat="44.3699275" lon="8.4162777"><ele>717.25</ele><time>2026-04-30T10:04:44.947Z</time></trkpt><trkpt lat="44.3699038" lon="8.4164675"><ele>717.0</ele><time>2026-04-30T10:04:45.954Z</time></trkpt><trkpt lat="44.3698917" lon="8.416646"><ele>716.4000000000001</ele><time>2026-04-30T10:04:46.94Z</time></trkpt><trkpt lat="44.369898" lon="8.416801"><ele>715.8000000000001</ele><time>2026-04-30T10:04:47.946Z</time></trkpt><trkpt lat="44.3699335" lon="8.4169417"><ele>715.2</ele><time>2026-04-30T10:04:48.941Z</time></trkpt><trkpt lat="44.3699767" lon="8.4170697"><ele>714.6</ele><time>2026-04-30T10:04:49.947Z</time></trkpt><trkpt lat="44.3700517" lon="8.4171572"><ele>714.0</ele><time>2026-04-30T10:04:50.94Z</time></trkpt><trkpt lat="44.3701133" lon="8.41724"><ele>712.6</ele><time>2026-04-30T10:04:51.945Z</time></trkpt><trkpt lat="44.3701268" lon="8.4173522"><ele>711.2</ele><time>2026-04-30T10:04:52.942Z</time></trkpt><trkpt lat="44.3701128" lon="8.4174813"><ele>709.8000000000001</ele><time>2026-04-30T10:04:53.944Z</time></trkpt><trkpt lat="44.3700777" lon="8.4176055"><ele>708.4000000000001</ele><time>2026-04-30T10:04:54.944Z</time></trkpt><trkpt lat="44.3700355" lon="8.4177427"><ele>707.0</ele><time>2026-04-30T10:04:55.941Z</time></trkpt><trkpt lat="44.3700097" lon="8.4178967"><ele>708.0</ele><time>2026-04-30T10:04:56.943Z</time></trkpt><trkpt lat="44.3699988" lon="8.4180723"><ele>709.0</ele><time>2026-04-30T10:04:57.948Z</time></trkpt><trkpt lat="44.369996" lon="8.4182478"><ele>710.0</ele><time>2026-04-30T10:04:58.942Z</time></trkpt><trkpt lat="44.3699795" lon="8.4184025"><ele>711.0</ele><time>2026-04-30T10:04:59.943Z</time></trkpt><trkpt lat="44.369946" lon="8.4185417"><ele>711.0</ele><time>2026-04-30T10:05:00.94Z</time></trkpt><trkpt lat="44.3698895" lon="8.4186603"><ele>711.0</ele><time>2026-04-30T10:05:01.939Z</time></trkpt><trkpt lat="44.3698" lon="8.418756"><ele>711.0</ele><time>2026-04-30T10:05:02.94Z</time></trkpt><trkpt lat="44.369689" lon="8.4188485"><ele>711.0</ele><time>2026-04-30T10:05:03.947Z</time></trkpt><trkpt lat="44.3695785" lon="8.4189398"><ele>706.0</ele><time>2026-04-30T10:05:04.94Z</time></trkpt><trkpt lat="44.3694805" lon="8.4190405"><ele>701.0</ele><time>2026-04-30T10:05:05.943Z</time></trkpt><trkpt lat="44.369397" lon="8.41916"><ele>696.0</ele><time>2026-04-30T10:05:06.94Z</time></trkpt><trkpt lat="44.3693307" lon="8.4192843"><ele>691.0</ele><time>2026-04-30T10:05:07.943Z</time></trkpt><trkpt lat="44.3692583" lon="8.4194045"><ele>691.0</ele><time>2026-04-30T10:05:08.94Z</time></trkpt><trkpt lat="44.3691723" lon="8.4195018"><ele>691.0</ele><time>2026-04-30T10:05:09.941Z</time></trkpt><trkpt lat="44.3690755" lon="8.4195572"><ele>691.0</ele><time>2026-04-30T10:05:10.946Z</time></trkpt><trkpt lat="44.3689963" lon="8.419645"><ele>691.0</ele><time>2026-04-30T10:05:11.946Z</time></trkpt><trkpt lat="44.3689257" lon="8.4197747"><ele>691.0</ele><time>2026-04-30T10:05:12.944Z</time></trkpt><trkpt lat="44.3688632" lon="8.419931"><ele>686.5</ele><time>2026-04-30T10:05:13.941Z</time></trkpt><trkpt lat="44.3688032" lon="8.4201085"><ele>682.0</ele><time>2026-04-30T10:05:14.944Z</time></trkpt><trkpt lat="44.3687418" lon="8.420293"><ele>677.5</ele><time>2026-04-30T10:05:15.94Z</time></trkpt><trkpt lat="44.368685" lon="8.4204817"><ele>673.0</ele><time>2026-04-30T10:05:16.94Z</time></trkpt><trkpt lat="44.3686115" lon="8.4206592"><ele>673.0</ele><time>2026-04-30T10:05:17.941Z</time></trkpt><trkpt lat="44.3685375" lon="8.4208423"><ele>673.0</ele><time>2026-04-30T10:05:18.94Z</time></trkpt><trkpt lat="44.3684513" lon="8.4210102"><ele>673.0</ele><time>2026-04-30T10:05:19.944Z</time></trkpt><trkpt lat="44.3683683" lon="8.4211755"><ele>673.0</ele><time>2026-04-30T10:05:20.946Z</time></trkpt><trkpt lat="44.368287" lon="8.4213347"><ele>673.2</ele><time>2026-04-30T10:05:21.942Z</time></trkpt><trkpt lat="44.3682113" lon="8.4214792"><ele>673.4</ele><time>2026-04-30T10:05:22.94Z</time></trkpt><trkpt lat="44.368147" lon="8.4216048"><ele>673.6</ele><time>2026-04-30T10:05:23.941Z</time></trkpt><trkpt lat="44.3680733" lon="8.4216978"><ele>673.8000000000001</ele><time>2026-04-30T10:05:24.942Z</time></trkpt><trkpt lat="44.3679837" lon="8.4217683"><ele>674.0</ele><time>2026-04-30T10:05:25.946Z</time></trkpt><trkpt lat="44.3678795" lon="8.4218192"><ele>670.25</ele><time>2026-04-30T10:05:26.942Z</time></trkpt><trkpt lat="44.3677668" lon="8.4218625"><ele>666.5</ele><time>2026-04-30T10:05:27.946Z</time></trkpt><trkpt lat="44.3676492" lon="8.4219153"><ele>662.75</ele><time>2026-04-30T10:05:28.944Z</time></trkpt><trkpt lat="44.3675318" lon="8.4219937"><ele>659.0</ele><time>2026-04-30T10:05:29.945Z</time></trkpt><trkpt lat="44.367415" lon="8.4220858"><ele>661.5</ele><time>2026-04-30T10:05:30.941Z</time></trkpt><trkpt lat="44.367294" lon="8.422169"><ele>664.0</ele><time>2026-04-30T10:05:31.945Z</time></trkpt><trkpt lat="44.3671698" lon="8.4222422"><ele>666.5</ele><time>2026-04-30T10:05:32.946Z</time></trkpt><trkpt lat="44.3670468" lon="8.422313"><ele>669.0</ele><time>2026-04-30T10:05:33.948Z</time></trkpt><trkpt lat="44.36693" lon="8.4223912"><ele>669.25</ele><time>2026-04-30T10:05:34.942Z</time></trkpt><trkpt lat="44.3668162" lon="8.4224937"><ele>669.5</ele><time>2026-04-30T10:05:35.947Z</time></trkpt><trkpt lat="44.3667083" lon="8.422612"><ele>669.75</ele><time>2026-04-30T10:05:36.941Z</time></trkpt><trkpt lat="44.3666143" lon="8.4227417"><ele>670.0</ele><time>2026-04-30T10:05:37.941Z</time></trkpt><trkpt lat="44.3665383" lon="8.4228748"><ele>670.75</ele><time>2026-04-30T10:05:38.943Z</time></trkpt><trkpt lat="44.3664555" lon="8.422986"><ele>671.5</ele><time>2026-04-30T10:05:39.943Z</time></trkpt><trkpt lat="44.366357" lon="8.423077"><ele>672.25</ele><time>2026-04-30T10:05:40.942Z</time></trkpt><trkpt lat="44.366245" lon="8.423164"><ele>673.0</ele><time>2026-04-30T10:05:41.948Z</time></trkpt><trkpt lat="44.3661422" lon="8.4232332"><ele>674.0</ele><time>2026-04-30T10:05:42.943Z</time></trkpt><trkpt lat="44.3660377" lon="8.4232782"><ele>675.0</ele><time>2026-04-30T10:05:43.945Z</time></trkpt><trkpt lat="44.3659348" lon="8.4233325"><ele>676.0</ele><time>2026-04-30T10:05:44.945Z</time></trkpt><trkpt lat="44.3658323" lon="8.4233927"><ele>677.0</ele><time>2026-04-30T10:05:45.947Z</time></trkpt><trkpt lat="44.3657282" lon="8.4234392"><ele>678.0</ele><time>2026-04-30T10:05:46.943Z</time></trkpt><trkpt lat="44.3656228" lon="8.4234728"><ele>674.5999999999999</ele><time>2026-04-30T10:05:47.942Z</time></trkpt><trkpt lat="44.3655185" lon="8.4234837"><ele>671.1999999999999</ele><time>2026-04-30T10:05:48.942Z</time></trkpt><trkpt lat="44.3654217" lon="8.4234728"><ele>667.8</ele><time>2026-04-30T10:05:49.945Z</time></trkpt><trkpt lat="44.3653255" lon="8.4234458"><ele>664.4</ele><time>2026-04-30T10:05:50.943Z</time></trkpt><trkpt lat="44.3652263" lon="8.423421"><ele>661.0</ele><time>2026-04-30T10:05:51.944Z</time></trkpt><trkpt lat="44.3651222" lon="8.4234145"><ele>661.0</ele><time>2026-04-30T10:05:52.943Z</time></trkpt><trkpt lat="44.3650108" lon="8.4234433"><ele>661.0</ele><time>2026-04-30T10:05:53.942Z</time></trkpt><trkpt lat="44.3648963" lon="8.4234883"><ele>661.0</ele><time>2026-04-30T10:05:54.941Z</time></trkpt><trkpt lat="44.3647783" lon="8.4235452"><ele>661.0</ele><time>2026-04-30T10:05:55.944Z</time></trkpt><trkpt lat="44.364662" lon="8.423614"><ele>662.0</ele><time>2026-04-30T10:05:56.942Z</time></trkpt><trkpt lat="44.364547" lon="8.4236873"><ele>663.0</ele><time>2026-04-30T10:05:57.945Z</time></trkpt><trkpt lat="44.3644345" lon="8.4237598"><ele>664.0</ele><time>2026-04-30T10:05:58.94Z</time></trkpt><trkpt lat="44.3643203" lon="8.423829"><ele>665.0</ele><time>2026-04-30T10:05:59.939Z</time></trkpt><trkpt lat="44.3642073" lon="8.4238878"><ele>665.0</ele><time>2026-04-30T10:06:00.941Z</time></trkpt><trkpt lat="44.3640948" lon="8.4239328"><ele>665.0</ele><time>2026-04-30T10:06:01.941Z</time></trkpt><trkpt lat="44.3639863" lon="8.423951"><ele>665.0</ele><time>2026-04-30T10:06:02.94Z</time></trkpt><trkpt lat="44.3638863" lon="8.4239405"><ele>665.0</ele><time>2026-04-30T10:06:03.94Z</time></trkpt><trkpt lat="44.3637833" lon="8.4239232"><ele>665.0</ele><time>2026-04-30T10:06:04.941Z</time></trkpt><trkpt lat="44.3636757" lon="8.4239077"><ele>663.5</ele><time>2026-04-30T10:06:05.942Z</time></trkpt><trkpt lat="44.3635562" lon="8.4238988"><ele>662.0</ele><time>2026-04-30T10:06:06.942Z</time></trkpt><trkpt lat="44.3634355" lon="8.4238958"><ele>660.5</ele><time>2026-04-30T10:06:07.94Z</time></trkpt><trkpt lat="44.3633065" lon="8.423894"><ele>659.0</ele><time>2026-04-30T10:06:08.939Z</time></trkpt><trkpt lat="44.3631793" lon="8.4239003"><ele>659.0</ele><time>2026-04-30T10:06:09.941Z</time></trkpt><trkpt lat="44.3630697" lon="8.4239165"><ele>659.0</ele><time>2026-04-30T10:06:10.94Z</time></trkpt><trkpt lat="44.3629642" lon="8.4239372"><ele>659.0</ele><time>2026-04-30T10:06:11.94Z</time></trkpt><trkpt lat="44.3628775" lon="8.4239802"><ele>659.0</ele><time>2026-04-30T10:06:12.943Z</time></trkpt><trkpt lat="44.3628007" lon="8.4240367"><ele>659.0</ele><time>2026-04-30T10:06:13.941Z</time></trkpt><trkpt lat="44.362755" lon="8.4241418"><ele>655.6666666666666</ele><time>2026-04-30T10:06:14.942Z</time></trkpt><trkpt lat="44.3627255" lon="8.4242652"><ele>652.3333333333333</ele><time>2026-04-30T10:06:15.943Z</time></trkpt><trkpt lat="44.362716" lon="8.4244048"><ele>649.0</ele><time>2026-04-30T10:06:16.941Z</time></trkpt><trkpt lat="44.362715" lon="8.4245258"><ele>645.6666666666666</ele><time>2026-04-30T10:06:17.942Z</time></trkpt><trkpt lat="44.362705" lon="8.4246248"><ele>642.3333333333334</ele><time>2026-04-30T10:06:18.941Z</time></trkpt><trkpt lat="44.3626413" lon="8.4246617"><ele>639.0</ele><time>2026-04-30T10:06:20.944Z</time></trkpt><trkpt lat="44.3626202" lon="8.4245488"><ele>638.4</ele><time>2026-04-30T10:06:22.941Z</time></trkpt><trkpt lat="44.3626157" lon="8.424452"><ele>637.8</ele><time>2026-04-30T10:06:23.942Z</time></trkpt><trkpt lat="44.3626175" lon="8.4243437"><ele>637.2</ele><time>2026-04-30T10:06:24.942Z</time></trkpt><trkpt lat="44.3626352" lon="8.4242055"><ele>636.6</ele><time>2026-04-30T10:06:25.942Z</time></trkpt><trkpt lat="44.3626618" lon="8.4240465"><ele>636.0</ele><time>2026-04-30T10:06:26.944Z</time></trkpt><trkpt lat="44.3626845" lon="8.4238888"><ele>633.0</ele><time>2026-04-30T10:06:27.938Z</time></trkpt><trkpt lat="44.3627187" lon="8.4237625"><ele>630.0</ele><time>2026-04-30T10:06:28.944Z</time></trkpt><trkpt lat="44.3627513" lon="8.4236373"><ele>627.0</ele><time>2026-04-30T10:06:29.938Z</time></trkpt><trkpt lat="44.3627795" lon="8.4235238"><ele>624.0</ele><time>2026-04-30T10:06:30.944Z</time></trkpt><trkpt lat="44.3627968" lon="8.4234352"><ele>621.0</ele><time>2026-04-30T10:06:31.945Z</time></trkpt><trkpt lat="44.3627483" lon="8.4233758"><ele>618.0</ele><time>2026-04-30T10:06:33.945Z</time></trkpt><trkpt lat="44.3626693" lon="8.4234612"><ele>618.0</ele><time>2026-04-30T10:06:35.941Z</time></trkpt><trkpt lat="44.3626208" lon="8.4235287"><ele>618.0</ele><time>2026-04-30T10:06:36.942Z</time></trkpt><trkpt lat="44.3625482" lon="8.4236043"><ele>618.0</ele><time>2026-04-30T10:06:37.944Z</time></trkpt><trkpt lat="44.3624567" lon="8.4237162"><ele>618.0</ele><time>2026-04-30T10:06:38.94Z</time></trkpt><trkpt lat="44.362362" lon="8.423833"><ele>618.0</ele><time>2026-04-30T10:06:39.941Z</time></trkpt><trkpt lat="44.3622745" lon="8.4239558"><ele>615.25</ele><time>2026-04-30T10:06:40.945Z</time></trkpt><trkpt lat="44.3621975" lon="8.4240778"><ele>612.5</ele><time>2026-04-30T10:06:41.941Z</time></trkpt><trkpt lat="44.3621342" lon="8.4242195"><ele>609.75</ele><time>2026-04-30T10:06:42.944Z</time></trkpt><trkpt lat="44.3620903" lon="8.424392"><ele>607.0</ele><time>2026-04-30T10:06:43.946Z</time></trkpt><trkpt lat="44.3620598" lon="8.4245747"><ele>607.75</ele><time>2026-04-30T10:06:44.939Z</time></trkpt><trkpt lat="44.3620307" lon="8.4247512"><ele>608.5</ele><time>2026-04-30T10:06:45.941Z</time></trkpt><trkpt lat="44.3619842" lon="8.424915"><ele>609.25</ele><time>2026-04-30T10:06:46.943Z</time></trkpt><trkpt lat="44.3619373" lon="8.4250745"><ele>610.0</ele><time>2026-04-30T10:06:47.942Z</time></trkpt><trkpt lat="44.3618787" lon="8.425231"><ele>610.0</ele><time>2026-04-30T10:06:48.947Z</time></trkpt><trkpt lat="44.3618157" lon="8.42539"><ele>610.0</ele><time>2026-04-30T10:06:49.947Z</time></trkpt><trkpt lat="44.361757" lon="8.4255403"><ele>610.0</ele><time>2026-04-30T10:06:50.946Z</time></trkpt><trkpt lat="44.3617247" lon="8.4257077"><ele>610.0</ele><time>2026-04-30T10:06:51.941Z</time></trkpt><trkpt lat="44.3616978" lon="8.4258683"><ele>609.6</ele><time>2026-04-30T10:06:52.946Z</time></trkpt><trkpt lat="44.3616837" lon="8.4260282"><ele>609.2</ele><time>2026-04-30T10:06:53.941Z</time></trkpt><trkpt lat="44.3616897" lon="8.426193"><ele>608.8</ele><time>2026-04-30T10:06:54.944Z</time></trkpt><trkpt lat="44.361695" lon="8.4263418"><ele>608.4</ele><time>2026-04-30T10:06:55.94Z</time></trkpt><trkpt lat="44.3616963" lon="8.4264845"><ele>608.0</ele><time>2026-04-30T10:06:56.944Z</time></trkpt><trkpt lat="44.3616983" lon="8.4266272"><ele>606.6666666666666</ele><time>2026-04-30T10:06:57.939Z</time></trkpt><trkpt lat="44.361711" lon="8.4267578"><ele>605.3333333333333</ele><time>2026-04-30T10:06:58.943Z</time></trkpt><trkpt lat="44.361737" lon="8.4268808"><ele>604.0</ele><time>2026-04-30T10:06:59.941Z</time></trkpt><trkpt lat="44.3617672" lon="8.4269793"><ele>602.6666666666666</ele><time>2026-04-30T10:07:00.94Z</time></trkpt><trkpt lat="44.36178" lon="8.4271207"><ele>601.3333333333334</ele><time>2026-04-30T10:07:02.941Z</time></trkpt><trkpt lat="44.361746" lon="8.4271972"><ele>600.0</ele><time>2026-04-30T10:07:03.945Z</time></trkpt><trkpt lat="44.3617062" lon="8.4272942"><ele>598.2</ele><time>2026-04-30T10:07:04.94Z</time></trkpt><trkpt lat="44.3616605" lon="8.4274168"><ele>596.4</ele><time>2026-04-30T10:07:05.948Z</time></trkpt><trkpt lat="44.361623" lon="8.4275457"><ele>594.6</ele><time>2026-04-30T10:07:06.941Z</time></trkpt><trkpt lat="44.3615857" lon="8.4276913"><ele>592.8</ele><time>2026-04-30T10:07:07.946Z</time></trkpt><trkpt lat="44.3615515" lon="8.4278422"><ele>591.0</ele><time>2026-04-30T10:07:08.941Z</time></trkpt><trkpt lat="44.3615335" lon="8.4280007"><ele>589.25</ele><time>2026-04-30T10:07:09.942Z</time></trkpt><trkpt lat="44.3615352" lon="8.428162"><ele>587.5</ele><time>2026-04-30T10:07:10.941Z</time></trkpt><trkpt lat="44.361535" lon="8.4283385"><ele>585.75</ele><time>2026-04-30T10:07:11.946Z</time></trkpt><trkpt lat="44.3615298" lon="8.4285085"><ele>584.0</ele><time>2026-04-30T10:07:12.941Z</time></trkpt><trkpt lat="44.3615165" lon="8.4286698"><ele>580.25</ele><time>2026-04-30T10:07:13.944Z</time></trkpt><trkpt lat="44.3614957" lon="8.4288335"><ele>576.5</ele><time>2026-04-30T10:07:14.939Z</time></trkpt><trkpt lat="44.3614712" lon="8.4289945"><ele>572.75</ele><time>2026-04-30T10:07:15.94Z</time></trkpt><trkpt lat="44.3614443" lon="8.4291597"><ele>569.0</ele><time>2026-04-30T10:07:16.94Z</time></trkpt><trkpt lat="44.36142" lon="8.4293243"><ele>569.0</ele><time>2026-04-30T10:07:17.943Z</time></trkpt><trkpt lat="44.3613782" lon="8.4294717"><ele>569.0</ele><time>2026-04-30T10:07:18.939Z</time></trkpt><trkpt lat="44.3613295" lon="8.429598"><ele>569.0</ele><time>2026-04-30T10:07:19.945Z</time></trkpt><trkpt lat="44.3612848" lon="8.4296737"><ele>569.0</ele><time>2026-04-30T10:07:20.943Z</time></trkpt><trkpt lat="44.3612388" lon="8.4297477"><ele>569.0</ele><time>2026-04-30T10:07:21.942Z</time></trkpt><trkpt lat="44.361207" lon="8.4298568"><ele>569.0</ele><time>2026-04-30T10:07:36.943Z</time></trkpt><trkpt lat="44.3611443" lon="8.4299838"><ele>567.1666666666666</ele><time>2026-04-30T10:07:38.94Z</time></trkpt><trkpt lat="44.361071" lon="8.4300838"><ele>565.3333333333333</ele><time>2026-04-30T10:07:40.946Z</time></trkpt><trkpt lat="44.361028" lon="8.4302113"><ele>563.5</ele><time>2026-04-30T10:07:42.944Z</time></trkpt><trkpt lat="44.36103" lon="8.4303315"><ele>561.6666666666666</ele><time>2026-04-30T10:07:44.942Z</time></trkpt><trkpt lat="44.3610043" lon="8.4304137"><ele>559.8333333333334</ele><time>2026-04-30T10:07:45.942Z</time></trkpt><trkpt lat="44.360959" lon="8.430495"><ele>558.0</ele><time>2026-04-30T10:07:46.943Z</time></trkpt><trkpt lat="44.3609288" lon="8.4305938"><ele>558.0</ele><time>2026-04-30T10:07:47.945Z</time></trkpt><trkpt lat="44.36091" lon="8.4306865"><ele>558.0</ele><time>2026-04-30T10:07:48.94Z</time></trkpt><trkpt lat="44.3608985" lon="8.4307928"><ele>558.0</ele><time>2026-04-30T10:07:49.944Z</time></trkpt><trkpt lat="44.3608977" lon="8.4308983"><ele>558.0</ele><time>2026-04-30T10:07:50.945Z</time></trkpt><trkpt lat="44.360898" lon="8.4309962"><ele>558.0</ele><time>2026-04-30T10:07:51.943Z</time></trkpt><trkpt lat="44.3608863" lon="8.431113"><ele>558.0</ele><time>2026-04-30T10:07:52.943Z</time></trkpt><trkpt lat="44.3608702" lon="8.4312363"><ele>557.8333333333334</ele><time>2026-04-30T10:07:53.944Z</time></trkpt><trkpt lat="44.3608587" lon="8.4313443"><ele>557.6666666666666</ele><time>2026-04-30T10:07:54.942Z</time></trkpt><trkpt lat="44.3608333" lon="8.4314632"><ele>557.5</ele><time>2026-04-30T10:07:55.948Z</time></trkpt><trkpt lat="44.3608065" lon="8.4315638"><ele>557.3333333333333</ele><time>2026-04-30T10:07:56.941Z</time></trkpt><trkpt lat="44.3607648" lon="8.4316562"><ele>557.1666666666666</ele><time>2026-04-30T10:07:57.944Z</time></trkpt><trkpt lat="44.3607303" lon="8.4317502"><ele>557.0</ele><time>2026-04-30T10:07:58.941Z</time></trkpt><trkpt lat="44.3606995" lon="8.4318515"><ele>557.0</ele><time>2026-04-30T10:07:59.951Z</time></trkpt><trkpt lat="44.3606608" lon="8.4319607"><ele>557.0</ele><time>2026-04-30T10:08:00.942Z</time></trkpt><trkpt lat="44.3606175" lon="8.4320498"><ele>557.0</ele><time>2026-04-30T10:08:01.944Z</time></trkpt><trkpt lat="44.3605645" lon="8.432132"><ele>557.0</ele><time>2026-04-30T10:08:02.942Z</time></trkpt><trkpt lat="44.360508" lon="8.4322223"><ele>557.0</ele><time>2026-04-30T10:08:03.946Z</time></trkpt><trkpt lat="44.360451" lon="8.4323278"><ele>557.0</ele><time>2026-04-30T10:08:04.944Z</time></trkpt><trkpt lat="44.3604015" lon="8.432431"><ele>556.5</ele><time>2026-04-30T10:08:05.941Z</time></trkpt><trkpt lat="44.360347" lon="8.4325352"><ele>556.0</ele><time>2026-04-30T10:08:06.944Z</time></trkpt><trkpt lat="44.3602955" lon="8.432635"><ele>555.5</ele><time>2026-04-30T10:08:07.947Z</time></trkpt><trkpt lat="44.3602493" lon="8.432736"><ele>555.0</ele><time>2026-04-30T10:08:08.944Z</time></trkpt><trkpt lat="44.3602043" lon="8.4328373"><ele>554.5</ele><time>2026-04-30T10:08:09.943Z</time></trkpt><trkpt lat="44.3601692" lon="8.43295"><ele>554.0</ele><time>2026-04-30T10:08:10.947Z</time></trkpt><trkpt lat="44.3601412" lon="8.4330565"><ele>553.3333333333333</ele><time>2026-04-30T10:08:11.948Z</time></trkpt><trkpt lat="44.3601147" lon="8.433153"><ele>552.6666666666666</ele><time>2026-04-30T10:08:12.941Z</time></trkpt><trkpt lat="44.360077" lon="8.4332418"><ele>552.0</ele><time>2026-04-30T10:08:13.947Z</time></trkpt><trkpt lat="44.3600367" lon="8.4333218"><ele>551.3333333333334</ele><time>2026-04-30T10:08:14.948Z</time></trkpt><trkpt lat="44.36" lon="8.433398"><ele>550.6666666666667</ele><time>2026-04-30T10:08:15.943Z</time></trkpt><trkpt lat="44.3599412" lon="8.4335438"><ele>550.0</ele><time>2026-04-30T10:08:17.943Z</time></trkpt><trkpt lat="44.359891" lon="8.4336587"><ele>550.0</ele><time>2026-04-30T10:08:19.941Z</time></trkpt><trkpt lat="44.359857" lon="8.4337543"><ele>550.0</ele><time>2026-04-30T10:08:21.941Z</time></trkpt><trkpt lat="44.359822" lon="8.43385"><ele>550.0</ele><time>2026-04-30T10:08:23.939Z</time></trkpt><trkpt lat="44.3598" lon="8.4339765"><ele>550.0</ele><time>2026-04-30T10:08:25.944Z</time></trkpt><trkpt lat="44.3598018" lon="8.4341533"><ele>550.0</ele><time>2026-04-30T10:08:27.947Z</time></trkpt><trkpt lat="44.3598125" lon="8.4342578"><ele>550.0</ele><time>2026-04-30T10:08:28.943Z</time></trkpt><trkpt lat="44.359804" lon="8.4343688"><ele>548.1666666666667</ele><time>2026-04-30T10:08:29.944Z</time></trkpt><trkpt lat="44.3597883" lon="8.4344883"><ele>546.3333333333334</ele><time>2026-04-30T10:08:30.948Z</time></trkpt><trkpt lat="44.359766" lon="8.4345995"><ele>544.5</ele><time>2026-04-30T10:08:31.943Z</time></trkpt><trkpt lat="44.359739" lon="8.4347015"><ele>542.6666666666666</ele><time>2026-04-30T10:08:32.947Z</time></trkpt><trkpt lat="44.3597235" lon="8.4348078"><ele>540.8333333333333</ele><time>2026-04-30T10:08:33.943Z</time></trkpt><trkpt lat="44.3597142" lon="8.4349165"><ele>539.0</ele><time>2026-04-30T10:08:34.945Z</time></trkpt><trkpt lat="44.359721" lon="8.435024"><ele>537.8333333333333</ele><time>2026-04-30T10:08:35.942Z</time></trkpt><trkpt lat="44.359744" lon="8.4351205"><ele>536.6666666666666</ele><time>2026-04-30T10:08:36.949Z</time></trkpt><trkpt lat="44.3597688" lon="8.4352167"><ele>535.5</ele><time>2026-04-30T10:08:37.942Z</time></trkpt><trkpt lat="44.359791" lon="8.4353148"><ele>534.3333333333334</ele><time>2026-04-30T10:08:38.949Z</time></trkpt><trkpt lat="44.3598163" lon="8.4354115"><ele>533.1666666666667</ele><time>2026-04-30T10:08:39.943Z</time></trkpt><trkpt lat="44.3598422" lon="8.435524"><ele>532.0</ele><time>2026-04-30T10:08:40.946Z</time></trkpt><trkpt lat="44.3598678" lon="8.4356402"><ele>532.0</ele><time>2026-04-30T10:08:41.949Z</time></trkpt><trkpt lat="44.3598908" lon="8.4357443"><ele>532.0</ele><time>2026-04-30T10:08:42.947Z</time></trkpt><trkpt lat="44.3599037" lon="8.4359055"><ele>532.0</ele><time>2026-04-30T10:08:44.944Z</time></trkpt><trkpt lat="44.3598927" lon="8.435999"><ele>532.0</ele><time>2026-04-30T10:08:45.942Z</time></trkpt><trkpt lat="44.3598693" lon="8.4361005"><ele>532.0</ele><time>2026-04-30T10:08:46.942Z</time></trkpt><trkpt lat="44.3598423" lon="8.4361988"><ele>532.0</ele><time>2026-04-30T10:08:47.948Z</time></trkpt><trkpt lat="44.3598188" lon="8.4362888"><ele>533.0</ele><time>2026-04-30T10:08:48.944Z</time></trkpt><trkpt lat="44.3598107" lon="8.4364573"><ele>534.0</ele><time>2026-04-30T10:08:50.939Z</time></trkpt><trkpt lat="44.3598245" lon="8.436556"><ele>535.0</ele><time>2026-04-30T10:08:51.946Z</time></trkpt><trkpt lat="44.3598437" lon="8.4366448"><ele>536.0</ele><time>2026-04-30T10:08:52.941Z</time></trkpt><trkpt lat="44.3599197" lon="8.4367808"><ele>537.0</ele><time>2026-04-30T10:08:54.947Z</time></trkpt><trkpt lat="44.3600067" lon="8.4369088"><ele>537.0</ele><time>2026-04-30T10:08:56.943Z</time></trkpt><trkpt lat="44.360064" lon="8.4369738"><ele>537.0</ele><time>2026-04-30T10:08:57.945Z</time></trkpt><trkpt lat="44.3601218" lon="8.437027"><ele>537.0</ele><time>2026-04-30T10:08:58.944Z</time></trkpt><trkpt lat="44.360189" lon="8.4370937"><ele>537.0</ele><time>2026-04-30T10:08:59.942Z</time></trkpt><trkpt lat="44.3602588" lon="8.4371605"><ele>537.0</ele><time>2026-04-30T10:09:00.947Z</time></trkpt><trkpt lat="44.3603208" lon="8.437217"><ele>537.0</ele><time>2026-04-30T10:09:01.951Z</time></trkpt><trkpt lat="44.3603737" lon="8.4372803"><ele>536.2</ele><time>2026-04-30T10:09:02.947Z</time></trkpt><trkpt lat="44.3604257" lon="8.4373982"><ele>535.4000000000001</ele><time>2026-04-30T10:09:04.944Z</time></trkpt><trkpt lat="44.3604543" lon="8.437485"><ele>534.5999999999999</ele><time>2026-04-30T10:09:06.945Z</time></trkpt><trkpt lat="44.3604237" lon="8.4375635"><ele>533.8</ele><time>2026-04-30T10:09:08.945Z</time></trkpt><trkpt lat="44.3603422" lon="8.437652"><ele>533.0</ele><time>2026-04-30T10:09:10.945Z</time></trkpt><trkpt lat="44.3602763" lon="8.4377885"><ele>533.0</ele><time>2026-04-30T10:09:12.943Z</time></trkpt><trkpt lat="44.3602398" lon="8.4378735"><ele>533.0</ele><time>2026-04-30T10:09:13.944Z</time></trkpt><trkpt lat="44.3602007" lon="8.4379592"><ele>533.0</ele><time>2026-04-30T10:09:14.952Z</time></trkpt><trkpt lat="44.3601607" lon="8.4380498"><ele>533.0</ele><time>2026-04-30T10:09:15.945Z</time></trkpt><trkpt lat="44.3601223" lon="8.4381383"><ele>533.0</ele><time>2026-04-30T10:09:16.948Z</time></trkpt><trkpt lat="44.36009" lon="8.4382237"><ele>533.0</ele><time>2026-04-30T10:09:17.946Z</time></trkpt><trkpt lat="44.3600575" lon="8.4383068"><ele>533.0</ele><time>2026-04-30T10:09:18.946Z</time></trkpt><trkpt lat="44.360031" lon="8.4383982"><ele>531.5</ele><time>2026-04-30T10:09:19.942Z</time></trkpt><trkpt lat="44.3600098" lon="8.4384917"><ele>530.0</ele><time>2026-04-30T10:09:20.947Z</time></trkpt><trkpt lat="44.3599893" lon="8.4386532"><ele>528.5</ele><time>2026-04-30T10:09:22.945Z</time></trkpt><trkpt lat="44.359989" lon="8.4387462"><ele>527.0</ele><time>2026-04-30T10:09:23.943Z</time></trkpt><trkpt lat="44.3599933" lon="8.4388843"><ele>525.5</ele><time>2026-04-30T10:09:25.944Z</time></trkpt><trkpt lat="44.3599923" lon="8.4390127"><ele>524.0</ele><time>2026-04-30T10:09:27.948Z</time></trkpt><trkpt lat="44.3599848" lon="8.4391457"><ele>523.2857142857143</ele><time>2026-04-30T10:09:29.946Z</time></trkpt><trkpt lat="44.3599537" lon="8.4392377"><ele>522.5714285714287</ele><time>2026-04-30T10:09:31.949Z</time></trkpt><trkpt lat="44.3599328" lon="8.4393538"><ele>521.8571428571429</ele><time>2026-04-30T10:09:34.945Z</time></trkpt><trkpt lat="44.359945" lon="8.4394462"><ele>521.1428571428571</ele><time>2026-04-30T10:09:36.944Z</time></trkpt><trkpt lat="44.3599702" lon="8.4395392"><ele>520.4285714285713</ele><time>2026-04-30T10:09:38.943Z</time></trkpt><trkpt lat="44.359992" lon="8.4396295"><ele>519.7142857142857</ele><time>2026-04-30T10:09:40.944Z</time></trkpt><trkpt lat="44.3600093" lon="8.4397358"><ele>519.0</ele><time>2026-04-30T10:09:42.946Z</time></trkpt><trkpt lat="44.360018" lon="8.4398507"><ele>519.0</ele><time>2026-04-30T10:09:44.942Z</time></trkpt><trkpt lat="44.3600488" lon="8.4400192"><ele>519.0</ele><time>2026-04-30T10:09:46.944Z</time></trkpt><trkpt lat="44.3600735" lon="8.4401653"><ele>519.0</ele><time>2026-04-30T10:09:48.945Z</time></trkpt><trkpt lat="44.3600888" lon="8.4403373"><ele>519.0</ele><time>2026-04-30T10:09:50.941Z</time></trkpt><trkpt lat="44.3600953" lon="8.4404273"><ele>519.0</ele><time>2026-04-30T10:09:51.947Z</time></trkpt><trkpt lat="44.360118" lon="8.4405942"><ele>519.4</ele><time>2026-04-30T10:09:53.948Z</time></trkpt><trkpt lat="44.3601285" lon="8.4406853"><ele>519.8</ele><time>2026-04-30T10:09:54.942Z</time></trkpt><trkpt lat="44.3601508" lon="8.4408483"><ele>520.2</ele><time>2026-04-30T10:09:56.943Z</time></trkpt><trkpt lat="44.3601678" lon="8.4409845"><ele>520.6</ele><time>2026-04-30T10:09:58.946Z</time></trkpt><trkpt lat="44.3601472" lon="8.441095"><ele>521.0</ele><time>2026-04-30T10:10:00.945Z</time></trkpt><trkpt lat="44.3601058" lon="8.4412552"><ele>521.8</ele><time>2026-04-30T10:10:02.947Z</time></trkpt><trkpt lat="44.3600843" lon="8.441422"><ele>522.6</ele><time>2026-04-30T10:10:04.946Z</time></trkpt><trkpt lat="44.3601077" lon="8.4415937"><ele>523.4</ele><time>2026-04-30T10:10:06.943Z</time></trkpt><trkpt lat="44.3601238" lon="8.4416933"><ele>524.2</ele><time>2026-04-30T10:10:07.946Z</time></trkpt><trkpt lat="44.3601347" lon="8.4418488"><ele>525.0</ele><time>2026-04-30T10:10:09.944Z</time></trkpt><trkpt lat="44.3601335" lon="8.4419443"><ele>525.0</ele><time>2026-04-30T10:10:10.949Z</time></trkpt><trkpt lat="44.3601368" lon="8.4420415"><ele>525.0</ele><time>2026-04-30T10:10:11.943Z</time></trkpt><trkpt lat="44.3601467" lon="8.4421392"><ele>525.0</ele><time>2026-04-30T10:10:12.946Z</time></trkpt><trkpt lat="44.3601503" lon="8.442253"><ele>525.0</ele><time>2026-04-30T10:10:14.942Z</time></trkpt><trkpt lat="44.3601688" lon="8.4423687"><ele>525.0</ele><time>2026-04-30T10:10:16.94Z</time></trkpt><trkpt lat="44.3601725" lon="8.4424927"><ele>525.0</ele><time>2026-04-30T10:10:18.944Z</time></trkpt><trkpt lat="44.3601848" lon="8.4426223"><ele>524.5</ele><time>2026-04-30T10:10:20.944Z</time></trkpt><trkpt lat="44.3601998" lon="8.4427695"><ele>524.0</ele><time>2026-04-30T10:10:22.944Z</time></trkpt><trkpt lat="44.3602077" lon="8.4428975"><ele>523.5</ele><time>2026-04-30T10:10:24.944Z</time></trkpt><trkpt lat="44.3602308" lon="8.4429887"><ele>523.0</ele><time>2026-04-30T10:10:40.944Z</time></trkpt><trkpt lat="44.360246" lon="8.4430897"><ele>522.5</ele><time>2026-04-30T10:10:43.943Z</time></trkpt><trkpt lat="44.3602668" lon="8.4431777"><ele>522.0</ele><time>2026-04-30T10:10:46.944Z</time></trkpt><trkpt lat="44.3603173" lon="8.4432467"><ele>522.0</ele><time>2026-04-30T10:10:49.94Z</time></trkpt><trkpt lat="44.3603722" lon="8.4431758"><ele>522.0</ele><time>2026-04-30T10:11:03.945Z</time></trkpt><trkpt lat="44.360401" lon="8.4430783"><ele>522.0</ele><time>2026-04-30T10:11:07.944Z</time></trkpt><trkpt lat="44.3604085" lon="8.4429908"><ele>522.0</ele><time>2026-04-30T10:11:10.946Z</time></trkpt><trkpt lat="44.3604162" lon="8.4428848"><ele>522.0</ele><time>2026-04-30T10:11:13.943Z</time></trkpt><trkpt lat="44.3604268" lon="8.4427643"><ele>522.0</ele><time>2026-04-30T10:11:16.945Z</time></trkpt><trkpt lat="44.3604383" lon="8.4426662"><ele>522.0</ele><time>2026-04-30T10:11:19.947Z</time></trkpt><trkpt lat="44.3605095" lon="8.442685"><ele>513.0</ele><time>2026-04-30T10:11:25.946Z</time></trkpt><trkpt lat="44.3605503" lon="8.4427723"><ele>504.00000000000006</ele><time>2026-04-30T10:11:29.955Z</time></trkpt><trkpt lat="44.360574" lon="8.4428763"><ele>495.00000000000006</ele><time>2026-04-30T10:11:32.941Z</time></trkpt><trkpt lat="44.3606167" lon="8.4430093"><ele>486.0</ele><time>2026-04-30T10:11:35.943Z</time></trkpt><trkpt lat="44.3606698" lon="8.443117"><ele>477.0</ele><time>2026-04-30T10:11:37.944Z</time></trkpt><trkpt lat="44.3607342" lon="8.4432352"><ele>477.0</ele><time>2026-04-30T10:11:39.94Z</time></trkpt><trkpt lat="44.3607878" lon="8.4433333"><ele>477.00000000000006</ele><time>2026-04-30T10:11:41.946Z</time></trkpt><trkpt lat="44.3608655" lon="8.443401"><ele>477.00000000000006</ele><time>2026-04-30T10:11:43.943Z</time></trkpt><trkpt lat="44.360935" lon="8.4434868"><ele>477.0</ele><time>2026-04-30T10:11:45.944Z</time></trkpt><trkpt lat="44.3609642" lon="8.4435885"><ele>477.0</ele><time>2026-04-30T10:11:47.948Z</time></trkpt><trkpt lat="44.3609902" lon="8.4437298"><ele>479.5</ele><time>2026-04-30T10:11:49.943Z</time></trkpt><trkpt lat="44.3609977" lon="8.4438217"><ele>482.0</ele><time>2026-04-30T10:11:50.943Z</time></trkpt><trkpt lat="44.361016" lon="8.4439447"><ele>484.5</ele><time>2026-04-30T10:11:51.944Z</time></trkpt><trkpt lat="44.3610472" lon="8.4440633"><ele>487.0</ele><time>2026-04-30T10:11:52.945Z</time></trkpt><trkpt lat="44.3610812" lon="8.4441485"><ele>489.5</ele><time>2026-04-30T10:11:53.948Z</time></trkpt><trkpt lat="44.3611683" lon="8.4442663"><ele>492.0</ele><time>2026-04-30T10:11:55.946Z</time></trkpt><trkpt lat="44.361243" lon="8.4443602"><ele>492.0</ele><time>2026-04-30T10:11:57.943Z</time></trkpt><trkpt lat="44.3612948" lon="8.4444555"><ele>492.0</ele><time>2026-04-30T10:11:59.944Z</time></trkpt><trkpt lat="44.3613612" lon="8.4445268"><ele>492.0</ele><time>2026-04-30T10:12:01.944Z</time></trkpt><trkpt lat="44.3614392" lon="8.4445725"><ele>492.0</ele><time>2026-04-30T10:12:03.945Z</time></trkpt><trkpt lat="44.3615103" lon="8.4446492"><ele>492.0</ele><time>2026-04-30T10:12:05.946Z</time></trkpt><trkpt lat="44.3615998" lon="8.4446913"><ele>492.0</ele><time>2026-04-30T10:12:07.943Z</time></trkpt><trkpt lat="44.3616912" lon="8.4447013"><ele>487.5</ele><time>2026-04-30T10:12:09.941Z</time></trkpt><trkpt lat="44.3617777" lon="8.4447352"><ele>483.0</ele><time>2026-04-30T10:12:11.943Z</time></trkpt><trkpt lat="44.3618517" lon="8.444795"><ele>478.5</ele><time>2026-04-30T10:12:13.947Z</time></trkpt><trkpt lat="44.3619205" lon="8.444871"><ele>474.0</ele><time>2026-04-30T10:12:15.944Z</time></trkpt><trkpt lat="44.3619988" lon="8.4449332"><ele>469.5</ele><time>2026-04-30T10:12:17.95Z</time></trkpt><trkpt lat="44.3619978" lon="8.4450292"><ele>465.0</ele><time>2026-04-30T10:12:20.943Z</time></trkpt><trkpt lat="44.3619528" lon="8.4451062"><ele>465.0</ele><time>2026-04-30T10:12:22.943Z</time></trkpt><trkpt lat="44.361882" lon="8.4451698"><ele>465.0</ele><time>2026-04-30T10:12:24.945Z</time></trkpt><trkpt lat="44.3618053" lon="8.4452247"><ele>465.0</ele><time>2026-04-30T10:12:26.943Z</time></trkpt><trkpt lat="44.3617433" lon="8.4452888"><ele>465.0</ele><time>2026-04-30T10:12:28.942Z</time></trkpt><trkpt lat="44.361701" lon="8.445376"><ele>465.0</ele><time>2026-04-30T10:12:30.946Z</time></trkpt><trkpt lat="44.361689" lon="8.445464"><ele>465.0</ele><time>2026-04-30T10:12:35.947Z</time></trkpt><trkpt lat="44.3617148" lon="8.4455677"><ele>462.2</ele><time>2026-04-30T10:12:38.946Z</time></trkpt><trkpt lat="44.3617073" lon="8.4456635"><ele>459.4</ele><time>2026-04-30T10:12:40.945Z</time></trkpt><trkpt lat="44.3616713" lon="8.4457735"><ele>456.6</ele><time>2026-04-30T10:12:42.943Z</time></trkpt><trkpt lat="44.3616578" lon="8.4459193"><ele>453.8</ele><time>2026-04-30T10:12:44.942Z</time></trkpt><trkpt lat="44.3616715" lon="8.4461027"><ele>451.0</ele><time>2026-04-30T10:12:46.946Z</time></trkpt><trkpt lat="44.3616735" lon="8.446194"><ele>451.00000000000006</ele><time>2026-04-30T10:12:47.943Z</time></trkpt><trkpt lat="44.3616747" lon="8.4462912"><ele>451.0</ele><time>2026-04-30T10:12:48.945Z</time></trkpt><trkpt lat="44.3616458" lon="8.4464193"><ele>451.0</ele><time>2026-04-30T10:12:50.945Z</time></trkpt><trkpt lat="44.3615947" lon="8.446471"><ele>451.0</ele><time>2026-04-30T10:12:52.945Z</time></trkpt><trkpt lat="44.36153" lon="8.4464583"><ele>451.00000000000006</ele><time>2026-04-30T10:12:54.943Z</time></trkpt><trkpt lat="44.3614367" lon="8.4464517"><ele>451.0</ele><time>2026-04-30T10:12:56.943Z</time></trkpt><trkpt lat="44.3613613" lon="8.4464282"><ele>448.0</ele><time>2026-04-30T10:12:58.943Z</time></trkpt><trkpt lat="44.361276" lon="8.4463912"><ele>445.0</ele><time>2026-04-30T10:13:00.945Z</time></trkpt><trkpt lat="44.3611793" lon="8.4463483"><ele>442.0</ele><time>2026-04-30T10:13:02.943Z</time></trkpt><trkpt lat="44.3610888" lon="8.4463168"><ele>439.0</ele><time>2026-04-30T10:13:04.944Z</time></trkpt><trkpt lat="44.3610022" lon="8.4462682"><ele>436.0</ele><time>2026-04-30T10:13:06.944Z</time></trkpt><trkpt lat="44.3609185" lon="8.4461908"><ele>441.83333333333337</ele><time>2026-04-30T10:13:08.943Z</time></trkpt><trkpt lat="44.3608683" lon="8.4461373"><ele>447.6666666666667</ele><time>2026-04-30T10:13:09.949Z</time></trkpt><trkpt lat="44.3608143" lon="8.446078"><ele>453.5</ele><time>2026-04-30T10:13:10.941Z</time></trkpt><trkpt lat="44.3607627" lon="8.4460272"><ele>459.33333333333337</ele><time>2026-04-30T10:13:11.945Z</time></trkpt><trkpt lat="44.3606593" lon="8.4459655"><ele>465.1666666666667</ele><time>2026-04-30T10:13:13.943Z</time></trkpt><trkpt lat="44.3605645" lon="8.4459252"><ele>471.0</ele><time>2026-04-30T10:13:15.941Z</time></trkpt><trkpt lat="44.3604688" lon="8.4459282"><ele>471.6</ele><time>2026-04-30T10:13:17.949Z</time></trkpt><trkpt lat="44.3603732" lon="8.4459725"><ele>472.20000000000005</ele><time>2026-04-30T10:13:19.946Z</time></trkpt><trkpt lat="44.3603213" lon="8.4460587"><ele>472.79999999999995</ele><time>2026-04-30T10:13:21.943Z</time></trkpt><trkpt lat="44.3603" lon="8.446204"><ele>473.4</ele><time>2026-04-30T10:13:23.948Z</time></trkpt><trkpt lat="44.3602258" lon="8.4463237"><ele>474.0</ele><time>2026-04-30T10:13:26.952Z</time></trkpt><trkpt lat="44.360137" lon="8.4464032"><ele>467.4</ele><time>2026-04-30T10:13:28.945Z</time></trkpt><trkpt lat="44.3600272" lon="8.446424"><ele>460.79999999999995</ele><time>2026-04-30T10:13:30.944Z</time></trkpt><trkpt lat="44.3599255" lon="8.4464015"><ele>454.20000000000005</ele><time>2026-04-30T10:13:32.941Z</time></trkpt><trkpt lat="44.359839" lon="8.4463748"><ele>447.6</ele><time>2026-04-30T10:13:34.942Z</time></trkpt><trkpt lat="44.3597558" lon="8.4463452"><ele>441.0</ele><time>2026-04-30T10:13:36.944Z</time></trkpt><trkpt lat="44.3597225" lon="8.4464238"><ele>445.3333333333333</ele><time>2026-04-30T10:13:41.942Z</time></trkpt><trkpt lat="44.3596977" lon="8.446548"><ele>449.66666666666663</ele><time>2026-04-30T10:13:43.945Z</time></trkpt><trkpt lat="44.3596442" lon="8.4466745"><ele>454.0</ele><time>2026-04-30T10:13:45.943Z</time></trkpt><trkpt lat="44.3595965" lon="8.4467368"><ele>458.3333333333333</ele><time>2026-04-30T10:13:46.955Z</time></trkpt><trkpt lat="44.3595388" lon="8.4467803"><ele>462.66666666666663</ele><time>2026-04-30T10:13:47.949Z</time></trkpt><trkpt lat="44.3594622" lon="8.4468593"><ele>467.0</ele><time>2026-04-30T10:13:49.943Z</time></trkpt><trkpt lat="44.3594108" lon="8.44694"><ele>466.99999999999994</ele><time>2026-04-30T10:13:52.942Z</time></trkpt><trkpt lat="44.3593708" lon="8.4470203"><ele>467.0</ele><time>2026-04-30T10:13:54.944Z</time></trkpt><trkpt lat="44.3593027" lon="8.4470707"><ele>467.0</ele><time>2026-04-30T10:13:56.941Z</time></trkpt><trkpt lat="44.3592522" lon="8.447137"><ele>467.0</ele><time>2026-04-30T10:13:59.94Z</time></trkpt><trkpt lat="44.3592427" lon="8.4472548"><ele>466.99999999999994</ele><time>2026-04-30T10:14:01.945Z</time></trkpt><trkpt lat="44.359222" lon="8.4474087"><ele>467.0</ele><time>2026-04-30T10:14:03.944Z</time></trkpt><trkpt lat="44.3591802" lon="8.447537"><ele>460.8</ele><time>2026-04-30T10:14:05.946Z</time></trkpt><trkpt lat="44.3591237" lon="8.4476568"><ele>454.6</ele><time>2026-04-30T10:14:07.944Z</time></trkpt><trkpt lat="44.3590758" lon="8.4477962"><ele>448.40000000000003</ele><time>2026-04-30T10:14:09.944Z</time></trkpt><trkpt lat="44.3590362" lon="8.4479463"><ele>442.20000000000005</ele><time>2026-04-30T10:14:11.947Z</time></trkpt><trkpt lat="44.3589852" lon="8.4480925"><ele>436.0</ele><time>2026-04-30T10:14:13.944Z</time></trkpt><trkpt lat="44.3589615" lon="8.4481757"><ele>435.0</ele><time>2026-04-30T10:14:14.946Z</time></trkpt><trkpt lat="44.3589188" lon="8.4483268"><ele>434.0</ele><time>2026-04-30T10:14:16.946Z</time></trkpt><trkpt lat="44.3588757" lon="8.4484642"><ele>433.0</ele><time>2026-04-30T10:14:18.945Z</time></trkpt><trkpt lat="44.358805" lon="8.4485917"><ele>432.0</ele><time>2026-04-30T10:14:20.943Z</time></trkpt><trkpt lat="44.358751" lon="8.4486638"><ele>431.0</ele><time>2026-04-30T10:14:24.943Z</time></trkpt><trkpt lat="44.3586825" lon="8.448756"><ele>427.8</ele><time>2026-04-30T10:14:28.942Z</time></trkpt><trkpt lat="44.3586285" lon="8.4488612"><ele>424.6</ele><time>2026-04-30T10:14:31.947Z</time></trkpt><trkpt lat="44.3585798" lon="8.4489623"><ele>421.4</ele><time>2026-04-30T10:14:33.945Z</time></trkpt><trkpt lat="44.3585335" lon="8.4491292"><ele>418.2</ele><time>2026-04-30T10:14:35.945Z</time></trkpt><trkpt lat="44.3585078" lon="8.4492182"><ele>415.0</ele><time>2026-04-30T10:14:36.945Z</time></trkpt><trkpt lat="44.3584788" lon="8.4493125"><ele>415.0</ele><time>2026-04-30T10:14:37.947Z</time></trkpt><trkpt lat="44.3584518" lon="8.4494155"><ele>415.0</ele><time>2026-04-30T10:14:38.941Z</time></trkpt><trkpt lat="44.3584143" lon="8.4495218"><ele>415.0</ele><time>2026-04-30T10:14:39.947Z</time></trkpt><trkpt lat="44.3583635" lon="8.4496547"><ele>415.0</ele><time>2026-04-30T10:14:40.947Z</time></trkpt><trkpt lat="44.3583133" lon="8.4497793"><ele>415.0</ele><time>2026-04-30T10:14:41.945Z</time></trkpt><trkpt lat="44.3582695" lon="8.4498955"><ele>413.50000000000006</ele><time>2026-04-30T10:14:42.947Z</time></trkpt><trkpt lat="44.3582365" lon="8.4500078"><ele>412.0</ele><time>2026-04-30T10:14:43.945Z</time></trkpt><trkpt lat="44.358212" lon="8.4501183"><ele>410.5</ele><time>2026-04-30T10:14:44.944Z</time></trkpt><trkpt lat="44.358196" lon="8.450216"><ele>409.0</ele><time>2026-04-30T10:14:45.948Z</time></trkpt><trkpt lat="44.3581718" lon="8.4503175"><ele>407.50000000000006</ele><time>2026-04-30T10:14:46.944Z</time></trkpt><trkpt lat="44.3581333" lon="8.4504085"><ele>406.0</ele><time>2026-04-30T10:14:47.947Z</time></trkpt><trkpt lat="44.3580875" lon="8.4505028"><ele>406.20000000000005</ele><time>2026-04-30T10:14:48.945Z</time></trkpt><trkpt lat="44.3580488" lon="8.4505933"><ele>406.40000000000003</ele><time>2026-04-30T10:14:49.944Z</time></trkpt><trkpt lat="44.358001" lon="8.4507622"><ele>406.6</ele><time>2026-04-30T10:14:51.944Z</time></trkpt><trkpt lat="44.3579498" lon="8.4509072"><ele>406.8</ele><time>2026-04-30T10:14:53.947Z</time></trkpt><trkpt lat="44.3578857" lon="8.4510305"><ele>407.0</ele><time>2026-04-30T10:14:55.946Z</time></trkpt><trkpt lat="44.3578143" lon="8.4511445"><ele>407.0</ele><time>2026-04-30T10:14:57.951Z</time></trkpt><trkpt lat="44.3577598" lon="8.4512693"><ele>407.0</ele><time>2026-04-30T10:14:59.946Z</time></trkpt><trkpt lat="44.3577122" lon="8.4513803"><ele>407.0</ele><time>2026-04-30T10:15:01.95Z</time></trkpt><trkpt lat="44.3577087" lon="8.4515262"><ele>407.0</ele><time>2026-04-30T10:15:03.946Z</time></trkpt><trkpt lat="44.3577098" lon="8.4516818"><ele>407.0</ele><time>2026-04-30T10:15:05.947Z</time></trkpt><trkpt lat="44.3576897" lon="8.4517863"><ele>408.0</ele><time>2026-04-30T10:15:06.946Z</time></trkpt><trkpt lat="44.3576543" lon="8.451893"><ele>409.0</ele><time>2026-04-30T10:15:07.949Z</time></trkpt><trkpt lat="44.3575977" lon="8.4520105"><ele>410.0</ele><time>2026-04-30T10:15:08.944Z</time></trkpt><trkpt lat="44.357537" lon="8.4521387"><ele>411.0</ele><time>2026-04-30T10:15:09.944Z</time></trkpt><trkpt lat="44.3574725" lon="8.4522915"><ele>412.0</ele><time>2026-04-30T10:15:10.943Z</time></trkpt><trkpt lat="44.3574035" lon="8.4524827"><ele>412.25</ele><time>2026-04-30T10:15:11.948Z</time></trkpt><trkpt lat="44.357334" lon="8.4526702"><ele>412.5</ele><time>2026-04-30T10:15:12.946Z</time></trkpt><trkpt lat="44.3572825" lon="8.4528585"><ele>412.75</ele><time>2026-04-30T10:15:13.949Z</time></trkpt><trkpt lat="44.3572283" lon="8.453019"><ele>413.0</ele><time>2026-04-30T10:15:14.948Z</time></trkpt><trkpt lat="44.3571983" lon="8.4531923"><ele>412.79999999999995</ele><time>2026-04-30T10:15:15.947Z</time></trkpt><trkpt lat="44.3571902" lon="8.4533655"><ele>412.6</ele><time>2026-04-30T10:15:16.948Z</time></trkpt><trkpt lat="44.3571807" lon="8.4535165"><ele>412.4</ele><time>2026-04-30T10:15:17.949Z</time></trkpt><trkpt lat="44.3571758" lon="8.453657"><ele>412.20000000000005</ele><time>2026-04-30T10:15:18.945Z</time></trkpt><trkpt lat="44.3571763" lon="8.4537773"><ele>412.0</ele><time>2026-04-30T10:15:19.944Z</time></trkpt><trkpt lat="44.3571673" lon="8.4538785"><ele>412.00000000000006</ele><time>2026-04-30T10:15:20.943Z</time></trkpt><trkpt lat="44.3571393" lon="8.4539588"><ele>412.0</ele><time>2026-04-30T10:15:21.944Z</time></trkpt><trkpt lat="44.357087" lon="8.4540222"><ele>412.0</ele><time>2026-04-30T10:15:22.946Z</time></trkpt><trkpt lat="44.3570218" lon="8.4540883"><ele>412.0</ele><time>2026-04-30T10:15:23.948Z</time></trkpt><trkpt lat="44.3569418" lon="8.4541743"><ele>412.00000000000006</ele><time>2026-04-30T10:15:24.946Z</time></trkpt><trkpt lat="44.3568612" lon="8.4542762"><ele>412.0</ele><time>2026-04-30T10:15:25.947Z</time></trkpt><trkpt lat="44.3567877" lon="8.4543892"><ele>412.0</ele><time>2026-04-30T10:15:26.944Z</time></trkpt><trkpt lat="44.3567157" lon="8.4545215"><ele>412.0</ele><time>2026-04-30T10:15:27.948Z</time></trkpt><trkpt lat="44.3566352" lon="8.4546622"><ele>412.0</ele><time>2026-04-30T10:15:28.943Z</time></trkpt><trkpt lat="44.3565403" lon="8.4547857"><ele>412.0</ele><time>2026-04-30T10:15:29.948Z</time></trkpt><trkpt lat="44.3564452" lon="8.4548767"><ele>411.8</ele><time>2026-04-30T10:15:30.946Z</time></trkpt><trkpt lat="44.3563442" lon="8.4549595"><ele>411.6</ele><time>2026-04-30T10:15:31.953Z</time></trkpt><trkpt lat="44.3562562" lon="8.4550477"><ele>411.40000000000003</ele><time>2026-04-30T10:15:32.949Z</time></trkpt><trkpt lat="44.3561715" lon="8.4551397"><ele>411.20000000000005</ele><time>2026-04-30T10:15:33.948Z</time></trkpt><trkpt lat="44.35609" lon="8.4552225"><ele>411.0</ele><time>2026-04-30T10:15:34.943Z</time></trkpt><trkpt lat="44.356011" lon="8.4552907"><ele>411.0</ele><time>2026-04-30T10:15:35.952Z</time></trkpt><trkpt lat="44.3559352" lon="8.4553687"><ele>411.0</ele><time>2026-04-30T10:15:36.945Z</time></trkpt><trkpt lat="44.3558642" lon="8.455472"><ele>411.0</ele><time>2026-04-30T10:15:37.952Z</time></trkpt><trkpt lat="44.3558032" lon="8.455587"><ele>411.0</ele><time>2026-04-30T10:15:38.945Z</time></trkpt><trkpt lat="44.3557457" lon="8.455713"><ele>411.0</ele><time>2026-04-30T10:15:39.949Z</time></trkpt><trkpt lat="44.3556982" lon="8.4558463"><ele>411.4</ele><time>2026-04-30T10:15:40.946Z</time></trkpt><trkpt lat="44.3556623" lon="8.4559707"><ele>411.8</ele><time>2026-04-30T10:15:41.949Z</time></trkpt><trkpt lat="44.355631" lon="8.4560902"><ele>412.2</ele><time>2026-04-30T10:15:42.948Z</time></trkpt><trkpt lat="44.355604" lon="8.4561952"><ele>412.59999999999997</ele><time>2026-04-30T10:15:43.944Z</time></trkpt><trkpt lat="44.3555793" lon="8.4562825"><ele>413.0</ele><time>2026-04-30T10:15:44.948Z</time></trkpt><trkpt lat="44.3554943" lon="8.4563948"><ele>414.16666666666663</ele><time>2026-04-30T10:15:46.949Z</time></trkpt><trkpt lat="44.3554322" lon="8.456413"><ele>415.3333333333333</ele><time>2026-04-30T10:15:47.945Z</time></trkpt><trkpt lat="44.3553522" lon="8.4563868"><ele>416.5</ele><time>2026-04-30T10:15:48.952Z</time></trkpt><trkpt lat="44.355263" lon="8.4563443"><ele>417.66666666666663</ele><time>2026-04-30T10:15:49.943Z</time></trkpt><trkpt lat="44.3551715" lon="8.4562963"><ele>418.8333333333333</ele><time>2026-04-30T10:15:50.946Z</time></trkpt><trkpt lat="44.3550725" lon="8.4562785"><ele>420.0</ele><time>2026-04-30T10:15:51.945Z</time></trkpt><trkpt lat="44.3549663" lon="8.4562953"><ele>414.6666666666667</ele><time>2026-04-30T10:15:52.944Z</time></trkpt><trkpt lat="44.3548698" lon="8.4563125"><ele>409.33333333333337</ele><time>2026-04-30T10:15:53.945Z</time></trkpt><trkpt lat="44.3547738" lon="8.4563195"><ele>404.0</ele><time>2026-04-30T10:15:54.946Z</time></trkpt><trkpt lat="44.35469" lon="8.4562922"><ele>398.6666666666667</ele><time>2026-04-30T10:15:55.948Z</time></trkpt><trkpt lat="44.3546212" lon="8.4562197"><ele>393.33333333333337</ele><time>2026-04-30T10:15:56.943Z</time></trkpt><trkpt lat="44.354569" lon="8.456135"><ele>388.0</ele><time>2026-04-30T10:15:57.948Z</time></trkpt><trkpt lat="44.3545352" lon="8.4560605"><ele>387.85714285714283</ele><time>2026-04-30T10:15:58.944Z</time></trkpt><trkpt lat="44.3544772" lon="8.4561028"><ele>387.7142857142857</ele><time>2026-04-30T10:16:01.946Z</time></trkpt><trkpt lat="44.3545033" lon="8.4561953"><ele>387.57142857142856</ele><time>2026-04-30T10:16:02.945Z</time></trkpt><trkpt lat="44.3545347" lon="8.456292"><ele>387.42857142857144</ele><time>2026-04-30T10:16:03.95Z</time></trkpt><trkpt lat="44.354545" lon="8.4563843"><ele>387.28571428571433</ele><time>2026-04-30T10:16:04.948Z</time></trkpt><trkpt lat="44.3545538" lon="8.4564818"><ele>387.14285714285717</ele><time>2026-04-30T10:16:05.945Z</time></trkpt><trkpt lat="44.3545522" lon="8.456618"><ele>387.0</ele><time>2026-04-30T10:16:06.948Z</time></trkpt><trkpt lat="44.3545363" lon="8.4567475"><ele>383.3333333333333</ele><time>2026-04-30T10:16:07.946Z</time></trkpt><trkpt lat="44.3545142" lon="8.4568675"><ele>379.6666666666667</ele><time>2026-04-30T10:16:08.949Z</time></trkpt><trkpt lat="44.3544798" lon="8.4569557"><ele>376.0</ele><time>2026-04-30T10:16:09.946Z</time></trkpt><trkpt lat="44.3544282" lon="8.4570333"><ele>372.33333333333337</ele><time>2026-04-30T10:16:10.954Z</time></trkpt><trkpt lat="44.3543642" lon="8.4570882"><ele>368.6666666666667</ele><time>2026-04-30T10:16:11.943Z</time></trkpt><trkpt lat="44.354298" lon="8.4571392"><ele>365.0</ele><time>2026-04-30T10:16:12.948Z</time></trkpt><trkpt lat="44.3542327" lon="8.4572072"><ele>365.0</ele><time>2026-04-30T10:16:13.944Z</time></trkpt><trkpt lat="44.3541608" lon="8.4572993"><ele>365.0</ele><time>2026-04-30T10:16:14.948Z</time></trkpt><trkpt lat="44.3540798" lon="8.4574248"><ele>365.0</ele><time>2026-04-30T10:16:15.942Z</time></trkpt><trkpt lat="44.3539895" lon="8.4575742"><ele>365.0</ele><time>2026-04-30T10:16:16.948Z</time></trkpt><trkpt lat="44.3538932" lon="8.4577345"><ele>363.33333333333337</ele><time>2026-04-30T10:16:17.945Z</time></trkpt><trkpt lat="44.3538025" lon="8.457922"><ele>361.6666666666667</ele><time>2026-04-30T10:16:18.947Z</time></trkpt><trkpt lat="44.3537203" lon="8.4581218"><ele>360.0</ele><time>2026-04-30T10:16:19.943Z</time></trkpt><trkpt lat="44.3536265" lon="8.4582878"><ele>360.0</ele><time>2026-04-30T10:16:20.946Z</time></trkpt><trkpt lat="44.35352" lon="8.4584245"><ele>360.0</ele><time>2026-04-30T10:16:21.945Z</time></trkpt><trkpt lat="44.3534103" lon="8.4585405"><ele>360.0</ele><time>2026-04-30T10:16:22.943Z</time></trkpt><trkpt lat="44.3533022" lon="8.4586453"><ele>360.0</ele><time>2026-04-30T10:16:23.943Z</time></trkpt><trkpt lat="44.3531912" lon="8.4587497"><ele>360.8</ele><time>2026-04-30T10:16:24.95Z</time></trkpt><trkpt lat="44.3530868" lon="8.4588297"><ele>361.6</ele><time>2026-04-30T10:16:25.942Z</time></trkpt><trkpt lat="44.3529748" lon="8.4588745"><ele>362.4</ele><time>2026-04-30T10:16:26.946Z</time></trkpt><trkpt lat="44.3528772" lon="8.4589083"><ele>363.2</ele><time>2026-04-30T10:16:27.943Z</time></trkpt><trkpt lat="44.3527845" lon="8.4589478"><ele>364.0</ele><time>2026-04-30T10:16:28.949Z</time></trkpt><trkpt lat="44.352714" lon="8.4590117"><ele>364.0</ele><time>2026-04-30T10:16:29.943Z</time></trkpt><trkpt lat="44.3526693" lon="8.4591217"><ele>364.0</ele><time>2026-04-30T10:16:30.942Z</time></trkpt><trkpt lat="44.3526227" lon="8.4592443"><ele>364.0</ele><time>2026-04-30T10:16:31.946Z</time></trkpt><trkpt lat="44.3525652" lon="8.4593637"><ele>364.0</ele><time>2026-04-30T10:16:32.943Z</time></trkpt><trkpt lat="44.3524877" lon="8.4594688"><ele>364.0</ele><time>2026-04-30T10:16:33.946Z</time></trkpt><trkpt lat="44.352416" lon="8.459563"><ele>364.0</ele><time>2026-04-30T10:16:34.943Z</time></trkpt><trkpt lat="44.3523482" lon="8.4596163"><ele>364.0</ele><time>2026-04-30T10:16:35.943Z</time></trkpt><trkpt lat="44.3522712" lon="8.459624"><ele>364.0</ele><time>2026-04-30T10:16:36.95Z</time></trkpt><trkpt lat="44.3521833" lon="8.4596145"><ele>364.0</ele><time>2026-04-30T10:16:37.944Z</time></trkpt><trkpt lat="44.3520865" lon="8.4596128"><ele>364.0</ele><time>2026-04-30T10:16:38.949Z</time></trkpt><trkpt lat="44.3519833" lon="8.4596455"><ele>364.0</ele><time>2026-04-30T10:16:39.944Z</time></trkpt><trkpt lat="44.3518773" lon="8.4596755"><ele>364.4</ele><time>2026-04-30T10:16:40.944Z</time></trkpt><trkpt lat="44.3518008" lon="8.4597308"><ele>364.79999999999995</ele><time>2026-04-30T10:16:41.944Z</time></trkpt><trkpt lat="44.3517547" lon="8.4598"><ele>365.20000000000005</ele><time>2026-04-30T10:16:42.945Z</time></trkpt><trkpt lat="44.3517192" lon="8.4599095"><ele>365.6</ele><time>2026-04-30T10:16:43.945Z</time></trkpt><trkpt lat="44.3516855" lon="8.4600397"><ele>366.0</ele><time>2026-04-30T10:16:44.942Z</time></trkpt><trkpt lat="44.3516412" lon="8.4601978"><ele>366.0</ele><time>2026-04-30T10:16:45.942Z</time></trkpt><trkpt lat="44.3515938" lon="8.4603563"><ele>366.0</ele><time>2026-04-30T10:16:46.942Z</time></trkpt><trkpt lat="44.3515435" lon="8.4605098"><ele>366.0</ele><time>2026-04-30T10:16:47.943Z</time></trkpt><trkpt lat="44.3515077" lon="8.460661"><ele>366.0</ele><time>2026-04-30T10:16:48.944Z</time></trkpt><trkpt lat="44.3515" lon="8.4608265"><ele>369.4</ele><time>2026-04-30T10:16:49.943Z</time></trkpt><trkpt lat="44.3514948" lon="8.4609895"><ele>372.8</ele><time>2026-04-30T10:16:50.944Z</time></trkpt><trkpt lat="44.3514888" lon="8.4611473"><ele>376.2</ele><time>2026-04-30T10:16:51.946Z</time></trkpt><trkpt lat="44.3514775" lon="8.4612968"><ele>379.59999999999997</ele><time>2026-04-30T10:16:52.944Z</time></trkpt><trkpt lat="44.351446" lon="8.4614278"><ele>383.0</ele><time>2026-04-30T10:16:53.946Z</time></trkpt><trkpt lat="44.3513982" lon="8.4615593"><ele>379.6666666666667</ele><time>2026-04-30T10:16:54.945Z</time></trkpt><trkpt lat="44.351326" lon="8.4616613"><ele>376.33333333333337</ele><time>2026-04-30T10:16:55.944Z</time></trkpt><trkpt lat="44.3512685" lon="8.4617558"><ele>373.0</ele><time>2026-04-30T10:16:56.943Z</time></trkpt><trkpt lat="44.3512268" lon="8.4618612"><ele>369.6666666666667</ele><time>2026-04-30T10:16:57.945Z</time></trkpt><trkpt lat="44.3512187" lon="8.4619697"><ele>366.3333333333333</ele><time>2026-04-30T10:16:58.945Z</time></trkpt><trkpt lat="44.3512158" lon="8.4620785"><ele>363.0</ele><time>2026-04-30T10:16:59.944Z</time></trkpt><trkpt lat="44.3511933" lon="8.4621827"><ele>363.0</ele><time>2026-04-30T10:17:00.952Z</time></trkpt><trkpt lat="44.3511518" lon="8.4622738"><ele>363.0</ele><time>2026-04-30T10:17:01.944Z</time></trkpt><trkpt lat="44.3510973" lon="8.4623523"><ele>363.0</ele><time>2026-04-30T10:17:02.942Z</time></trkpt><trkpt lat="44.3510277" lon="8.4624172"><ele>363.0</ele><time>2026-04-30T10:17:03.944Z</time></trkpt><trkpt lat="44.350976" lon="8.4624878"><ele>363.0</ele><time>2026-04-30T10:17:04.943Z</time></trkpt><trkpt lat="44.3509008" lon="8.4626282"><ele>363.0</ele><time>2026-04-30T10:17:06.943Z</time></trkpt><trkpt lat="44.3508533" lon="8.4626985"><ele>363.0</ele><time>2026-04-30T10:17:07.944Z</time></trkpt><trkpt lat="44.3507995" lon="8.462786"><ele>363.0</ele><time>2026-04-30T10:17:08.948Z</time></trkpt><trkpt lat="44.3507457" lon="8.4628988"><ele>363.0</ele><time>2026-04-30T10:17:09.948Z</time></trkpt><trkpt lat="44.3506855" lon="8.4630318"><ele>363.0</ele><time>2026-04-30T10:17:10.947Z</time></trkpt><trkpt lat="44.350625" lon="8.463166"><ele>363.0</ele><time>2026-04-30T10:17:11.947Z</time></trkpt><trkpt lat="44.3505533" lon="8.4632912"><ele>367.25</ele><time>2026-04-30T10:17:12.944Z</time></trkpt><trkpt lat="44.350469" lon="8.4634052"><ele>371.5</ele><time>2026-04-30T10:17:13.948Z</time></trkpt><trkpt lat="44.350385" lon="8.4635113"><ele>375.75</ele><time>2026-04-30T10:17:14.944Z</time></trkpt><trkpt lat="44.350311" lon="8.4636273"><ele>380.0</ele><time>2026-04-30T10:17:15.946Z</time></trkpt><trkpt lat="44.3502515" lon="8.4637748"><ele>381.25</ele><time>2026-04-30T10:17:16.947Z</time></trkpt><trkpt lat="44.3502027" lon="8.4639423"><ele>382.5</ele><time>2026-04-30T10:17:17.943Z</time></trkpt><trkpt lat="44.350137" lon="8.4640992"><ele>383.75</ele><time>2026-04-30T10:17:18.947Z</time></trkpt><trkpt lat="44.3500718" lon="8.4642632"><ele>385.0</ele><time>2026-04-30T10:17:19.942Z</time></trkpt><trkpt lat="44.3500142" lon="8.4644242"><ele>385.0</ele><time>2026-04-30T10:17:20.947Z</time></trkpt><trkpt lat="44.349972" lon="8.4645902"><ele>385.0</ele><time>2026-04-30T10:17:21.944Z</time></trkpt><trkpt lat="44.34994" lon="8.4647625"><ele>385.0</ele><time>2026-04-30T10:17:22.95Z</time></trkpt><trkpt lat="44.3499287" lon="8.4649248"><ele>385.0</ele><time>2026-04-30T10:17:23.948Z</time></trkpt><trkpt lat="44.3499053" lon="8.4650738"><ele>384.2</ele><time>2026-04-30T10:17:24.946Z</time></trkpt><trkpt lat="44.3498685" lon="8.4652058"><ele>383.4</ele><time>2026-04-30T10:17:25.951Z</time></trkpt><trkpt lat="44.3498163" lon="8.4653482"><ele>382.6</ele><time>2026-04-30T10:17:26.945Z</time></trkpt><trkpt lat="44.3497578" lon="8.4654785"><ele>381.8</ele><time>2026-04-30T10:17:27.947Z</time></trkpt><trkpt lat="44.3496943" lon="8.4655842"><ele>381.0</ele><time>2026-04-30T10:17:28.943Z</time></trkpt><trkpt lat="44.349624" lon="8.4656623"><ele>387.4</ele><time>2026-04-30T10:17:29.949Z</time></trkpt><trkpt lat="44.3495373" lon="8.4657357"><ele>393.8</ele><time>2026-04-30T10:17:30.945Z</time></trkpt><trkpt lat="44.3494602" lon="8.465827"><ele>400.2</ele><time>2026-04-30T10:17:31.951Z</time></trkpt><trkpt lat="44.3494002" lon="8.4659415"><ele>406.59999999999997</ele><time>2026-04-30T10:17:32.945Z</time></trkpt><trkpt lat="44.3493503" lon="8.4660822"><ele>413.0</ele><time>2026-04-30T10:17:33.949Z</time></trkpt><trkpt lat="44.349303" lon="8.4662425"><ele>411.25</ele><time>2026-04-30T10:17:34.944Z</time></trkpt><trkpt lat="44.349241" lon="8.4663995"><ele>409.5</ele><time>2026-04-30T10:17:35.949Z</time></trkpt><trkpt lat="44.3491765" lon="8.466551"><ele>407.75</ele><time>2026-04-30T10:17:36.943Z</time></trkpt><trkpt lat="44.3491172" lon="8.4666895"><ele>406.0</ele><time>2026-04-30T10:17:37.95Z</time></trkpt><trkpt lat="44.3490595" lon="8.4668095"><ele>406.0</ele><time>2026-04-30T10:17:38.943Z</time></trkpt><trkpt lat="44.3490008" lon="8.4669193"><ele>406.0</ele><time>2026-04-30T10:17:39.95Z</time></trkpt><trkpt lat="44.3489263" lon="8.4670205"><ele>406.0</ele><time>2026-04-30T10:17:40.945Z</time></trkpt><trkpt lat="44.3488422" lon="8.467092"><ele>406.0</ele><time>2026-04-30T10:17:41.949Z</time></trkpt><trkpt lat="44.3487563" lon="8.4671517"><ele>406.0</ele><time>2026-04-30T10:17:42.947Z</time></trkpt><trkpt lat="44.348662" lon="8.4672117"><ele>408.5</ele><time>2026-04-30T10:17:43.95Z</time></trkpt><trkpt lat="44.348569" lon="8.4672952"><ele>411.0</ele><time>2026-04-30T10:17:44.944Z</time></trkpt><trkpt lat="44.348492" lon="8.4674072"><ele>413.5</ele><time>2026-04-30T10:17:45.952Z</time></trkpt><trkpt lat="44.3484048" lon="8.467548"><ele>416.0</ele><time>2026-04-30T10:17:46.945Z</time></trkpt><trkpt lat="44.34831" lon="8.4676882"><ele>416.0</ele><time>2026-04-30T10:17:47.949Z</time></trkpt><trkpt lat="44.3482205" lon="8.4678343"><ele>416.0</ele><time>2026-04-30T10:17:48.946Z</time></trkpt><trkpt lat="44.3481423" lon="8.4679678"><ele>416.0</ele><time>2026-04-30T10:17:49.945Z</time></trkpt><trkpt lat="44.3480752" lon="8.4680878"><ele>416.0</ele><time>2026-04-30T10:17:50.945Z</time></trkpt><trkpt lat="44.3480052" lon="8.4681933"><ele>416.6</ele><time>2026-04-30T10:17:51.944Z</time></trkpt><trkpt lat="44.347944" lon="8.4682887"><ele>417.20000000000005</ele><time>2026-04-30T10:17:52.945Z</time></trkpt><trkpt lat="44.3478748" lon="8.468364"><ele>417.79999999999995</ele><time>2026-04-30T10:17:53.946Z</time></trkpt><trkpt lat="44.3477923" lon="8.4684035"><ele>418.4</ele><time>2026-04-30T10:17:54.943Z</time></trkpt><trkpt lat="44.3477023" lon="8.4684397"><ele>419.0</ele><time>2026-04-30T10:17:55.948Z</time></trkpt><trkpt lat="44.3476005" lon="8.4684708"><ele>419.0</ele><time>2026-04-30T10:17:56.943Z</time></trkpt><trkpt lat="44.347506" lon="8.4685198"><ele>419.0</ele><time>2026-04-30T10:17:57.947Z</time></trkpt><trkpt lat="44.3474107" lon="8.4685537"><ele>419.0</ele><time>2026-04-30T10:17:58.945Z</time></trkpt><trkpt lat="44.3473268" lon="8.4685785"><ele>419.0</ele><time>2026-04-30T10:17:59.948Z</time></trkpt><trkpt lat="44.3472267" lon="8.4685985"><ele>419.0</ele><time>2026-04-30T10:18:00.949Z</time></trkpt><trkpt lat="44.347115" lon="8.4686043"><ele>419.75</ele><time>2026-04-30T10:18:01.947Z</time></trkpt><trkpt lat="44.3470018" lon="8.4686023"><ele>420.5</ele><time>2026-04-30T10:18:02.943Z</time></trkpt><trkpt lat="44.3468913" lon="8.468614"><ele>421.25</ele><time>2026-04-30T10:18:03.943Z</time></trkpt><trkpt lat="44.3467765" lon="8.4686472"><ele>422.0</ele><time>2026-04-30T10:18:04.943Z</time></trkpt><trkpt lat="44.3466632" lon="8.4687092"><ele>419.5</ele><time>2026-04-30T10:18:05.949Z</time></trkpt><trkpt lat="44.3465575" lon="8.4687817"><ele>417.0</ele><time>2026-04-30T10:18:06.943Z</time></trkpt><trkpt lat="44.3464538" lon="8.4688692"><ele>414.5</ele><time>2026-04-30T10:18:07.949Z</time></trkpt><trkpt lat="44.346352" lon="8.4689863"><ele>412.0</ele><time>2026-04-30T10:18:08.948Z</time></trkpt><trkpt lat="44.3462553" lon="8.4691142"><ele>412.0</ele><time>2026-04-30T10:18:09.948Z</time></trkpt><trkpt lat="44.3461608" lon="8.4692447"><ele>412.0</ele><time>2026-04-30T10:18:10.942Z</time></trkpt><trkpt lat="44.3460798" lon="8.4693645"><ele>412.0</ele><time>2026-04-30T10:18:11.949Z</time></trkpt><trkpt lat="44.3460005" lon="8.469477"><ele>412.0</ele><time>2026-04-30T10:18:12.942Z</time></trkpt><trkpt lat="44.3459067" lon="8.4695705"><ele>408.20000000000005</ele><time>2026-04-30T10:18:13.947Z</time></trkpt><trkpt lat="44.345808" lon="8.4696387"><ele>404.4</ele><time>2026-04-30T10:18:14.945Z</time></trkpt><trkpt lat="44.3457077" lon="8.4696987"><ele>400.6</ele><time>2026-04-30T10:18:15.947Z</time></trkpt><trkpt lat="44.3456208" lon="8.4697782"><ele>396.79999999999995</ele><time>2026-04-30T10:18:16.947Z</time></trkpt><trkpt lat="44.3455355" lon="8.4698653"><ele>393.0</ele><time>2026-04-30T10:18:17.943Z</time></trkpt><trkpt lat="44.345464" lon="8.4699602"><ele>393.0</ele><time>2026-04-30T10:18:18.955Z</time></trkpt><trkpt lat="44.3453867" lon="8.4700342"><ele>393.0</ele><time>2026-04-30T10:18:19.944Z</time></trkpt><trkpt lat="44.345297" lon="8.4700853"><ele>393.0</ele><time>2026-04-30T10:18:20.947Z</time></trkpt><trkpt lat="44.3452028" lon="8.4701363"><ele>393.0</ele><time>2026-04-30T10:18:21.945Z</time></trkpt><trkpt lat="44.3450958" lon="8.4701682"><ele>393.0</ele><time>2026-04-30T10:18:22.946Z</time></trkpt><trkpt lat="44.3449982" lon="8.4702073"><ele>393.0</ele><time>2026-04-30T10:18:23.957Z</time></trkpt><trkpt lat="44.3448992" lon="8.470269"><ele>393.0</ele><time>2026-04-30T10:18:24.943Z</time></trkpt><trkpt lat="44.3448132" lon="8.470346"><ele>393.0</ele><time>2026-04-30T10:18:25.945Z</time></trkpt><trkpt lat="44.3447382" lon="8.4704688"><ele>393.0</ele><time>2026-04-30T10:18:26.944Z</time></trkpt><trkpt lat="44.34468" lon="8.4705957"><ele>393.0</ele><time>2026-04-30T10:18:27.948Z</time></trkpt><trkpt lat="44.3446222" lon="8.4707035"><ele>393.59999999999997</ele><time>2026-04-30T10:18:28.948Z</time></trkpt><trkpt lat="44.3445652" lon="8.4707822"><ele>394.2</ele><time>2026-04-30T10:18:29.949Z</time></trkpt><trkpt lat="44.344492" lon="8.4708647"><ele>394.8</ele><time>2026-04-30T10:18:30.947Z</time></trkpt><trkpt lat="44.3444045" lon="8.4709512"><ele>395.4</ele><time>2026-04-30T10:18:31.946Z</time></trkpt><trkpt lat="44.344308" lon="8.471053"><ele>396.0</ele><time>2026-04-30T10:18:32.947Z</time></trkpt><trkpt lat="44.3442028" lon="8.4711522"><ele>396.0</ele><time>2026-04-30T10:18:33.943Z</time></trkpt><trkpt lat="44.344103" lon="8.4712617"><ele>396.0</ele><time>2026-04-30T10:18:34.948Z</time></trkpt><trkpt lat="44.3440088" lon="8.4713903"><ele>396.0</ele><time>2026-04-30T10:18:35.944Z</time></trkpt><trkpt lat="44.343926" lon="8.4715303"><ele>396.0</ele><time>2026-04-30T10:18:36.946Z</time></trkpt><trkpt lat="44.3438483" lon="8.4716725"><ele>395.75</ele><time>2026-04-30T10:18:37.943Z</time></trkpt><trkpt lat="44.3437835" lon="8.471819"><ele>395.5</ele><time>2026-04-30T10:18:38.944Z</time></trkpt><trkpt lat="44.3437352" lon="8.4719757"><ele>395.25</ele><time>2026-04-30T10:18:39.946Z</time></trkpt><trkpt lat="44.3436905" lon="8.4721225"><ele>395.0</ele><time>2026-04-30T10:18:40.945Z</time></trkpt><trkpt lat="44.3436452" lon="8.4722703"><ele>394.99999999999994</ele><time>2026-04-30T10:18:41.948Z</time></trkpt><trkpt lat="44.3436095" lon="8.4724133"><ele>395.0</ele><time>2026-04-30T10:18:42.955Z</time></trkpt><trkpt lat="44.3435923" lon="8.4725367"><ele>395.0</ele><time>2026-04-30T10:18:43.943Z</time></trkpt><trkpt lat="44.3435868" lon="8.4726428"><ele>395.0</ele><time>2026-04-30T10:18:44.948Z</time></trkpt><trkpt lat="44.3436115" lon="8.4727563"><ele>394.99999999999994</ele><time>2026-04-30T10:18:45.948Z</time></trkpt><trkpt lat="44.3436343" lon="8.4728623"><ele>395.0</ele><time>2026-04-30T10:18:46.947Z</time></trkpt><trkpt lat="44.3436658" lon="8.4729793"><ele>390.99999999999994</ele><time>2026-04-30T10:18:47.949Z</time></trkpt><trkpt lat="44.3436892" lon="8.4730918"><ele>387.0</ele><time>2026-04-30T10:18:48.944Z</time></trkpt><trkpt lat="44.3437173" lon="8.4732032"><ele>383.0</ele><time>2026-04-30T10:18:49.949Z</time></trkpt><trkpt lat="44.3437362" lon="8.4732915"><ele>379.0</ele><time>2026-04-30T10:18:50.944Z</time></trkpt><trkpt lat="44.3436462" lon="8.4732913"><ele>375.0</ele><time>2026-04-30T10:18:53.948Z</time></trkpt><trkpt lat="44.343591" lon="8.4732067"><ele>371.0</ele><time>2026-04-30T10:18:54.944Z</time></trkpt><trkpt lat="44.343525" lon="8.4731188"><ele>371.0</ele><time>2026-04-30T10:18:55.948Z</time></trkpt><trkpt lat="44.343455" lon="8.4730567"><ele>371.0</ele><time>2026-04-30T10:18:56.944Z</time></trkpt><trkpt lat="44.3433675" lon="8.473026"><ele>371.0</ele><time>2026-04-30T10:18:57.947Z</time></trkpt><trkpt lat="44.3432793" lon="8.473006"><ele>371.0</ele><time>2026-04-30T10:18:58.945Z</time></trkpt><trkpt lat="44.3431865" lon="8.4730065"><ele>371.0</ele><time>2026-04-30T10:18:59.944Z</time></trkpt><trkpt lat="44.3430885" lon="8.4730097"><ele>369.8</ele><time>2026-04-30T10:19:00.947Z</time></trkpt><trkpt lat="44.3429887" lon="8.4730132"><ele>368.6</ele><time>2026-04-30T10:19:01.943Z</time></trkpt><trkpt lat="44.3428908" lon="8.4730413"><ele>367.4</ele><time>2026-04-30T10:19:02.949Z</time></trkpt><trkpt lat="44.3427905" lon="8.4730883"><ele>366.2</ele><time>2026-04-30T10:19:03.946Z</time></trkpt><trkpt lat="44.3426877" lon="8.4731363"><ele>365.0</ele><time>2026-04-30T10:19:04.946Z</time></trkpt><trkpt lat="44.3425903" lon="8.4732088"><ele>365.0</ele><time>2026-04-30T10:19:05.95Z</time></trkpt><trkpt lat="44.342493" lon="8.4732752"><ele>365.0</ele><time>2026-04-30T10:19:06.943Z</time></trkpt><trkpt lat="44.3423927" lon="8.4733285"><ele>365.0</ele><time>2026-04-30T10:19:07.948Z</time></trkpt><trkpt lat="44.3422908" lon="8.4733657"><ele>365.0</ele><time>2026-04-30T10:19:08.943Z</time></trkpt><trkpt lat="44.3421927" lon="8.473368"><ele>365.0</ele><time>2026-04-30T10:19:09.949Z</time></trkpt><trkpt lat="44.3420887" lon="8.4733568"><ele>363.75</ele><time>2026-04-30T10:19:10.944Z</time></trkpt><trkpt lat="44.3419737" lon="8.4733233"><ele>362.5</ele><time>2026-04-30T10:19:11.945Z</time></trkpt><trkpt lat="44.341856" lon="8.4732793"><ele>361.25</ele><time>2026-04-30T10:19:12.947Z</time></trkpt><trkpt lat="44.3417285" lon="8.4732353"><ele>360.0</ele><time>2026-04-30T10:19:13.949Z</time></trkpt><trkpt lat="44.3415938" lon="8.4731792"><ele>360.0</ele><time>2026-04-30T10:19:14.944Z</time></trkpt><trkpt lat="44.341471" lon="8.473118"><ele>360.0</ele><time>2026-04-30T10:19:15.948Z</time></trkpt><trkpt lat="44.3413563" lon="8.4730578"><ele>360.0</ele><time>2026-04-30T10:19:16.941Z</time></trkpt><trkpt lat="44.3412457" lon="8.4730177"><ele>360.0</ele><time>2026-04-30T10:19:17.946Z</time></trkpt><trkpt lat="44.341136" lon="8.472993"><ele>360.5</ele><time>2026-04-30T10:19:18.946Z</time></trkpt><trkpt lat="44.3410218" lon="8.4730067"><ele>361.0</ele><time>2026-04-30T10:19:19.944Z</time></trkpt><trkpt lat="44.340904" lon="8.473053"><ele>361.5</ele><time>2026-04-30T10:19:20.948Z</time></trkpt><trkpt lat="44.3407842" lon="8.473082"><ele>362.0</ele><time>2026-04-30T10:19:21.943Z</time></trkpt><trkpt lat="44.3406608" lon="8.4731035"><ele>362.75</ele><time>2026-04-30T10:19:22.948Z</time></trkpt><trkpt lat="44.3405352" lon="8.4731327"><ele>363.5</ele><time>2026-04-30T10:19:23.944Z</time></trkpt><trkpt lat="44.3404052" lon="8.4731788"><ele>364.25</ele><time>2026-04-30T10:19:24.95Z</time></trkpt><trkpt lat="44.3402682" lon="8.4732323"><ele>365.0</ele><time>2026-04-30T10:19:25.942Z</time></trkpt><trkpt lat="44.3401393" lon="8.473277"><ele>365.0</ele><time>2026-04-30T10:19:26.945Z</time></trkpt><trkpt lat="44.3400168" lon="8.4733277"><ele>365.0</ele><time>2026-04-30T10:19:27.942Z</time></trkpt><trkpt lat="44.3399038" lon="8.4733963"><ele>365.0</ele><time>2026-04-30T10:19:28.946Z</time></trkpt><trkpt lat="44.33979" lon="8.4734735"><ele>365.0</ele><time>2026-04-30T10:19:29.946Z</time></trkpt><trkpt lat="44.3396802" lon="8.4735533"><ele>360.75</ele><time>2026-04-30T10:19:30.943Z</time></trkpt><trkpt lat="44.339597" lon="8.4736822"><ele>356.5</ele><time>2026-04-30T10:19:31.949Z</time></trkpt><trkpt lat="44.3395263" lon="8.4738612"><ele>352.25</ele><time>2026-04-30T10:19:32.946Z</time></trkpt><trkpt lat="44.3394652" lon="8.474016"><ele>348.0</ele><time>2026-04-30T10:19:33.943Z</time></trkpt><trkpt lat="44.339402" lon="8.4741637"><ele>348.0</ele><time>2026-04-30T10:19:34.949Z</time></trkpt><trkpt lat="44.3393372" lon="8.4742872"><ele>348.0</ele><time>2026-04-30T10:19:35.943Z</time></trkpt><trkpt lat="44.3392857" lon="8.4743795"><ele>348.0</ele><time>2026-04-30T10:19:36.949Z</time></trkpt><trkpt lat="44.3392397" lon="8.4744415"><ele>348.0</ele><time>2026-04-30T10:19:37.943Z</time></trkpt><trkpt lat="44.3391725" lon="8.4744815"><ele>348.0</ele><time>2026-04-30T10:19:38.945Z</time></trkpt><trkpt lat="44.339096" lon="8.4745318"><ele>348.0</ele><time>2026-04-30T10:19:39.947Z</time></trkpt><trkpt lat="44.3390167" lon="8.4746088"><ele>346.75</ele><time>2026-04-30T10:19:40.946Z</time></trkpt><trkpt lat="44.3389367" lon="8.474709"><ele>345.5</ele><time>2026-04-30T10:19:41.945Z</time></trkpt><trkpt lat="44.3388498" lon="8.4748352"><ele>344.25</ele><time>2026-04-30T10:19:42.948Z</time></trkpt><trkpt lat="44.3387687" lon="8.4749735"><ele>343.0</ele><time>2026-04-30T10:19:43.948Z</time></trkpt><trkpt lat="44.3386913" lon="8.4751042"><ele>345.0</ele><time>2026-04-30T10:19:44.943Z</time></trkpt><trkpt lat="44.3386293" lon="8.4752358"><ele>347.0</ele><time>2026-04-30T10:19:45.946Z</time></trkpt><trkpt lat="44.3385655" lon="8.4753682"><ele>349.0</ele><time>2026-04-30T10:19:46.946Z</time></trkpt><trkpt lat="44.3385487" lon="8.475538"><ele>351.0</ele><time>2026-04-30T10:19:47.945Z</time></trkpt><trkpt lat="44.3385462" lon="8.4757108"><ele>351.0</ele><time>2026-04-30T10:19:48.946Z</time></trkpt><trkpt lat="44.3385355" lon="8.4758798"><ele>351.0</ele><time>2026-04-30T10:19:49.947Z</time></trkpt><trkpt lat="44.3385272" lon="8.4760493"><ele>351.0</ele><time>2026-04-30T10:19:50.945Z</time></trkpt><trkpt lat="44.3385267" lon="8.4762095"><ele>351.0</ele><time>2026-04-30T10:19:51.951Z</time></trkpt><trkpt lat="44.3385338" lon="8.4763643"><ele>348.4</ele><time>2026-04-30T10:19:52.946Z</time></trkpt><trkpt lat="44.3385437" lon="8.4765033"><ele>345.8</ele><time>2026-04-30T10:19:53.949Z</time></trkpt><trkpt lat="44.3385535" lon="8.4766458"><ele>343.2</ele><time>2026-04-30T10:19:54.945Z</time></trkpt><trkpt lat="44.338554" lon="8.4767818"><ele>340.59999999999997</ele><time>2026-04-30T10:19:55.946Z</time></trkpt><trkpt lat="44.338542" lon="8.4769272"><ele>338.0</ele><time>2026-04-30T10:19:56.946Z</time></trkpt><trkpt lat="44.3385262" lon="8.4770732"><ele>336.59999999999997</ele><time>2026-04-30T10:19:57.946Z</time></trkpt><trkpt lat="44.3384918" lon="8.4772053"><ele>335.2</ele><time>2026-04-30T10:19:58.949Z</time></trkpt><trkpt lat="44.3384597" lon="8.4773515"><ele>333.8</ele><time>2026-04-30T10:19:59.945Z</time></trkpt><trkpt lat="44.3384313" lon="8.4774913"><ele>332.4</ele><time>2026-04-30T10:20:00.948Z</time></trkpt><trkpt lat="44.3383755" lon="8.4776063"><ele>331.0</ele><time>2026-04-30T10:20:01.945Z</time></trkpt><trkpt lat="44.338298" lon="8.4777068"><ele>331.0</ele><time>2026-04-30T10:20:02.949Z</time></trkpt><trkpt lat="44.3382067" lon="8.477798"><ele>331.0</ele><time>2026-04-30T10:20:03.944Z</time></trkpt><trkpt lat="44.3381157" lon="8.4778947"><ele>331.0</ele><time>2026-04-30T10:20:04.949Z</time></trkpt><trkpt lat="44.3380398" lon="8.4780005"><ele>331.0</ele><time>2026-04-30T10:20:05.943Z</time></trkpt><trkpt lat="44.337962" lon="8.478125"><ele>325.5</ele><time>2026-04-30T10:20:06.947Z</time></trkpt><trkpt lat="44.3378758" lon="8.478244"><ele>320.0</ele><time>2026-04-30T10:20:07.942Z</time></trkpt><trkpt lat="44.3377768" lon="8.4783535"><ele>314.5</ele><time>2026-04-30T10:20:08.952Z</time></trkpt><trkpt lat="44.3376707" lon="8.4784542"><ele>309.0</ele><time>2026-04-30T10:20:09.944Z</time></trkpt><trkpt lat="44.3375542" lon="8.4785363"><ele>309.0</ele><time>2026-04-30T10:20:10.948Z</time></trkpt><trkpt lat="44.3374438" lon="8.4786168"><ele>309.0</ele><time>2026-04-30T10:20:11.946Z</time></trkpt><trkpt lat="44.3373317" lon="8.4786868"><ele>309.0</ele><time>2026-04-30T10:20:12.947Z</time></trkpt><trkpt lat="44.337219" lon="8.4787552"><ele>309.0</ele><time>2026-04-30T10:20:13.952Z</time></trkpt><trkpt lat="44.3371065" lon="8.4788273"><ele>306.25</ele><time>2026-04-30T10:20:14.943Z</time></trkpt><trkpt lat="44.3369902" lon="8.4788923"><ele>303.5</ele><time>2026-04-30T10:20:15.948Z</time></trkpt><trkpt lat="44.3368733" lon="8.4789637"><ele>300.75</ele><time>2026-04-30T10:20:16.944Z</time></trkpt><trkpt lat="44.3367612" lon="8.479041"><ele>298.0</ele><time>2026-04-30T10:20:17.947Z</time></trkpt><trkpt lat="44.3366533" lon="8.4791418"><ele>298.0</ele><time>2026-04-30T10:20:18.945Z</time></trkpt><trkpt lat="44.3365572" lon="8.4792548"><ele>298.0</ele><time>2026-04-30T10:20:19.943Z</time></trkpt><trkpt lat="44.336457" lon="8.4793695"><ele>298.0</ele><time>2026-04-30T10:20:20.947Z</time></trkpt><trkpt lat="44.3363528" lon="8.4794983"><ele>298.0</ele><time>2026-04-30T10:20:21.943Z</time></trkpt><trkpt lat="44.3362443" lon="8.4796155"><ele>294.0</ele><time>2026-04-30T10:20:22.943Z</time></trkpt><trkpt lat="44.3361388" lon="8.4797407"><ele>290.0</ele><time>2026-04-30T10:20:23.943Z</time></trkpt><trkpt lat="44.3360292" lon="8.4798575"><ele>286.0</ele><time>2026-04-30T10:20:24.946Z</time></trkpt><trkpt lat="44.3359142" lon="8.4799143"><ele>282.0</ele><time>2026-04-30T10:20:25.942Z</time></trkpt><trkpt lat="44.33579" lon="8.4799435"><ele>282.0</ele><time>2026-04-30T10:20:26.945Z</time></trkpt><trkpt lat="44.3356522" lon="8.4799468"><ele>282.0</ele><time>2026-04-30T10:20:27.943Z</time></trkpt><trkpt lat="44.3355298" lon="8.479953"><ele>282.0</ele><time>2026-04-30T10:20:28.943Z</time></trkpt><trkpt lat="44.3354313" lon="8.4799858"><ele>282.0</ele><time>2026-04-30T10:20:29.944Z</time></trkpt><trkpt lat="44.3353393" lon="8.4800375"><ele>277.6</ele><time>2026-04-30T10:20:30.943Z</time></trkpt><trkpt lat="44.3352525" lon="8.4801177"><ele>273.2</ele><time>2026-04-30T10:20:31.944Z</time></trkpt><trkpt lat="44.3351698" lon="8.480199"><ele>268.8</ele><time>2026-04-30T10:20:32.945Z</time></trkpt><trkpt lat="44.3351073" lon="8.48031"><ele>264.4</ele><time>2026-04-30T10:20:33.942Z</time></trkpt><trkpt lat="44.335061" lon="8.48045"><ele>260.0</ele><time>2026-04-30T10:20:34.943Z</time></trkpt><trkpt lat="44.3350097" lon="8.4805915"><ele>260.0</ele><time>2026-04-30T10:20:35.946Z</time></trkpt><trkpt lat="44.3349405" lon="8.4807317"><ele>260.0</ele><time>2026-04-30T10:20:36.944Z</time></trkpt><trkpt lat="44.334852" lon="8.4808363"><ele>260.0</ele><time>2026-04-30T10:20:37.945Z</time></trkpt><trkpt lat="44.3347502" lon="8.4809163"><ele>260.0</ele><time>2026-04-30T10:20:38.945Z</time></trkpt><trkpt lat="44.3346517" lon="8.4810018"><ele>258.2</ele><time>2026-04-30T10:20:39.944Z</time></trkpt><trkpt lat="44.334569" lon="8.4811092"><ele>256.4</ele><time>2026-04-30T10:20:40.944Z</time></trkpt><trkpt lat="44.3344932" lon="8.4812203"><ele>254.60000000000002</ele><time>2026-04-30T10:20:41.957Z</time></trkpt><trkpt lat="44.3344155" lon="8.4813137"><ele>252.8</ele><time>2026-04-30T10:20:42.945Z</time></trkpt><trkpt lat="44.334345" lon="8.4813632"><ele>251.0</ele><time>2026-04-30T10:20:43.948Z</time></trkpt><trkpt lat="44.3342832" lon="8.4813935"><ele>251.0</ele><time>2026-04-30T10:20:44.945Z</time></trkpt><trkpt lat="44.3342147" lon="8.4814365"><ele>251.00000000000003</ele><time>2026-04-30T10:20:46.948Z</time></trkpt><trkpt lat="44.334284" lon="8.481485"><ele>251.00000000000003</ele><time>2026-04-30T10:20:48.949Z</time></trkpt><trkpt lat="44.3344143" lon="8.4814188"><ele>251.0</ele><time>2026-04-30T10:20:50.946Z</time></trkpt><trkpt lat="44.3344902" lon="8.4813933"><ele>251.0</ele><time>2026-04-30T10:20:51.949Z</time></trkpt><trkpt lat="44.3345732" lon="8.481366"><ele>251.0</ele><time>2026-04-30T10:20:52.942Z</time></trkpt><trkpt lat="44.3346637" lon="8.4813417"><ele>251.00000000000003</ele><time>2026-04-30T10:20:53.95Z</time></trkpt><trkpt lat="44.3347543" lon="8.4813023"><ele>251.00000000000003</ele><time>2026-04-30T10:20:54.942Z</time></trkpt><trkpt lat="44.33485" lon="8.4812675"><ele>251.0</ele><time>2026-04-30T10:20:55.949Z</time></trkpt><trkpt lat="44.3349565" lon="8.4812373"><ele>251.0</ele><time>2026-04-30T10:20:56.945Z</time></trkpt><trkpt lat="44.3350662" lon="8.4812353"><ele>250.0</ele><time>2026-04-30T10:20:57.947Z</time></trkpt><trkpt lat="44.3351738" lon="8.4812573"><ele>249.00000000000003</ele><time>2026-04-30T10:20:58.947Z</time></trkpt><trkpt lat="44.3352778" lon="8.481297"><ele>248.00000000000003</ele><time>2026-04-30T10:20:59.945Z</time></trkpt><trkpt lat="44.3353795" lon="8.4813792"><ele>247.0</ele><time>2026-04-30T10:21:00.943Z</time></trkpt><trkpt lat="44.3354557" lon="8.4814987"><ele>246.0</ele><time>2026-04-30T10:21:01.949Z</time></trkpt><trkpt lat="44.3355283" lon="8.4815945"><ele>247.83333333333334</ele><time>2026-04-30T10:21:02.951Z</time></trkpt><trkpt lat="44.3355998" lon="8.4816762"><ele>249.66666666666669</ele><time>2026-04-30T10:21:03.942Z</time></trkpt><trkpt lat="44.335668" lon="8.4817503"><ele>251.5</ele><time>2026-04-30T10:21:04.948Z</time></trkpt><trkpt lat="44.3357438" lon="8.48182"><ele>253.33333333333334</ele><time>2026-04-30T10:21:05.945Z</time></trkpt><trkpt lat="44.3358245" lon="8.4818672"><ele>255.16666666666669</ele><time>2026-04-30T10:21:06.944Z</time></trkpt><trkpt lat="44.3359015" lon="8.481913"><ele>257.0</ele><time>2026-04-30T10:21:07.949Z</time></trkpt><trkpt lat="44.3359852" lon="8.481976"><ele>257.0</ele><time>2026-04-30T10:21:08.951Z</time></trkpt><trkpt lat="44.3360675" lon="8.4820587"><ele>257.0</ele><time>2026-04-30T10:21:09.948Z</time></trkpt><trkpt lat="44.3361402" lon="8.482156"><ele>257.0</ele><time>2026-04-30T10:21:10.943Z</time></trkpt><trkpt lat="44.336204" lon="8.4822627"><ele>257.0</ele><time>2026-04-30T10:21:11.943Z</time></trkpt><trkpt lat="44.3362552" lon="8.4823605"><ele>257.0</ele><time>2026-04-30T10:21:12.944Z</time></trkpt><trkpt lat="44.3362958" lon="8.4824642"><ele>253.0</ele><time>2026-04-30T10:21:13.943Z</time></trkpt><trkpt lat="44.3363062" lon="8.482581"><ele>249.0</ele><time>2026-04-30T10:21:14.943Z</time></trkpt><trkpt lat="44.336303" lon="8.4827128"><ele>245.0</ele><time>2026-04-30T10:21:15.945Z</time></trkpt><trkpt lat="44.33628" lon="8.482859"><ele>241.0</ele><time>2026-04-30T10:21:16.945Z</time></trkpt><trkpt lat="44.3362457" lon="8.4830055"><ele>237.0</ele><time>2026-04-30T10:21:17.947Z</time></trkpt><trkpt lat="44.336217" lon="8.483155"><ele>234.0</ele><time>2026-04-30T10:21:18.943Z</time></trkpt><trkpt lat="44.336189" lon="8.4832935"><ele>231.0</ele><time>2026-04-30T10:21:19.941Z</time></trkpt><trkpt lat="44.3361917" lon="8.4834167"><ele>228.0</ele><time>2026-04-30T10:21:20.95Z</time></trkpt><trkpt lat="44.336224" lon="8.4835232"><ele>225.0</ele><time>2026-04-30T10:21:21.944Z</time></trkpt><trkpt lat="44.3362887" lon="8.4836048"><ele>222.0</ele><time>2026-04-30T10:21:22.947Z</time></trkpt><trkpt lat="44.3363748" lon="8.48367"><ele>222.5</ele><time>2026-04-30T10:21:23.948Z</time></trkpt><trkpt lat="44.3364512" lon="8.4837257"><ele>223.0</ele><time>2026-04-30T10:21:24.961Z</time></trkpt><trkpt lat="44.3365258" lon="8.4837837"><ele>223.5</ele><time>2026-04-30T10:21:25.955Z</time></trkpt><trkpt lat="44.3366012" lon="8.4838538"><ele>224.0</ele><time>2026-04-30T10:21:26.951Z</time></trkpt><trkpt lat="44.336672" lon="8.4839307"><ele>224.5</ele><time>2026-04-30T10:21:27.935Z</time></trkpt><trkpt lat="44.3367243" lon="8.4840207"><ele>225.0</ele><time>2026-04-30T10:21:28.946Z</time></trkpt><trkpt lat="44.3367625" lon="8.4841365"><ele>225.0</ele><time>2026-04-30T10:21:29.956Z</time></trkpt><trkpt lat="44.3367812" lon="8.4842593"><ele>225.0</ele><time>2026-04-30T10:21:30.95Z</time></trkpt><trkpt lat="44.3367762" lon="8.4843963"><ele>225.0</ele><time>2026-04-30T10:21:31.949Z</time></trkpt><trkpt lat="44.3367432" lon="8.484551"><ele>225.0</ele><time>2026-04-30T10:21:32.948Z</time></trkpt><trkpt lat="44.33671" lon="8.4847068"><ele>225.0</ele><time>2026-04-30T10:21:33.944Z</time></trkpt><trkpt lat="44.3366773" lon="8.4848752"><ele>221.0</ele><time>2026-04-30T10:21:34.945Z</time></trkpt><trkpt lat="44.3366487" lon="8.4850498"><ele>217.0</ele><time>2026-04-30T10:21:35.946Z</time></trkpt><trkpt lat="44.3366183" lon="8.4852127"><ele>213.0</ele><time>2026-04-30T10:21:36.948Z</time></trkpt><trkpt lat="44.3365865" lon="8.4853657"><ele>209.0</ele><time>2026-04-30T10:21:37.944Z</time></trkpt><trkpt lat="44.3365668" lon="8.4855212"><ele>206.5</ele><time>2026-04-30T10:21:38.946Z</time></trkpt><trkpt lat="44.3365525" lon="8.485685"><ele>204.0</ele><time>2026-04-30T10:21:39.945Z</time></trkpt><trkpt lat="44.3365415" lon="8.4858543"><ele>201.5</ele><time>2026-04-30T10:21:40.945Z</time></trkpt><trkpt lat="44.3365388" lon="8.4860233"><ele>199.0</ele><time>2026-04-30T10:21:41.943Z</time></trkpt><trkpt lat="44.336563" lon="8.4861942"><ele>196.75</ele><time>2026-04-30T10:21:42.944Z</time></trkpt><trkpt lat="44.3366135" lon="8.4863577"><ele>194.5</ele><time>2026-04-30T10:21:43.944Z</time></trkpt><trkpt lat="44.336668" lon="8.4865088"><ele>192.25</ele><time>2026-04-30T10:21:44.945Z</time></trkpt><trkpt lat="44.3367222" lon="8.4866555"><ele>190.0</ele><time>2026-04-30T10:21:45.944Z</time></trkpt><trkpt lat="44.3367597" lon="8.4867913"><ele>190.0</ele><time>2026-04-30T10:21:46.955Z</time></trkpt><trkpt lat="44.3367902" lon="8.4869438"><ele>190.0</ele><time>2026-04-30T10:21:47.943Z</time></trkpt><trkpt lat="44.3368177" lon="8.487099"><ele>190.0</ele><time>2026-04-30T10:21:48.947Z</time></trkpt><trkpt lat="44.336841" lon="8.4872555"><ele>190.0</ele><time>2026-04-30T10:21:49.944Z</time></trkpt><trkpt lat="44.3368718" lon="8.4874028"><ele>188.0</ele><time>2026-04-30T10:21:50.943Z</time></trkpt><trkpt lat="44.3368963" lon="8.4875432"><ele>186.0</ele><time>2026-04-30T10:21:51.948Z</time></trkpt><trkpt lat="44.3369195" lon="8.4876775"><ele>184.0</ele><time>2026-04-30T10:21:52.943Z</time></trkpt><trkpt lat="44.336929" lon="8.487811"><ele>182.0</ele><time>2026-04-30T10:21:53.947Z</time></trkpt><trkpt lat="44.3369407" lon="8.487947"><ele>180.0</ele><time>2026-04-30T10:21:54.947Z</time></trkpt><trkpt lat="44.3369643" lon="8.4880908"><ele>179.6</ele><time>2026-04-30T10:21:55.944Z</time></trkpt><trkpt lat="44.3369793" lon="8.4882382"><ele>179.2</ele><time>2026-04-30T10:21:56.948Z</time></trkpt><trkpt lat="44.3369832" lon="8.488385"><ele>178.8</ele><time>2026-04-30T10:21:57.947Z</time></trkpt><trkpt lat="44.3369678" lon="8.4885313"><ele>178.4</ele><time>2026-04-30T10:21:58.947Z</time></trkpt><trkpt lat="44.3369438" lon="8.4886828"><ele>178.0</ele><time>2026-04-30T10:21:59.945Z</time></trkpt><trkpt lat="44.3369243" lon="8.4888402"><ele>177.5</ele><time>2026-04-30T10:22:00.945Z</time></trkpt><trkpt lat="44.336924" lon="8.4890002"><ele>177.0</ele><time>2026-04-30T10:22:01.946Z</time></trkpt><trkpt lat="44.3369428" lon="8.489155"><ele>176.5</ele><time>2026-04-30T10:22:02.947Z</time></trkpt><trkpt lat="44.336959" lon="8.4893132"><ele>176.0</ele><time>2026-04-30T10:22:03.946Z</time></trkpt><trkpt lat="44.3369788" lon="8.4894707"><ele>172.0</ele><time>2026-04-30T10:22:04.947Z</time></trkpt><trkpt lat="44.3370042" lon="8.4896317"><ele>168.0</ele><time>2026-04-30T10:22:05.951Z</time></trkpt><trkpt lat="44.3370282" lon="8.4897987"><ele>164.0</ele><time>2026-04-30T10:22:06.946Z</time></trkpt><trkpt lat="44.3370547" lon="8.4899432"><ele>160.0</ele><time>2026-04-30T10:22:07.947Z</time></trkpt><trkpt lat="44.3370722" lon="8.4900853"><ele>160.0</ele><time>2026-04-30T10:22:08.945Z</time></trkpt><trkpt lat="44.3370787" lon="8.490228"><ele>160.0</ele><time>2026-04-30T10:22:09.948Z</time></trkpt><trkpt lat="44.3370763" lon="8.490373"><ele>160.0</ele><time>2026-04-30T10:22:10.947Z</time></trkpt><trkpt lat="44.3370707" lon="8.4905155"><ele>160.0</ele><time>2026-04-30T10:22:11.946Z</time></trkpt><trkpt lat="44.337051" lon="8.4906387"><ele>160.0</ele><time>2026-04-30T10:22:12.948Z</time></trkpt><trkpt lat="44.3370132" lon="8.4907515"><ele>158.4</ele><time>2026-04-30T10:22:13.943Z</time></trkpt><trkpt lat="44.3369677" lon="8.4908837"><ele>156.8</ele><time>2026-04-30T10:22:14.948Z</time></trkpt><trkpt lat="44.3369327" lon="8.491017"><ele>155.2</ele><time>2026-04-30T10:22:15.947Z</time></trkpt><trkpt lat="44.3369112" lon="8.4911533"><ele>153.6</ele><time>2026-04-30T10:22:16.949Z</time></trkpt><trkpt lat="44.3368883" lon="8.4912862"><ele>152.0</ele><time>2026-04-30T10:22:17.946Z</time></trkpt><trkpt lat="44.3368742" lon="8.4914082"><ele>149.4</ele><time>2026-04-30T10:22:18.948Z</time></trkpt><trkpt lat="44.3368878" lon="8.4915323"><ele>146.79999999999998</ele><time>2026-04-30T10:22:19.95Z</time></trkpt><trkpt lat="44.3369273" lon="8.4916673"><ele>144.2</ele><time>2026-04-30T10:22:20.947Z</time></trkpt><trkpt lat="44.3369652" lon="8.4918122"><ele>141.6</ele><time>2026-04-30T10:22:21.944Z</time></trkpt><trkpt lat="44.3370075" lon="8.491974"><ele>139.0</ele><time>2026-04-30T10:22:22.949Z</time></trkpt><trkpt lat="44.3370547" lon="8.4921373"><ele>134.75</ele><time>2026-04-30T10:22:23.95Z</time></trkpt><trkpt lat="44.3371142" lon="8.4922947"><ele>130.5</ele><time>2026-04-30T10:22:24.946Z</time></trkpt><trkpt lat="44.3371593" lon="8.4924497"><ele>126.25</ele><time>2026-04-30T10:22:25.95Z</time></trkpt><trkpt lat="44.3371843" lon="8.4926037"><ele>122.0</ele><time>2026-04-30T10:22:26.951Z</time></trkpt><trkpt lat="44.337195" lon="8.4927493"><ele>121.99999999999999</ele><time>2026-04-30T10:22:27.943Z</time></trkpt><trkpt lat="44.337172" lon="8.4928908"><ele>122.0</ele><time>2026-04-30T10:22:28.945Z</time></trkpt><trkpt lat="44.337131" lon="8.493016"><ele>122.0</ele><time>2026-04-30T10:22:29.954Z</time></trkpt><trkpt lat="44.3370828" lon="8.4931182"><ele>122.0</ele><time>2026-04-30T10:22:30.944Z</time></trkpt><trkpt lat="44.3370242" lon="8.4931715"><ele>121.99999999999999</ele><time>2026-04-30T10:22:31.943Z</time></trkpt><trkpt lat="44.3369508" lon="8.4931738"><ele>122.0</ele><time>2026-04-30T10:22:32.943Z</time></trkpt><trkpt lat="44.3368787" lon="8.493131"><ele>122.0</ele><time>2026-04-30T10:22:33.944Z</time></trkpt><trkpt lat="44.336805" lon="8.4930323"><ele>121.99999999999999</ele><time>2026-04-30T10:22:34.945Z</time></trkpt><trkpt lat="44.3367263" lon="8.4929443"><ele>121.99999999999999</ele><time>2026-04-30T10:22:35.946Z</time></trkpt><trkpt lat="44.3366432" lon="8.4929132"><ele>122.0</ele><time>2026-04-30T10:22:36.948Z</time></trkpt><trkpt lat="44.3365497" lon="8.4929442"><ele>122.0</ele><time>2026-04-30T10:22:37.943Z</time></trkpt><trkpt lat="44.3364542" lon="8.492974"><ele>117.19999999999999</ele><time>2026-04-30T10:22:38.945Z</time></trkpt><trkpt lat="44.3363588" lon="8.49299"><ele>112.39999999999999</ele><time>2026-04-30T10:22:39.947Z</time></trkpt><trkpt lat="44.3362625" lon="8.493004"><ele>107.6</ele><time>2026-04-30T10:22:40.948Z</time></trkpt><trkpt lat="44.3361662" lon="8.4930178"><ele>102.80000000000001</ele><time>2026-04-30T10:22:41.944Z</time></trkpt><trkpt lat="44.3360698" lon="8.4930555"><ele>98.0</ele><time>2026-04-30T10:22:42.947Z</time></trkpt><trkpt lat="44.3359755" lon="8.4930798"><ele>98.0</ele><time>2026-04-30T10:22:43.952Z</time></trkpt><trkpt lat="44.3358882" lon="8.4931115"><ele>98.0</ele><time>2026-04-30T10:22:44.951Z</time></trkpt><trkpt lat="44.33581" lon="8.493176"><ele>98.0</ele><time>2026-04-30T10:22:45.948Z</time></trkpt><trkpt lat="44.3357445" lon="8.4932785"><ele>98.0</ele><time>2026-04-30T10:22:46.949Z</time></trkpt><trkpt lat="44.3356903" lon="8.4933963"><ele>98.0</ele><time>2026-04-30T10:22:47.947Z</time></trkpt><trkpt lat="44.3356435" lon="8.4935288"><ele>98.0</ele><time>2026-04-30T10:22:48.944Z</time></trkpt><trkpt lat="44.3355962" lon="8.4936705"><ele>98.0</ele><time>2026-04-30T10:22:49.949Z</time></trkpt><trkpt lat="44.335554" lon="8.4938233"><ele>98.0</ele><time>2026-04-30T10:22:50.945Z</time></trkpt><trkpt lat="44.3354988" lon="8.4939685"><ele>98.0</ele><time>2026-04-30T10:22:51.951Z</time></trkpt><trkpt lat="44.3354335" lon="8.4941097"><ele>99.5</ele><time>2026-04-30T10:22:52.946Z</time></trkpt><trkpt lat="44.3353585" lon="8.4942362"><ele>101.0</ele><time>2026-04-30T10:22:53.95Z</time></trkpt><trkpt lat="44.3352742" lon="8.4943525"><ele>102.5</ele><time>2026-04-30T10:22:54.946Z</time></trkpt><trkpt lat="44.3351877" lon="8.4944433"><ele>104.0</ele><time>2026-04-30T10:22:55.947Z</time></trkpt><trkpt lat="44.3350915" lon="8.4945213"><ele>105.80000000000001</ele><time>2026-04-30T10:22:56.946Z</time></trkpt><trkpt lat="44.3350067" lon="8.4946125"><ele>107.60000000000001</ele><time>2026-04-30T10:22:57.95Z</time></trkpt><trkpt lat="44.3349492" lon="8.494736"><ele>109.4</ele><time>2026-04-30T10:22:58.947Z</time></trkpt><trkpt lat="44.3349082" lon="8.494862"><ele>111.2</ele><time>2026-04-30T10:22:59.946Z</time></trkpt><trkpt lat="44.3348733" lon="8.4949877"><ele>113.0</ele><time>2026-04-30T10:23:00.942Z</time></trkpt><trkpt lat="44.3348363" lon="8.495105"><ele>112.99999999999999</ele><time>2026-04-30T10:23:01.945Z</time></trkpt><trkpt lat="44.334784" lon="8.4951905"><ele>113.0</ele><time>2026-04-30T10:23:02.948Z</time></trkpt><trkpt lat="44.3347283" lon="8.4952635"><ele>113.0</ele><time>2026-04-30T10:23:03.944Z</time></trkpt><trkpt lat="44.3346638" lon="8.4953218"><ele>113.0</ele><time>2026-04-30T10:23:04.947Z</time></trkpt><trkpt lat="44.3345952" lon="8.4953665"><ele>112.99999999999999</ele><time>2026-04-30T10:23:05.95Z</time></trkpt><trkpt lat="44.3345247" lon="8.4954015"><ele>113.0</ele><time>2026-04-30T10:23:06.944Z</time></trkpt><trkpt lat="44.3344543" lon="8.4954375"><ele>112.49999999999999</ele><time>2026-04-30T10:23:07.949Z</time></trkpt><trkpt lat="44.3343823" lon="8.4954725"><ele>112.0</ele><time>2026-04-30T10:23:08.945Z</time></trkpt><trkpt lat="44.3343157" lon="8.4955222"><ele>111.5</ele><time>2026-04-30T10:23:09.947Z</time></trkpt><trkpt lat="44.3342535" lon="8.4955898"><ele>111.0</ele><time>2026-04-30T10:23:10.951Z</time></trkpt><trkpt lat="44.3342097" lon="8.495672"><ele>110.49999999999999</ele><time>2026-04-30T10:23:11.944Z</time></trkpt><trkpt lat="44.3341872" lon="8.4957847"><ele>110.0</ele><time>2026-04-30T10:23:12.946Z</time></trkpt><trkpt lat="44.3341582" lon="8.495898"><ele>110.0</ele><time>2026-04-30T10:23:13.949Z</time></trkpt><trkpt lat="44.3341272" lon="8.4960105"><ele>110.0</ele><time>2026-04-30T10:23:14.945Z</time></trkpt><trkpt lat="44.3340818" lon="8.4961275"><ele>110.0</ele><time>2026-04-30T10:23:15.949Z</time></trkpt><trkpt lat="44.3340253" lon="8.4962373"><ele>110.0</ele><time>2026-04-30T10:23:16.946Z</time></trkpt><trkpt lat="44.3339658" lon="8.4963412"><ele>110.0</ele><time>2026-04-30T10:23:17.948Z</time></trkpt><trkpt lat="44.3339053" lon="8.4964417"><ele>108.2</ele><time>2026-04-30T10:23:18.944Z</time></trkpt><trkpt lat="44.3338428" lon="8.4965463"><ele>106.4</ele><time>2026-04-30T10:23:19.949Z</time></trkpt><trkpt lat="44.3337903" lon="8.4966578"><ele>104.6</ele><time>2026-04-30T10:23:20.952Z</time></trkpt><trkpt lat="44.3337508" lon="8.496787"><ele>102.8</ele><time>2026-04-30T10:23:21.944Z</time></trkpt><trkpt lat="44.3337187" lon="8.4969318"><ele>101.0</ele><time>2026-04-30T10:23:22.949Z</time></trkpt><trkpt lat="44.3336747" lon="8.4970673"><ele>99.19999999999999</ele><time>2026-04-30T10:23:23.945Z</time></trkpt><trkpt lat="44.3336195" lon="8.4971862"><ele>97.39999999999999</ele><time>2026-04-30T10:23:24.948Z</time></trkpt><trkpt lat="44.3335563" lon="8.4973025"><ele>95.6</ele><time>2026-04-30T10:23:25.947Z</time></trkpt><trkpt lat="44.3334757" lon="8.4974048"><ele>93.8</ele><time>2026-04-30T10:23:26.948Z</time></trkpt><trkpt lat="44.3333912" lon="8.497506"><ele>92.0</ele><time>2026-04-30T10:23:27.947Z</time></trkpt><trkpt lat="44.3333182" lon="8.497624"><ele>92.0</ele><time>2026-04-30T10:23:28.945Z</time></trkpt><trkpt lat="44.3332538" lon="8.4977558"><ele>92.0</ele><time>2026-04-30T10:23:29.945Z</time></trkpt><trkpt lat="44.3331945" lon="8.497888"><ele>92.0</ele><time>2026-04-30T10:23:30.945Z</time></trkpt><trkpt lat="44.3331355" lon="8.4980212"><ele>92.0</ele><time>2026-04-30T10:23:31.945Z</time></trkpt><trkpt lat="44.333074" lon="8.4981552"><ele>87.25</ele><time>2026-04-30T10:23:32.944Z</time></trkpt><trkpt lat="44.3330198" lon="8.4982963"><ele>82.5</ele><time>2026-04-30T10:23:33.944Z</time></trkpt><trkpt lat="44.332974" lon="8.4984498"><ele>77.75</ele><time>2026-04-30T10:23:34.946Z</time></trkpt><trkpt lat="44.3329398" lon="8.4986117"><ele>73.0</ele><time>2026-04-30T10:23:35.945Z</time></trkpt><trkpt lat="44.3329155" lon="8.498778"><ele>73.0</ele><time>2026-04-30T10:23:36.943Z</time></trkpt><trkpt lat="44.3328947" lon="8.498938"><ele>73.0</ele><time>2026-04-30T10:23:37.957Z</time></trkpt><trkpt lat="44.3328705" lon="8.4990937"><ele>73.0</ele><time>2026-04-30T10:23:38.95Z</time></trkpt><trkpt lat="44.3328512" lon="8.499225"><ele>73.0</ele><time>2026-04-30T10:23:39.945Z</time></trkpt><trkpt lat="44.3328418" lon="8.49934"><ele>73.0</ele><time>2026-04-30T10:23:40.949Z</time></trkpt><trkpt lat="44.3328313" lon="8.499443"><ele>73.0</ele><time>2026-04-30T10:23:41.946Z</time></trkpt><trkpt lat="44.3328193" lon="8.4995438"><ele>73.0</ele><time>2026-04-30T10:23:42.947Z</time></trkpt><trkpt lat="44.3328218" lon="8.4997003"><ele>73.0</ele><time>2026-04-30T10:23:44.944Z</time></trkpt><trkpt lat="44.3328363" lon="8.4998075"><ele>73.0</ele><time>2026-04-30T10:24:13.944Z</time></trkpt><trkpt lat="44.3328372" lon="8.4999365"><ele>73.0</ele><time>2026-04-30T10:24:16.944Z</time></trkpt><trkpt lat="44.3328122" lon="8.5000638"><ele>71.33333333333333</ele><time>2026-04-30T10:24:18.946Z</time></trkpt><trkpt lat="44.3327402" lon="8.5001708"><ele>69.66666666666666</ele><time>2026-04-30T10:24:20.942Z</time></trkpt><trkpt lat="44.3326855" lon="8.5002622"><ele>68.0</ele><time>2026-04-30T10:24:22.942Z</time></trkpt><trkpt lat="44.332757" lon="8.5002935"><ele>66.33333333333333</ele><time>2026-04-30T10:24:24.947Z</time></trkpt><trkpt lat="44.3328202" lon="8.5002565"><ele>64.66666666666667</ele><time>2026-04-30T10:24:25.948Z</time></trkpt><trkpt lat="44.3329038" lon="8.5001688"><ele>63.0</ele><time>2026-04-30T10:24:26.944Z</time></trkpt><trkpt lat="44.3330015" lon="8.5000645"><ele>62.5</ele><time>2026-04-30T10:24:27.949Z</time></trkpt><trkpt lat="44.3330903" lon="8.4999355"><ele>62.0</ele><time>2026-04-30T10:24:28.944Z</time></trkpt><trkpt lat="44.3331642" lon="8.4997862"><ele>61.5</ele><time>2026-04-30T10:24:29.949Z</time></trkpt><trkpt lat="44.3332282" lon="8.4996393"><ele>61.0</ele><time>2026-04-30T10:24:30.943Z</time></trkpt><trkpt lat="44.3332745" lon="8.4995073"><ele>60.99999999999999</ele><time>2026-04-30T10:24:31.946Z</time></trkpt><trkpt lat="44.3333132" lon="8.4993857"><ele>61.0</ele><time>2026-04-30T10:24:32.944Z</time></trkpt><trkpt lat="44.3333485" lon="8.4992938"><ele>61.0</ele><time>2026-04-30T10:24:33.947Z</time></trkpt><trkpt lat="44.3334158" lon="8.4992605"><ele>61.0</ele><time>2026-04-30T10:24:34.947Z</time></trkpt><trkpt lat="44.3334828" lon="8.4992935"><ele>60.99999999999999</ele><time>2026-04-30T10:24:35.945Z</time></trkpt><trkpt lat="44.3335418" lon="8.4993858"><ele>61.0</ele><time>2026-04-30T10:24:36.943Z</time></trkpt><trkpt lat="44.3335752" lon="8.499499"><ele>58.4</ele><time>2026-04-30T10:24:37.949Z</time></trkpt><trkpt lat="44.3335908" lon="8.4996212"><ele>55.8</ele><time>2026-04-30T10:24:38.944Z</time></trkpt><trkpt lat="44.3336088" lon="8.4997668"><ele>53.199999999999996</ele><time>2026-04-30T10:24:39.948Z</time></trkpt><trkpt lat="44.3336285" lon="8.4999137"><ele>50.599999999999994</ele><time>2026-04-30T10:24:40.945Z</time></trkpt><trkpt lat="44.3336512" lon="8.500049"><ele>48.0</ele><time>2026-04-30T10:24:41.948Z</time></trkpt><trkpt lat="44.3336867" lon="8.5001755"><ele>48.0</ele><time>2026-04-30T10:24:42.943Z</time></trkpt><trkpt lat="44.3337462" lon="8.5002798"><ele>48.0</ele><time>2026-04-30T10:24:43.946Z</time></trkpt><trkpt lat="44.3338252" lon="8.5003573"><ele>48.0</ele><time>2026-04-30T10:24:44.944Z</time></trkpt><trkpt lat="44.3339285" lon="8.5003848"><ele>48.0</ele><time>2026-04-30T10:24:45.944Z</time></trkpt><trkpt lat="44.3340398" lon="8.5003967"><ele>48.0</ele><time>2026-04-30T10:24:46.948Z</time></trkpt><trkpt lat="44.3341442" lon="8.500429"><ele>44.6</ele><time>2026-04-30T10:24:47.944Z</time></trkpt><trkpt lat="44.33424" lon="8.5004867"><ele>41.199999999999996</ele><time>2026-04-30T10:24:48.945Z</time></trkpt><trkpt lat="44.3343185" lon="8.5005712"><ele>37.8</ele><time>2026-04-30T10:24:49.952Z</time></trkpt><trkpt lat="44.334392" lon="8.500652"><ele>34.4</ele><time>2026-04-30T10:24:50.943Z</time></trkpt><trkpt lat="44.334469" lon="8.500706"><ele>31.0</ele><time>2026-04-30T10:24:51.945Z</time></trkpt><trkpt lat="44.3345552" lon="8.5007058"><ele>31.000000000000004</ele><time>2026-04-30T10:24:52.95Z</time></trkpt><trkpt lat="44.3346318" lon="8.5006633"><ele>31.0</ele><time>2026-04-30T10:24:53.944Z</time></trkpt><trkpt lat="44.334754" lon="8.500669"><ele>31.0</ele><time>2026-04-30T10:24:55.949Z</time></trkpt><trkpt lat="44.334812" lon="8.5007465"><ele>31.0</ele><time>2026-04-30T10:24:56.942Z</time></trkpt><trkpt lat="44.3348485" lon="8.5008357"><ele>31.000000000000004</ele><time>2026-04-30T10:24:57.948Z</time></trkpt><trkpt lat="44.3348362" lon="8.5009462"><ele>31.0</ele><time>2026-04-30T10:24:58.942Z</time></trkpt><trkpt lat="44.3347922" lon="8.5010778"><ele>31.8</ele><time>2026-04-30T10:24:59.946Z</time></trkpt><trkpt lat="44.3347658" lon="8.5012183"><ele>32.6</ele><time>2026-04-30T10:25:00.945Z</time></trkpt><trkpt lat="44.3347572" lon="8.5013567"><ele>33.4</ele><time>2026-04-30T10:25:01.946Z</time></trkpt><trkpt lat="44.3347562" lon="8.5014985"><ele>34.2</ele><time>2026-04-30T10:25:02.946Z</time></trkpt><trkpt lat="44.334767" lon="8.501636"><ele>35.0</ele><time>2026-04-30T10:25:03.944Z</time></trkpt><trkpt lat="44.334796" lon="8.5017687"><ele>35.0</ele><time>2026-04-30T10:25:04.944Z</time></trkpt><trkpt lat="44.3348508" lon="8.5018798"><ele>35.0</ele><time>2026-04-30T10:25:05.944Z</time></trkpt><trkpt lat="44.3349243" lon="8.5019753"><ele>35.0</ele><time>2026-04-30T10:25:06.945Z</time></trkpt><trkpt lat="44.3350107" lon="8.5020587"><ele>35.0</ele><time>2026-04-30T10:25:07.942Z</time></trkpt><trkpt lat="44.3350773" lon="8.5021698"><ele>35.0</ele><time>2026-04-30T10:25:08.944Z</time></trkpt><trkpt lat="44.335129" lon="8.5022943"><ele>32.2</ele><time>2026-04-30T10:25:09.943Z</time></trkpt><trkpt lat="44.3351628" lon="8.5024255"><ele>29.4</ele><time>2026-04-30T10:25:10.944Z</time></trkpt><trkpt lat="44.335199" lon="8.5025578"><ele>26.6</ele><time>2026-04-30T10:25:11.946Z</time></trkpt><trkpt lat="44.3352513" lon="8.5026755"><ele>23.8</ele><time>2026-04-30T10:25:12.942Z</time></trkpt><trkpt lat="44.335312" lon="8.50279"><ele>21.0</ele><time>2026-04-30T10:25:13.95Z</time></trkpt><trkpt lat="44.3353667" lon="8.5029037"><ele>18.8</ele><time>2026-04-30T10:25:14.943Z</time></trkpt><trkpt lat="44.335415" lon="8.5030255"><ele>16.6</ele><time>2026-04-30T10:25:15.944Z</time></trkpt><trkpt lat="44.3354432" lon="8.503157"><ele>14.4</ele><time>2026-04-30T10:25:16.947Z</time></trkpt><trkpt lat="44.3354583" lon="8.5032922"><ele>12.2</ele><time>2026-04-30T10:25:17.952Z</time></trkpt><trkpt lat="44.3354733" lon="8.503424"><ele>10.0</ele><time>2026-04-30T10:25:18.945Z</time></trkpt><trkpt lat="44.3354812" lon="8.5035475"><ele>10.0</ele><time>2026-04-30T10:25:19.955Z</time></trkpt><trkpt lat="44.335489" lon="8.5036592"><ele>10.0</ele><time>2026-04-30T10:25:20.944Z</time></trkpt><trkpt lat="44.3354992" lon="8.5037545"><ele>10.0</ele><time>2026-04-30T10:25:21.946Z</time></trkpt><trkpt lat="44.3355095" lon="8.5039203"><ele>10.0</ele><time>2026-04-30T10:25:23.947Z</time></trkpt><trkpt lat="44.3355623" lon="8.504015"><ele>10.0</ele><time>2026-04-30T10:25:25.947Z</time></trkpt><trkpt lat="44.3356818" lon="8.5039587"><ele>10.0</ele><time>2026-04-30T10:25:27.945Z</time></trkpt><trkpt lat="44.3357497" lon="8.5039092"><ele>10.0</ele><time>2026-04-30T10:25:28.946Z</time></trkpt><trkpt lat="44.3358318" lon="8.5038623"><ele>10.0</ele><time>2026-04-30T10:25:29.942Z</time></trkpt><trkpt lat="44.3359243" lon="8.503818"><ele>10.0</ele><time>2026-04-30T10:25:30.952Z</time></trkpt><trkpt lat="44.3360217" lon="8.5037788"><ele>10.0</ele><time>2026-04-30T10:25:31.947Z</time></trkpt><trkpt lat="44.3361223" lon="8.5037298"><ele>10.0</ele><time>2026-04-30T10:25:32.945Z</time></trkpt><trkpt lat="44.3362267" lon="8.5036753"><ele>10.0</ele><time>2026-04-30T10:25:33.946Z</time></trkpt><trkpt lat="44.3363247" lon="8.5036087"><ele>10.0</ele><time>2026-04-30T10:25:34.945Z</time></trkpt><trkpt lat="44.3364235" lon="8.503527"><ele>10.0</ele><time>2026-04-30T10:25:35.948Z</time></trkpt><trkpt lat="44.3365107" lon="8.5034367"><ele>10.0</ele><time>2026-04-30T10:25:36.945Z</time></trkpt><trkpt lat="44.336595" lon="8.503351"><ele>9.6</ele><time>2026-04-30T10:25:37.949Z</time></trkpt><trkpt lat="44.3366758" lon="8.503257"><ele>9.2</ele><time>2026-04-30T10:25:38.944Z</time></trkpt><trkpt lat="44.3367543" lon="8.5031623"><ele>8.8</ele><time>2026-04-30T10:25:39.946Z</time></trkpt><trkpt lat="44.3368303" lon="8.5030835"><ele>8.4</ele><time>2026-04-30T10:25:40.944Z</time></trkpt><trkpt lat="44.3368993" lon="8.5030107"><ele>8.0</ele><time>2026-04-30T10:25:41.944Z</time></trkpt><trkpt lat="44.3369595" lon="8.502944"><ele>8.0</ele><time>2026-04-30T10:25:42.946Z</time></trkpt><trkpt lat="44.337015" lon="8.5028817"><ele>7.999999999999999</ele><time>2026-04-30T10:25:43.943Z</time></trkpt><trkpt lat="44.3370693" lon="8.5028243"><ele>8.0</ele><time>2026-04-30T10:25:44.944Z</time></trkpt><trkpt lat="44.3371203" lon="8.5027663"><ele>8.0</ele><time>2026-04-30T10:25:45.946Z</time></trkpt><trkpt lat="44.3371738" lon="8.5027013"><ele>7.999999999999999</ele><time>2026-04-30T10:25:46.942Z</time></trkpt><trkpt lat="44.3372282" lon="8.5026368"><ele>8.0</ele><time>2026-04-30T10:25:47.943Z</time></trkpt><trkpt lat="44.3372812" lon="8.5025618"><ele>8.0</ele><time>2026-04-30T10:25:48.943Z</time></trkpt><trkpt lat="44.3373333" lon="8.5024857"><ele>8.142857142857142</ele><time>2026-04-30T10:25:49.955Z</time></trkpt><trkpt lat="44.3373907" lon="8.5024133"><ele>8.285714285714285</ele><time>2026-04-30T10:25:50.948Z</time></trkpt><trkpt lat="44.3374477" lon="8.5023447"><ele>8.428571428571429</ele><time>2026-04-30T10:25:51.944Z</time></trkpt><trkpt lat="44.3375017" lon="8.5022737"><ele>8.571428571428571</ele><time>2026-04-30T10:25:52.943Z</time></trkpt><trkpt lat="44.3375548" lon="8.5022008"><ele>8.714285714285715</ele><time>2026-04-30T10:25:53.943Z</time></trkpt><trkpt lat="44.3376063" lon="8.5021315"><ele>8.857142857142858</ele><time>2026-04-30T10:25:54.943Z</time></trkpt><trkpt lat="44.3376598" lon="8.5020622"><ele>9.0</ele><time>2026-04-30T10:25:55.943Z</time></trkpt><trkpt lat="44.3377115" lon="8.5019968"><ele>9.4</ele><time>2026-04-30T10:25:56.943Z</time></trkpt><trkpt lat="44.3377608" lon="8.5019398"><ele>9.8</ele><time>2026-04-30T10:25:57.943Z</time></trkpt><trkpt lat="44.3378575" lon="8.5018207"><ele>10.200000000000001</ele><time>2026-04-30T10:25:59.944Z</time></trkpt><trkpt lat="44.3379117" lon="8.5017387"><ele>10.600000000000001</ele><time>2026-04-30T10:26:00.942Z</time></trkpt><trkpt lat="44.3379585" lon="8.5016382"><ele>11.0</ele><time>2026-04-30T10:26:01.944Z</time></trkpt><trkpt lat="44.33801" lon="8.5015282"><ele>11.0</ele><time>2026-04-30T10:26:02.949Z</time></trkpt><trkpt lat="44.3380663" lon="8.5014117"><ele>11.0</ele><time>2026-04-30T10:26:03.942Z</time></trkpt><trkpt lat="44.3381278" lon="8.5012963"><ele>11.0</ele><time>2026-04-30T10:26:04.942Z</time></trkpt><trkpt lat="44.3381823" lon="8.5011843"><ele>11.0</ele><time>2026-04-30T10:26:05.943Z</time></trkpt><trkpt lat="44.3382193" lon="8.501068"><ele>11.0</ele><time>2026-04-30T10:26:06.943Z</time></trkpt><trkpt lat="44.3382358" lon="8.500963"><ele>11.0</ele><time>2026-04-30T10:26:07.944Z</time></trkpt><trkpt lat="44.3382503" lon="8.5008715"><ele>11.0</ele><time>2026-04-30T10:26:08.944Z</time></trkpt><trkpt lat="44.3383422" lon="8.50073"><ele>11.0</ele><time>2026-04-30T10:26:10.945Z</time></trkpt><trkpt lat="44.338422" lon="8.5006657"><ele>11.0</ele><time>2026-04-30T10:26:11.948Z</time></trkpt><trkpt lat="44.3384932" lon="8.5006225"><ele>11.0</ele><time>2026-04-30T10:26:12.946Z</time></trkpt><trkpt lat="44.3386068" lon="8.500673"><ele>11.0</ele><time>2026-04-30T10:26:14.947Z</time></trkpt><trkpt lat="44.338677" lon="8.5007143"><ele>11.0</ele><time>2026-04-30T10:26:15.947Z</time></trkpt><trkpt lat="44.3387645" lon="8.5007433"><ele>11.0</ele><time>2026-04-30T10:26:16.948Z</time></trkpt><trkpt lat="44.3388625" lon="8.5007737"><ele>11.0</ele><time>2026-04-30T10:26:17.944Z</time></trkpt><trkpt lat="44.3389473" lon="8.5008363"><ele>11.0</ele><time>2026-04-30T10:26:18.944Z</time></trkpt><trkpt lat="44.3390132" lon="8.500929"><ele>10.75</ele><time>2026-04-30T10:26:19.95Z</time></trkpt><trkpt lat="44.3390638" lon="8.5010485"><ele>10.5</ele><time>2026-04-30T10:26:20.945Z</time></trkpt><trkpt lat="44.3391075" lon="8.5011867"><ele>10.25</ele><time>2026-04-30T10:26:21.943Z</time></trkpt><trkpt lat="44.3391455" lon="8.501346"><ele>10.0</ele><time>2026-04-30T10:26:22.95Z</time></trkpt><trkpt lat="44.3391963" lon="8.5015125"><ele>10.0</ele><time>2026-04-30T10:26:23.944Z</time></trkpt><trkpt lat="44.3392502" lon="8.5016805"><ele>10.0</ele><time>2026-04-30T10:26:24.944Z</time></trkpt><trkpt lat="44.3393047" lon="8.5018495"><ele>10.0</ele><time>2026-04-30T10:26:25.946Z</time></trkpt><trkpt lat="44.339371" lon="8.5020082"><ele>10.0</ele><time>2026-04-30T10:26:26.944Z</time></trkpt><trkpt lat="44.3394518" lon="8.5021448"><ele>9.6</ele><time>2026-04-30T10:26:27.945Z</time></trkpt><trkpt lat="44.3395422" lon="8.5022705"><ele>9.2</ele><time>2026-04-30T10:26:28.946Z</time></trkpt><trkpt lat="44.3396363" lon="8.5023617"><ele>8.8</ele><time>2026-04-30T10:26:29.943Z</time></trkpt><trkpt lat="44.3397418" lon="8.5023857"><ele>8.4</ele><time>2026-04-30T10:26:30.943Z</time></trkpt><trkpt lat="44.3398368" lon="8.5023625"><ele>8.0</ele><time>2026-04-30T10:26:31.945Z</time></trkpt><trkpt lat="44.3399252" lon="8.5022908"><ele>8.0</ele><time>2026-04-30T10:26:32.945Z</time></trkpt><trkpt lat="44.3400053" lon="8.5021838"><ele>8.0</ele><time>2026-04-30T10:26:33.945Z</time></trkpt><trkpt lat="44.340069" lon="8.5020512"><ele>8.0</ele><time>2026-04-30T10:26:34.945Z</time></trkpt><trkpt lat="44.3401325" lon="8.501961"><ele>8.0</ele><time>2026-04-30T10:26:35.944Z</time></trkpt><trkpt lat="44.3402045" lon="8.5019167"><ele>8.0</ele><time>2026-04-30T10:26:36.948Z</time></trkpt><trkpt lat="44.3402757" lon="8.5019325"><ele>8.0</ele><time>2026-04-30T10:26:37.943Z</time></trkpt><trkpt lat="44.3403307" lon="8.5019992"><ele>8.0</ele><time>2026-04-30T10:26:38.945Z</time></trkpt><trkpt lat="44.340379" lon="8.5020885"><ele>8.0</ele><time>2026-04-30T10:26:39.944Z</time></trkpt><trkpt lat="44.3404228" lon="8.5022023"><ele>8.0</ele><time>2026-04-30T10:26:40.946Z</time></trkpt><trkpt lat="44.3404722" lon="8.5023368"><ele>8.0</ele><time>2026-04-30T10:26:41.948Z</time></trkpt><trkpt lat="44.3405317" lon="8.5024815"><ele>8.0</ele><time>2026-04-30T10:26:42.952Z</time></trkpt><trkpt lat="44.3405932" lon="8.5026357"><ele>8.0</ele><time>2026-04-30T10:26:43.942Z</time></trkpt><trkpt lat="44.3406573" lon="8.502791"><ele>8.0</ele><time>2026-04-30T10:26:44.944Z</time></trkpt><trkpt lat="44.3407282" lon="8.5029428"><ele>8.0</ele><time>2026-04-30T10:26:45.946Z</time></trkpt><trkpt lat="44.3407987" lon="8.5030978"><ele>8.25</ele><time>2026-04-30T10:26:46.949Z</time></trkpt><trkpt lat="44.3408733" lon="8.5032672"><ele>8.5</ele><time>2026-04-30T10:26:47.945Z</time></trkpt><trkpt lat="44.3409497" lon="8.503438"><ele>8.75</ele><time>2026-04-30T10:26:48.944Z</time></trkpt><trkpt lat="44.341019" lon="8.5035978"><ele>9.0</ele><time>2026-04-30T10:26:49.95Z</time></trkpt><trkpt lat="44.3410882" lon="8.5037505"><ele>9.4</ele><time>2026-04-30T10:26:50.945Z</time></trkpt><trkpt lat="44.341148" lon="8.5038868"><ele>9.8</ele><time>2026-04-30T10:26:51.945Z</time></trkpt><trkpt lat="44.3412135" lon="8.5040087"><ele>10.200000000000001</ele><time>2026-04-30T10:26:52.946Z</time></trkpt><trkpt lat="44.3412838" lon="8.504101"><ele>10.600000000000001</ele><time>2026-04-30T10:26:53.943Z</time></trkpt><trkpt lat="44.3413503" lon="8.5041737"><ele>11.0</ele><time>2026-04-30T10:26:54.948Z</time></trkpt><trkpt lat="44.341413" lon="8.504247"><ele>11.0</ele><time>2026-04-30T10:26:55.946Z</time></trkpt><trkpt lat="44.3414472" lon="8.5043243"><ele>11.0</ele><time>2026-04-30T10:26:56.945Z</time></trkpt><trkpt lat="44.3414388" lon="8.5044877"><ele>11.0</ele><time>2026-04-30T10:26:58.949Z</time></trkpt><trkpt lat="44.3414065" lon="8.5045673"><ele>11.0</ele><time>2026-04-30T10:26:59.947Z</time></trkpt><trkpt lat="44.3413472" lon="8.5046605"><ele>11.0</ele><time>2026-04-30T10:27:00.944Z</time></trkpt><trkpt lat="44.3412732" lon="8.5047672"><ele>11.0</ele><time>2026-04-30T10:27:01.949Z</time></trkpt><trkpt lat="44.3411892" lon="8.504884"><ele>11.0</ele><time>2026-04-30T10:27:02.943Z</time></trkpt><trkpt lat="44.3411007" lon="8.505013"><ele>11.0</ele><time>2026-04-30T10:27:03.944Z</time></trkpt><trkpt lat="44.3410068" lon="8.5051477"><ele>11.0</ele><time>2026-04-30T10:27:04.947Z</time></trkpt><trkpt lat="44.3409137" lon="8.505283"><ele>11.0</ele><time>2026-04-30T10:27:05.946Z</time></trkpt><trkpt lat="44.3408178" lon="8.50542"><ele>10.5</ele><time>2026-04-30T10:27:06.946Z</time></trkpt><trkpt lat="44.340723" lon="8.5055602"><ele>10.0</ele><time>2026-04-30T10:27:07.945Z</time></trkpt><trkpt lat="44.3406255" lon="8.5057042"><ele>9.5</ele><time>2026-04-30T10:27:08.945Z</time></trkpt><trkpt lat="44.340528" lon="8.5058572"><ele>9.0</ele><time>2026-04-30T10:27:09.95Z</time></trkpt><trkpt lat="44.3404338" lon="8.5060068"><ele>9.0</ele><time>2026-04-30T10:27:10.941Z</time></trkpt><trkpt lat="44.3403445" lon="8.5061322"><ele>9.0</ele><time>2026-04-30T10:27:11.943Z</time></trkpt><trkpt lat="44.3402512" lon="8.506253"><ele>9.0</ele><time>2026-04-30T10:27:12.945Z</time></trkpt><trkpt lat="44.3401573" lon="8.506396"><ele>9.0</ele><time>2026-04-30T10:27:13.944Z</time></trkpt><trkpt lat="44.3400683" lon="8.5065582"><ele>11.0</ele><time>2026-04-30T10:27:14.944Z</time></trkpt><trkpt lat="44.3399987" lon="8.5067443"><ele>13.0</ele><time>2026-04-30T10:27:15.943Z</time></trkpt><trkpt lat="44.3399527" lon="8.5069465"><ele>15.0</ele><time>2026-04-30T10:27:16.943Z</time></trkpt><trkpt lat="44.3399028" lon="8.5071432"><ele>18.0</ele><time>2026-04-30T10:27:17.943Z</time></trkpt><trkpt lat="44.339859" lon="8.5073458"><ele>21.0</ele><time>2026-04-30T10:27:18.945Z</time></trkpt><trkpt lat="44.3398088" lon="8.5075468"><ele>24.0</ele><time>2026-04-30T10:27:19.943Z</time></trkpt><trkpt lat="44.3397588" lon="8.5077385"><ele>20.75</ele><time>2026-04-30T10:27:20.945Z</time></trkpt><trkpt lat="44.3397083" lon="8.5079338"><ele>17.5</ele><time>2026-04-30T10:27:21.943Z</time></trkpt><trkpt lat="44.339654" lon="8.5081262"><ele>14.25</ele><time>2026-04-30T10:27:22.942Z</time></trkpt><trkpt lat="44.3396028" lon="8.5083205"><ele>11.0</ele><time>2026-04-30T10:27:23.945Z</time></trkpt><trkpt lat="44.3395517" lon="8.5085068"><ele>11.0</ele><time>2026-04-30T10:27:24.943Z</time></trkpt><trkpt lat="44.3395033" lon="8.5086705"><ele>11.0</ele><time>2026-04-30T10:27:25.943Z</time></trkpt><trkpt lat="44.3394613" lon="8.5088137"><ele>11.0</ele><time>2026-04-30T10:27:26.943Z</time></trkpt><trkpt lat="44.3394182" lon="8.5089622"><ele>11.0</ele><time>2026-04-30T10:27:27.946Z</time></trkpt><trkpt lat="44.339383" lon="8.5091143"><ele>11.4</ele><time>2026-04-30T10:27:28.948Z</time></trkpt><trkpt lat="44.339347" lon="8.5092648"><ele>11.8</ele><time>2026-04-30T10:27:29.943Z</time></trkpt><trkpt lat="44.3393075" lon="8.5094018"><ele>12.200000000000001</ele><time>2026-04-30T10:27:30.943Z</time></trkpt><trkpt lat="44.3392703" lon="8.5095223"><ele>12.600000000000001</ele><time>2026-04-30T10:27:31.956Z</time></trkpt><trkpt lat="44.3392315" lon="8.5096263"><ele>13.0</ele><time>2026-04-30T10:27:32.944Z</time></trkpt><trkpt lat="44.339196" lon="8.5097187"><ele>13.2</ele><time>2026-04-30T10:27:33.948Z</time></trkpt><trkpt lat="44.3391592" lon="8.5098025"><ele>13.4</ele><time>2026-04-30T10:27:34.943Z</time></trkpt><trkpt lat="44.3391245" lon="8.5098852"><ele>13.599999999999998</ele><time>2026-04-30T10:27:35.944Z</time></trkpt><trkpt lat="44.3390637" lon="8.510025"><ele>13.799999999999999</ele><time>2026-04-30T10:27:37.943Z</time></trkpt><trkpt lat="44.3389847" lon="8.510119"><ele>14.0</ele><time>2026-04-30T10:27:39.944Z</time></trkpt><trkpt lat="44.3388523" lon="8.5101567"><ele>13.333333333333334</ele><time>2026-04-30T10:27:41.946Z</time></trkpt><trkpt lat="44.3387752" lon="8.5101647"><ele>12.666666666666668</ele><time>2026-04-30T10:27:42.944Z</time></trkpt><trkpt lat="44.3386932" lon="8.5101722"><ele>12.0</ele><time>2026-04-30T10:27:43.944Z</time></trkpt><trkpt lat="44.3386092" lon="8.510162"><ele>11.333333333333334</ele><time>2026-04-30T10:27:44.95Z</time></trkpt><trkpt lat="44.3385312" lon="8.5101303"><ele>10.666666666666668</ele><time>2026-04-30T10:27:45.944Z</time></trkpt><trkpt lat="44.3384665" lon="8.5100908"><ele>10.0</ele><time>2026-04-30T10:27:46.947Z</time></trkpt><trkpt lat="44.3383782" lon="8.510022"><ele>10.0</ele><time>2026-04-30T10:27:48.945Z</time></trkpt><trkpt lat="44.3383332" lon="8.5101583"><ele>10.0</ele><time>2026-04-30T10:27:54.945Z</time></trkpt><trkpt lat="44.3383442" lon="8.5103575"><ele>10.0</ele><time>2026-04-30T10:27:56.957Z</time></trkpt><trkpt lat="44.338345" lon="8.5104713"><ele>10.0</ele><time>2026-04-30T10:27:57.951Z</time></trkpt><trkpt lat="44.3383477" lon="8.510575"><ele>10.0</ele><time>2026-04-30T10:27:58.947Z</time></trkpt><trkpt lat="44.3383357" lon="8.5107365"><ele>10.5</ele><time>2026-04-30T10:28:00.947Z</time></trkpt><trkpt lat="44.3383152" lon="8.5108205"><ele>11.0</ele><time>2026-04-30T10:28:01.943Z</time></trkpt><trkpt lat="44.338295" lon="8.5109043"><ele>11.5</ele><time>2026-04-30T10:28:02.945Z</time></trkpt><trkpt lat="44.3382747" lon="8.510988"><ele>12.0</ele><time>2026-04-30T10:28:03.943Z</time></trkpt><trkpt lat="44.3382343" lon="8.5111423"><ele>12.499999999999998</ele><time>2026-04-30T10:28:05.943Z</time></trkpt><trkpt lat="44.3381762" lon="8.51122"><ele>13.0</ele><time>2026-04-30T10:28:07.945Z</time></trkpt><trkpt lat="44.3381292" lon="8.511367"><ele>13.2</ele><time>2026-04-30T10:28:09.946Z</time></trkpt><trkpt lat="44.3381025" lon="8.5114735"><ele>13.4</ele><time>2026-04-30T10:28:10.945Z</time></trkpt><trkpt lat="44.3380687" lon="8.511589"><ele>13.599999999999998</ele><time>2026-04-30T10:28:11.945Z</time></trkpt><trkpt lat="44.3380382" lon="8.5117268"><ele>13.799999999999999</ele><time>2026-04-30T10:28:12.943Z</time></trkpt><trkpt lat="44.3380012" lon="8.5118778"><ele>14.0</ele><time>2026-04-30T10:28:13.945Z</time></trkpt><trkpt lat="44.337967" lon="8.5120328"><ele>13.2</ele><time>2026-04-30T10:28:14.947Z</time></trkpt><trkpt lat="44.3379362" lon="8.5121818"><ele>12.399999999999999</ele><time>2026-04-30T10:28:15.943Z</time></trkpt><trkpt lat="44.3379102" lon="8.5123248"><ele>11.6</ele><time>2026-04-30T10:28:16.947Z</time></trkpt><trkpt lat="44.3378867" lon="8.5124498"><ele>10.8</ele><time>2026-04-30T10:28:17.948Z</time></trkpt><trkpt lat="44.3378635" lon="8.5125688"><ele>10.0</ele><time>2026-04-30T10:28:18.944Z</time></trkpt><trkpt lat="44.3378427" lon="8.5126717"><ele>10.0</ele><time>2026-04-30T10:28:19.946Z</time></trkpt><trkpt lat="44.3378242" lon="8.5127592"><ele>10.0</ele><time>2026-04-30T10:28:20.948Z</time></trkpt><trkpt lat="44.3378033" lon="8.5128803"><ele>10.0</ele><time>2026-04-30T10:28:22.943Z</time></trkpt><trkpt lat="44.3377982" lon="8.5129767"><ele>11.0</ele><time>2026-04-30T10:28:24.943Z</time></trkpt><trkpt lat="44.3378815" lon="8.5130117"><ele>11.0</ele><time>2026-04-30T10:28:27.94Z</time></trkpt><trkpt lat="44.3379485" lon="8.512985"><ele>11.0</ele><time>2026-04-30T10:28:31.944Z</time></trkpt></trkseg></trk></gpx>